<?xml version="1.0" encoding="UTF-8"?>
<gpx version="1.1" creator="2bulu-scraper" xmlns="http://www.topografix.com/GPX/1/1">
  <metadata><name>宜宾七星山</name><desc>source: 2bulu.com trackId=77635557; exported 2026-08-30T14:29:03.159Z</desc></metadata>
  <wpt lat="28.744335" lon="104.652304"><ele>360</ele><name>无人机基地左转上坡</name></wpt>
  <wpt lat="28.744613" lon="104.652587"><ele>365</ele><name></name></wpt>
  <wpt lat="28.745006" lon="104.653151"><ele>367</ele><name></name></wpt>
  <wpt lat="28.745718" lon="104.654511"><ele>376</ele><name></name></wpt>
  <wpt lat="28.738151" lon="104.656797"><ele>591</ele><name></name></wpt>
  <wpt lat="28.737758" lon="104.657007"><ele>604</ele><name></name></wpt>
  <wpt lat="28.739475" lon="104.658762"><ele>633</ele><name></name></wpt>
  <wpt lat="28.740604" lon="104.659913"><ele>633</ele><name></name></wpt>
  <wpt lat="28.741596" lon="104.661811"><ele>638</ele><name></name></wpt>
  <wpt lat="28.742442" lon="104.661813"><ele>620</ele><name></name></wpt>
  <wpt lat="28.744309" lon="104.662369"><ele>593</ele><name></name></wpt>
  <wpt lat="28.746645" lon="104.663225"><ele>605</ele><name></name></wpt>
  <wpt lat="28.748167" lon="104.664484"><ele>623</ele><name></name></wpt>
  <wpt lat="28.749827" lon="104.669846"><ele>575</ele><name></name></wpt>
  <wpt lat="28.75022" lon="104.670467"><ele>555</ele><name></name></wpt>
  <wpt lat="28.750268" lon="104.671303"><ele>551</ele><name></name></wpt>
  <wpt lat="28.750089" lon="104.673106"><ele>517</ele><name></name></wpt>
  <wpt lat="28.750408" lon="104.672937"><ele>517</ele><name></name></wpt>
  <wpt lat="28.751153" lon="104.673161"><ele>500</ele><name></name></wpt>
  <wpt lat="28.75102" lon="104.673578"><ele>494</ele><name></name></wpt>
  <wpt lat="28.750925" lon="104.67368"><ele>490</ele><name></name></wpt>
  <wpt lat="28.751174" lon="104.674449"><ele>469</ele><name></name></wpt>
  <wpt lat="28.751759" lon="104.673988"><ele>439</ele><name>左手边出发</name></wpt>
  <wpt lat="28.752549" lon="104.673154"><ele>429</ele><name>右转</name></wpt>
  <wpt lat="28.752709" lon="104.673773"><ele>372</ele><name></name></wpt>
  <wpt lat="28.753512" lon="104.674792"><ele>339</ele><name>楼梯上下来左转</name></wpt>
  <wpt lat="28.753652" lon="104.674631"><ele>346</ele><name></name></wpt>
  <wpt lat="28.754806" lon="104.675666"><ele>306</ele><name></name></wpt>
  <trk><name>宜宾七星山</name>
      <trkseg>
        <trkpt lat="28.748061" lon="104.648256"><ele>284.88385</ele><time>2026-01-09T21:32:22.000Z</time></trkpt>
        <trkpt lat="28.747964" lon="104.64829"><ele>284.97934</ele><time>2026-01-09T21:33:49.000Z</time></trkpt>
        <trkpt lat="28.747974" lon="104.648353"><ele>285.68057</ele><time>2026-01-09T21:33:57.000Z</time></trkpt>
        <trkpt lat="28.747957" lon="104.648409"><ele>286.08975</ele><time>2026-01-09T21:34:01.000Z</time></trkpt>
        <trkpt lat="28.747934" lon="104.648455"><ele>286.111</ele><time>2026-01-09T21:34:05.000Z</time></trkpt>
        <trkpt lat="28.747918" lon="104.648506"><ele>286.43927</ele><time>2026-01-09T21:34:09.000Z</time></trkpt>
        <trkpt lat="28.747883" lon="104.648557"><ele>286.44153</ele><time>2026-01-09T21:34:14.000Z</time></trkpt>
        <trkpt lat="28.747846" lon="104.648588"><ele>287.18362</ele><time>2026-01-09T21:34:18.000Z</time></trkpt>
        <trkpt lat="28.747808" lon="104.648632"><ele>286.86838</ele><time>2026-01-09T21:34:25.000Z</time></trkpt>
        <trkpt lat="28.747775" lon="104.648673"><ele>287.00613</ele><time>2026-01-09T21:34:30.000Z</time></trkpt>
        <trkpt lat="28.747752" lon="104.648718"><ele>287.32108</ele><time>2026-01-09T21:34:36.000Z</time></trkpt>
        <trkpt lat="28.747738" lon="104.648776"><ele>286.87595</ele><time>2026-01-09T21:34:42.000Z</time></trkpt>
        <trkpt lat="28.74772" lon="104.648831"><ele>286.15637</ele><time>2026-01-09T21:34:47.000Z</time></trkpt>
        <trkpt lat="28.747688" lon="104.648868"><ele>286.14633</ele><time>2026-01-09T21:34:51.000Z</time></trkpt>
        <trkpt lat="28.747666" lon="104.64892"><ele>286.73816</ele><time>2026-01-09T21:34:56.000Z</time></trkpt>
        <trkpt lat="28.747648" lon="104.648974"><ele>286.57147</ele><time>2026-01-09T21:35:02.000Z</time></trkpt>
        <trkpt lat="28.747619" lon="104.649014"><ele>286.41614</ele><time>2026-01-09T21:35:07.000Z</time></trkpt>
        <trkpt lat="28.747586" lon="104.649063"><ele>287.1329</ele><time>2026-01-09T21:35:12.000Z</time></trkpt>
        <trkpt lat="28.747551" lon="104.649107"><ele>286.44006</ele><time>2026-01-09T21:35:17.000Z</time></trkpt>
        <trkpt lat="28.747512" lon="104.649132"><ele>286.63452</ele><time>2026-01-09T21:35:21.000Z</time></trkpt>
        <trkpt lat="28.747469" lon="104.649158"><ele>287.1925</ele><time>2026-01-09T21:35:27.000Z</time></trkpt>
        <trkpt lat="28.747419" lon="104.649179"><ele>287.85944</ele><time>2026-01-09T21:35:34.000Z</time></trkpt>
        <trkpt lat="28.747375" lon="104.649203"><ele>288.16257</ele><time>2026-01-09T21:35:39.000Z</time></trkpt>
        <trkpt lat="28.747324" lon="104.649223"><ele>288.5631</ele><time>2026-01-09T21:35:46.000Z</time></trkpt>
        <trkpt lat="28.747274" lon="104.649241"><ele>288.71393</ele><time>2026-01-09T21:35:53.000Z</time></trkpt>
        <trkpt lat="28.747232" lon="104.649264"><ele>289.15378</ele><time>2026-01-09T21:35:59.000Z</time></trkpt>
        <trkpt lat="28.747187" lon="104.649291"><ele>289.50586</ele><time>2026-01-09T21:36:05.000Z</time></trkpt>
        <trkpt lat="28.74714" lon="104.649316"><ele>289.19998</ele><time>2026-01-09T21:36:11.000Z</time></trkpt>
        <trkpt lat="28.747095" lon="104.649353"><ele>289.58557</ele><time>2026-01-09T21:36:18.000Z</time></trkpt>
        <trkpt lat="28.747052" lon="104.649376"><ele>289.86984</ele><time>2026-01-09T21:36:23.000Z</time></trkpt>
        <trkpt lat="28.747016" lon="104.649406"><ele>290.142</ele><time>2026-01-09T21:36:28.000Z</time></trkpt>
        <trkpt lat="28.746979" lon="104.649441"><ele>290.33972</ele><time>2026-01-09T21:36:34.000Z</time></trkpt>
        <trkpt lat="28.746946" lon="104.649485"><ele>289.69922</ele><time>2026-01-09T21:36:41.000Z</time></trkpt>
        <trkpt lat="28.746912" lon="104.649528"><ele>289.44373</ele><time>2026-01-09T21:36:46.000Z</time></trkpt>
        <trkpt lat="28.74686" lon="104.649555"><ele>290.082</ele><time>2026-01-09T21:36:51.000Z</time></trkpt>
        <trkpt lat="28.74682" lon="104.649595"><ele>291.12143</ele><time>2026-01-09T21:36:57.000Z</time></trkpt>
        <trkpt lat="28.746791" lon="104.649642"><ele>291.6347</ele><time>2026-01-09T21:37:03.000Z</time></trkpt>
        <trkpt lat="28.746753" lon="104.649674"><ele>291.83838</ele><time>2026-01-09T21:37:07.000Z</time></trkpt>
        <trkpt lat="28.746707" lon="104.6497"><ele>292.13525</ele><time>2026-01-09T21:37:12.000Z</time></trkpt>
        <trkpt lat="28.746666" lon="104.649726"><ele>292.1627</ele><time>2026-01-09T21:37:17.000Z</time></trkpt>
        <trkpt lat="28.746623" lon="104.649751"><ele>293.3514</ele><time>2026-01-09T21:37:22.000Z</time></trkpt>
        <trkpt lat="28.74658" lon="104.649778"><ele>293.73645</ele><time>2026-01-09T21:37:28.000Z</time></trkpt>
        <trkpt lat="28.746537" lon="104.649798"><ele>294.28036</ele><time>2026-01-09T21:37:33.000Z</time></trkpt>
        <trkpt lat="28.746491" lon="104.649823"><ele>294.94345</ele><time>2026-01-09T21:37:45.000Z</time></trkpt>
        <trkpt lat="28.746452" lon="104.649851"><ele>295.45035</ele><time>2026-01-09T21:38:18.000Z</time></trkpt>
        <trkpt lat="28.746409" lon="104.649887"><ele>296.112</ele><time>2026-01-09T21:38:24.000Z</time></trkpt>
        <trkpt lat="28.74638" lon="104.649928"><ele>296.87717</ele><time>2026-01-09T21:38:29.000Z</time></trkpt>
        <trkpt lat="28.746356" lon="104.649972"><ele>297.91867</ele><time>2026-01-09T21:38:36.000Z</time></trkpt>
        <trkpt lat="28.746338" lon="104.65003"><ele>297.43735</ele><time>2026-01-09T21:38:42.000Z</time></trkpt>
        <trkpt lat="28.746326" lon="104.650082"><ele>298.00815</ele><time>2026-01-09T21:38:53.000Z</time></trkpt>
        <trkpt lat="28.746332" lon="104.650141"><ele>298.30087</ele><time>2026-01-09T21:39:03.000Z</time></trkpt>
        <trkpt lat="28.746339" lon="104.650193"><ele>299.76706</ele><time>2026-01-09T21:39:09.000Z</time></trkpt>
        <trkpt lat="28.746345" lon="104.650249"><ele>300.5923</ele><time>2026-01-09T21:39:15.000Z</time></trkpt>
        <trkpt lat="28.746348" lon="104.650308"><ele>301.10718</ele><time>2026-01-09T21:39:22.000Z</time></trkpt>
        <trkpt lat="28.746351" lon="104.65036"><ele>301.73877</ele><time>2026-01-09T21:39:27.000Z</time></trkpt>
        <trkpt lat="28.746343" lon="104.65041"><ele>302.42352</ele><time>2026-01-09T21:39:32.000Z</time></trkpt>
        <trkpt lat="28.746338" lon="104.650466"><ele>302.8838</ele><time>2026-01-09T21:39:39.000Z</time></trkpt>
        <trkpt lat="28.746334" lon="104.65052"><ele>303.81586</ele><time>2026-01-09T21:39:48.000Z</time></trkpt>
        <trkpt lat="28.746346" lon="104.650576"><ele>304.77087</ele><time>2026-01-09T21:39:55.000Z</time></trkpt>
        <trkpt lat="28.746346" lon="104.650635"><ele>304.84424</ele><time>2026-01-09T21:40:01.000Z</time></trkpt>
        <trkpt lat="28.74635" lon="104.650692"><ele>304.80286</ele><time>2026-01-09T21:40:07.000Z</time></trkpt>
        <trkpt lat="28.746354" lon="104.650745"><ele>305.36438</ele><time>2026-01-09T21:40:13.000Z</time></trkpt>
        <trkpt lat="28.74636" lon="104.650802"><ele>305.8862</ele><time>2026-01-09T21:40:30.000Z</time></trkpt>
        <trkpt lat="28.746327" lon="104.650839"><ele>306.3901</ele><time>2026-01-09T21:40:39.000Z</time></trkpt>
        <trkpt lat="28.74628" lon="104.650852"><ele>308.44058</ele><time>2026-01-09T21:41:02.000Z</time></trkpt>
        <trkpt lat="28.746236" lon="104.65088"><ele>309.96637</ele><time>2026-01-09T21:41:11.000Z</time></trkpt>
        <trkpt lat="28.746191" lon="104.650901"><ele>310.69464</ele><time>2026-01-09T21:41:17.000Z</time></trkpt>
        <trkpt lat="28.746142" lon="104.650915"><ele>311.59195</ele><time>2026-01-09T21:41:24.000Z</time></trkpt>
        <trkpt lat="28.746099" lon="104.650953"><ele>311.4219</ele><time>2026-01-09T21:41:33.000Z</time></trkpt>
        <trkpt lat="28.746052" lon="104.650959"><ele>311.07233</ele><time>2026-01-09T21:41:41.000Z</time></trkpt>
        <trkpt lat="28.746032" lon="104.651016"><ele>311.81622</ele><time>2026-01-09T21:41:47.000Z</time></trkpt>
        <trkpt lat="28.746003" lon="104.65106"><ele>312.5109</ele><time>2026-01-09T21:41:52.000Z</time></trkpt>
        <trkpt lat="28.745969" lon="104.651096"><ele>312.2885</ele><time>2026-01-09T21:41:58.000Z</time></trkpt>
        <trkpt lat="28.745932" lon="104.651132"><ele>311.76797</ele><time>2026-01-09T21:42:11.000Z</time></trkpt>
        <trkpt lat="28.74589" lon="104.651165"><ele>312.25638</ele><time>2026-01-09T21:42:16.000Z</time></trkpt>
        <trkpt lat="28.745858" lon="104.651206"><ele>311.8858</ele><time>2026-01-09T21:42:22.000Z</time></trkpt>
        <trkpt lat="28.745822" lon="104.651243"><ele>312.00333</ele><time>2026-01-09T21:42:30.000Z</time></trkpt>
        <trkpt lat="28.74578" lon="104.651272"><ele>312.8649</ele><time>2026-01-09T21:42:39.000Z</time></trkpt>
        <trkpt lat="28.745732" lon="104.651295"><ele>313.21844</ele><time>2026-01-09T21:42:47.000Z</time></trkpt>
        <trkpt lat="28.745688" lon="104.651316"><ele>313.5598</ele><time>2026-01-09T21:42:55.000Z</time></trkpt>
        <trkpt lat="28.745643" lon="104.651332"><ele>313.57965</ele><time>2026-01-09T21:43:01.000Z</time></trkpt>
        <trkpt lat="28.745598" lon="104.651345"><ele>314.13748</ele><time>2026-01-09T21:43:06.000Z</time></trkpt>
        <trkpt lat="28.745545" lon="104.651344"><ele>314.00153</ele><time>2026-01-09T21:43:14.000Z</time></trkpt>
        <trkpt lat="28.745503" lon="104.651364"><ele>315.051</ele><time>2026-01-09T21:43:18.000Z</time></trkpt>
        <trkpt lat="28.745457" lon="104.651383"><ele>316.441</ele><time>2026-01-09T21:43:23.000Z</time></trkpt>
        <trkpt lat="28.745409" lon="104.651393"><ele>317.9281</ele><time>2026-01-09T21:43:28.000Z</time></trkpt>
        <trkpt lat="28.745396" lon="104.651344"><ele>319.63635</ele><time>2026-01-09T21:43:49.000Z</time></trkpt>
        <trkpt lat="28.745397" lon="104.651403"><ele>318.47723</ele><time>2026-01-09T21:44:21.000Z</time></trkpt>
        <trkpt lat="28.745361" lon="104.651436"><ele>319.4796</ele><time>2026-01-09T21:44:35.000Z</time></trkpt>
        <trkpt lat="28.745358" lon="104.651488"><ele>318.78223</ele><time>2026-01-09T21:45:10.000Z</time></trkpt>
        <trkpt lat="28.745349" lon="104.651548"><ele>319.55515</ele><time>2026-01-09T21:45:20.000Z</time></trkpt>
        <trkpt lat="28.74533" lon="104.6516"><ele>319.74292</ele><time>2026-01-09T21:45:25.000Z</time></trkpt>
        <trkpt lat="28.745302" lon="104.65165"><ele>320.15036</ele><time>2026-01-09T21:45:30.000Z</time></trkpt>
        <trkpt lat="28.745259" lon="104.651673"><ele>321.28857</ele><time>2026-01-09T21:45:35.000Z</time></trkpt>
        <trkpt lat="28.745213" lon="104.651669"><ele>321.32083</ele><time>2026-01-09T21:45:41.000Z</time></trkpt>
        <trkpt lat="28.745167" lon="104.651673"><ele>321.65326</ele><time>2026-01-09T21:45:46.000Z</time></trkpt>
        <trkpt lat="28.74512" lon="104.651656"><ele>321.48282</ele><time>2026-01-09T21:45:51.000Z</time></trkpt>
        <trkpt lat="28.745071" lon="104.651647"><ele>321.06763</ele><time>2026-01-09T21:45:56.000Z</time></trkpt>
        <trkpt lat="28.745022" lon="104.651647"><ele>321.03558</ele><time>2026-01-09T21:46:03.000Z</time></trkpt>
        <trkpt lat="28.744968" lon="104.651645"><ele>321.359</ele><time>2026-01-09T21:46:09.000Z</time></trkpt>
        <trkpt lat="28.744922" lon="104.651636"><ele>321.4555</ele><time>2026-01-09T21:46:14.000Z</time></trkpt>
        <trkpt lat="28.744873" lon="104.651631"><ele>321.57413</ele><time>2026-01-09T21:46:20.000Z</time></trkpt>
        <trkpt lat="28.744822" lon="104.651617"><ele>321.69452</ele><time>2026-01-09T21:46:26.000Z</time></trkpt>
        <trkpt lat="28.744778" lon="104.651594"><ele>322.0545</ele><time>2026-01-09T21:46:32.000Z</time></trkpt>
        <trkpt lat="28.744727" lon="104.65158"><ele>322.26382</ele><time>2026-01-09T21:46:37.000Z</time></trkpt>
        <trkpt lat="28.744685" lon="104.651551"><ele>323.09665</ele><time>2026-01-09T21:46:42.000Z</time></trkpt>
        <trkpt lat="28.744657" lon="104.651502"><ele>322.26575</ele><time>2026-01-09T21:46:59.000Z</time></trkpt>
        <trkpt lat="28.744615" lon="104.651478"><ele>322.6544</ele><time>2026-01-09T21:47:04.000Z</time></trkpt>
        <trkpt lat="28.74458" lon="104.651431"><ele>322.52286</ele><time>2026-01-09T21:47:09.000Z</time></trkpt>
        <trkpt lat="28.744542" lon="104.65139"><ele>322.63077</ele><time>2026-01-09T21:47:14.000Z</time></trkpt>
        <trkpt lat="28.74451" lon="104.651348"><ele>322.97736</ele><time>2026-01-09T21:47:19.000Z</time></trkpt>
        <trkpt lat="28.744479" lon="104.651297"><ele>323.18945</ele><time>2026-01-09T21:47:24.000Z</time></trkpt>
        <trkpt lat="28.744456" lon="104.651251"><ele>323.5817</ele><time>2026-01-09T21:47:28.000Z</time></trkpt>
        <trkpt lat="28.744434" lon="104.651201"><ele>323.82248</ele><time>2026-01-09T21:47:34.000Z</time></trkpt>
        <trkpt lat="28.744403" lon="104.651156"><ele>324.71265</ele><time>2026-01-09T21:47:42.000Z</time></trkpt>
        <trkpt lat="28.744354" lon="104.651163"><ele>324.21375</ele><time>2026-01-09T21:48:15.000Z</time></trkpt>
        <trkpt lat="28.744306" lon="104.65118"><ele>325.02206</ele><time>2026-01-09T21:48:20.000Z</time></trkpt>
        <trkpt lat="28.744258" lon="104.6512"><ele>326.45703</ele><time>2026-01-09T21:48:27.000Z</time></trkpt>
        <trkpt lat="28.74422" lon="104.651228"><ele>326.88525</ele><time>2026-01-09T21:48:31.000Z</time></trkpt>
        <trkpt lat="28.744175" lon="104.651258"><ele>328.04623</ele><time>2026-01-09T21:48:36.000Z</time></trkpt>
        <trkpt lat="28.744148" lon="104.651299"><ele>328.92657</ele><time>2026-01-09T21:48:41.000Z</time></trkpt>
        <trkpt lat="28.744147" lon="104.651351"><ele>329.95715</ele><time>2026-01-09T21:48:46.000Z</time></trkpt>
        <trkpt lat="28.744128" lon="104.651404"><ele>331.02203</ele><time>2026-01-09T21:48:51.000Z</time></trkpt>
        <trkpt lat="28.744112" lon="104.651461"><ele>332.1911</ele><time>2026-01-09T21:48:56.000Z</time></trkpt>
        <trkpt lat="28.744113" lon="104.651514"><ele>334.62216</ele><time>2026-01-09T21:49:01.000Z</time></trkpt>
        <trkpt lat="28.744127" lon="104.651565"><ele>335.98315</ele><time>2026-01-09T21:49:06.000Z</time></trkpt>
        <trkpt lat="28.744134" lon="104.651621"><ele>338.91022</ele><time>2026-01-09T21:49:18.000Z</time></trkpt>
        <trkpt lat="28.744146" lon="104.651677"><ele>340.13312</ele><time>2026-01-09T21:49:24.000Z</time></trkpt>
        <trkpt lat="28.744151" lon="104.65173"><ele>341.24927</ele><time>2026-01-09T21:49:31.000Z</time></trkpt>
        <trkpt lat="28.744141" lon="104.651786"><ele>341.93918</ele><time>2026-01-09T21:49:37.000Z</time></trkpt>
        <trkpt lat="28.744129" lon="104.651839"><ele>343.8935</ele><time>2026-01-09T21:49:44.000Z</time></trkpt>
        <trkpt lat="28.744111" lon="104.651893"><ele>344.95676</ele><time>2026-01-09T21:49:50.000Z</time></trkpt>
        <trkpt lat="28.744088" lon="104.651954"><ele>344.60962</ele><time>2026-01-09T21:49:58.000Z</time></trkpt>
        <trkpt lat="28.74407" lon="104.652009"><ele>343.68408</ele><time>2026-01-09T21:50:03.000Z</time></trkpt>
        <trkpt lat="28.744065" lon="104.652065"><ele>344.55933</ele><time>2026-01-09T21:50:08.000Z</time></trkpt>
        <trkpt lat="28.744063" lon="104.652117"><ele>345.57852</ele><time>2026-01-09T21:50:13.000Z</time></trkpt>
        <trkpt lat="28.744088" lon="104.65216"><ele>343.90973</ele><time>2026-01-09T21:50:29.000Z</time></trkpt>
        <trkpt lat="28.744104" lon="104.652208"><ele>344.30243</ele><time>2026-01-09T21:50:37.000Z</time></trkpt>
        <trkpt lat="28.744147" lon="104.652234"><ele>345.06473</ele><time>2026-01-09T21:50:54.000Z</time></trkpt>
        <trkpt lat="28.744198" lon="104.652249"><ele>345.699</ele><time>2026-01-09T21:50:59.000Z</time></trkpt>
        <trkpt lat="28.744245" lon="104.652261"><ele>353.9817</ele><time>2026-01-09T21:51:12.000Z</time></trkpt>
        <trkpt lat="28.744295" lon="104.652281"><ele>359.17004</ele><time>2026-01-09T21:51:25.000Z</time></trkpt>
        <trkpt lat="28.744335" lon="104.652304"><ele>360.0936</ele><time>2026-01-09T21:51:29.000Z</time></trkpt>
        <trkpt lat="28.744374" lon="104.652343"><ele>361.14655</ele><time>2026-01-09T21:51:46.000Z</time></trkpt>
        <trkpt lat="28.744408" lon="104.652384"><ele>362.3297</ele><time>2026-01-09T21:51:52.000Z</time></trkpt>
        <trkpt lat="28.744449" lon="104.65242"><ele>362.9772</ele><time>2026-01-09T21:52:15.000Z</time></trkpt>
        <trkpt lat="28.744476" lon="104.652469"><ele>363.6329</ele><time>2026-01-09T21:52:22.000Z</time></trkpt>
        <trkpt lat="28.744508" lon="104.652513"><ele>364.65942</ele><time>2026-01-09T21:52:27.000Z</time></trkpt>
        <trkpt lat="28.744537" lon="104.652554"><ele>365.9607</ele><time>2026-01-09T21:52:30.000Z</time></trkpt>
        <trkpt lat="28.744571" lon="104.652596"><ele>366.8908</ele><time>2026-01-09T21:52:32.000Z</time></trkpt>
        <trkpt lat="28.744603" lon="104.652641"><ele>360.17538</ele><time>2026-01-09T21:53:39.000Z</time></trkpt>
        <trkpt lat="28.744613" lon="104.652587"><ele>365.40643</ele><time>2026-01-09T21:54:04.000Z</time></trkpt>
        <trkpt lat="28.744591" lon="104.652648"><ele>363.2022</ele><time>2026-01-09T21:55:04.000Z</time></trkpt>
        <trkpt lat="28.744627" lon="104.652686"><ele>364.19086</ele><time>2026-01-09T21:55:12.000Z</time></trkpt>
        <trkpt lat="28.744671" lon="104.652717"><ele>364.33682</ele><time>2026-01-09T21:55:17.000Z</time></trkpt>
        <trkpt lat="28.744675" lon="104.65278"><ele>364.14774</ele><time>2026-01-09T21:55:22.000Z</time></trkpt>
        <trkpt lat="28.744723" lon="104.652821"><ele>364.51855</ele><time>2026-01-09T21:55:27.000Z</time></trkpt>
        <trkpt lat="28.744759" lon="104.65286"><ele>365.1009</ele><time>2026-01-09T21:55:32.000Z</time></trkpt>
        <trkpt lat="28.744803" lon="104.652894"><ele>366.03714</ele><time>2026-01-09T21:55:37.000Z</time></trkpt>
        <trkpt lat="28.744815" lon="104.652945"><ele>367.27368</ele><time>2026-01-09T21:56:28.000Z</time></trkpt>
        <trkpt lat="28.744858" lon="104.652962"><ele>367.96786</ele><time>2026-01-09T21:56:37.000Z</time></trkpt>
        <trkpt lat="28.744898" lon="104.653001"><ele>367.5524</ele><time>2026-01-09T21:56:48.000Z</time></trkpt>
        <trkpt lat="28.74494" lon="104.653024"><ele>367.6582</ele><time>2026-01-09T21:56:52.000Z</time></trkpt>
        <trkpt lat="28.74498" lon="104.653056"><ele>367.39673</ele><time>2026-01-09T21:56:57.000Z</time></trkpt>
        <trkpt lat="28.745006" lon="104.653099"><ele>367.0324</ele><time>2026-01-09T21:57:13.000Z</time></trkpt>
        <trkpt lat="28.745006" lon="104.653151"><ele>367.32117</ele><time>2026-01-09T21:57:28.000Z</time></trkpt>
        <trkpt lat="28.74498" lon="104.653196"><ele>370.49432</ele><time>2026-01-09T21:57:52.000Z</time></trkpt>
        <trkpt lat="28.744971" lon="104.653135"><ele>368.39084</ele><time>2026-01-09T21:58:16.000Z</time></trkpt>
        <trkpt lat="28.745022" lon="104.653144"><ele>367.3951</ele><time>2026-01-09T21:58:27.000Z</time></trkpt>
        <trkpt lat="28.745065" lon="104.653171"><ele>367.52774</ele><time>2026-01-09T21:58:31.000Z</time></trkpt>
        <trkpt lat="28.745099" lon="104.65321"><ele>367.7309</ele><time>2026-01-09T21:58:35.000Z</time></trkpt>
        <trkpt lat="28.745125" lon="104.653254"><ele>367.59256</ele><time>2026-01-09T21:58:39.000Z</time></trkpt>
        <trkpt lat="28.745165" lon="104.653298"><ele>368.19986</ele><time>2026-01-09T21:58:44.000Z</time></trkpt>
        <trkpt lat="28.745197" lon="104.653346"><ele>368.44745</ele><time>2026-01-09T21:58:49.000Z</time></trkpt>
        <trkpt lat="28.745232" lon="104.653391"><ele>368.43692</ele><time>2026-01-09T21:58:54.000Z</time></trkpt>
        <trkpt lat="28.745277" lon="104.653428"><ele>368.99152</ele><time>2026-01-09T21:58:59.000Z</time></trkpt>
        <trkpt lat="28.745311" lon="104.653469"><ele>368.5485</ele><time>2026-01-09T21:59:09.000Z</time></trkpt>
        <trkpt lat="28.745349" lon="104.653498"><ele>368.78857</ele><time>2026-01-09T21:59:13.000Z</time></trkpt>
        <trkpt lat="28.745385" lon="104.653543"><ele>368.59482</ele><time>2026-01-09T21:59:25.000Z</time></trkpt>
        <trkpt lat="28.745427" lon="104.653567"><ele>369.0964</ele><time>2026-01-09T21:59:29.000Z</time></trkpt>
        <trkpt lat="28.745474" lon="104.653567"><ele>368.8395</ele><time>2026-01-09T21:59:33.000Z</time></trkpt>
        <trkpt lat="28.745513" lon="104.653596"><ele>369.8161</ele><time>2026-01-09T21:59:37.000Z</time></trkpt>
        <trkpt lat="28.745559" lon="104.653617"><ele>369.64133</ele><time>2026-01-09T21:59:43.000Z</time></trkpt>
        <trkpt lat="28.745609" lon="104.653631"><ele>368.81064</ele><time>2026-01-09T21:59:48.000Z</time></trkpt>
        <trkpt lat="28.745644" lon="104.653667"><ele>369.19803</ele><time>2026-01-09T21:59:52.000Z</time></trkpt>
        <trkpt lat="28.745669" lon="104.653714"><ele>368.37503</ele><time>2026-01-09T21:59:57.000Z</time></trkpt>
        <trkpt lat="28.745694" lon="104.653767"><ele>368.18466</ele><time>2026-01-09T22:00:06.000Z</time></trkpt>
        <trkpt lat="28.745711" lon="104.653828"><ele>367.38196</ele><time>2026-01-09T22:00:11.000Z</time></trkpt>
        <trkpt lat="28.745717" lon="104.653884"><ele>366.94754</ele><time>2026-01-09T22:00:16.000Z</time></trkpt>
        <trkpt lat="28.745724" lon="104.653936"><ele>367.70035</ele><time>2026-01-09T22:00:20.000Z</time></trkpt>
        <trkpt lat="28.745713" lon="104.653988"><ele>368.35175</ele><time>2026-01-09T22:00:34.000Z</time></trkpt>
        <trkpt lat="28.745711" lon="104.654054"><ele>369.49643</ele><time>2026-01-09T22:00:50.000Z</time></trkpt>
        <trkpt lat="28.745727" lon="104.654115"><ele>370.7234</ele><time>2026-01-09T22:00:56.000Z</time></trkpt>
        <trkpt lat="28.745727" lon="104.654169"><ele>371.4357</ele><time>2026-01-09T22:01:01.000Z</time></trkpt>
        <trkpt lat="28.745717" lon="104.654219"><ele>371.68152</ele><time>2026-01-09T22:01:07.000Z</time></trkpt>
        <trkpt lat="28.745717" lon="104.65427"><ele>372.37958</ele><time>2026-01-09T22:01:11.000Z</time></trkpt>
        <trkpt lat="28.745724" lon="104.654331"><ele>373.25815</ele><time>2026-01-09T22:01:16.000Z</time></trkpt>
        <trkpt lat="28.745722" lon="104.65439"><ele>374.44794</ele><time>2026-01-09T22:01:21.000Z</time></trkpt>
        <trkpt lat="28.745721" lon="104.65445"><ele>375.00812</ele><time>2026-01-09T22:01:26.000Z</time></trkpt>
        <trkpt lat="28.745718" lon="104.654511"><ele>375.61404</ele><time>2026-01-09T22:01:31.000Z</time></trkpt>
        <trkpt lat="28.745686" lon="104.654549"><ele>375.97693</ele><time>2026-01-09T22:01:42.000Z</time></trkpt>
        <trkpt lat="28.745634" lon="104.654578"><ele>376.48938</ele><time>2026-01-09T22:01:47.000Z</time></trkpt>
        <trkpt lat="28.745582" lon="104.6546"><ele>377.30048</ele><time>2026-01-09T22:01:52.000Z</time></trkpt>
        <trkpt lat="28.745539" lon="104.654635"><ele>378.3762</ele><time>2026-01-09T22:01:57.000Z</time></trkpt>
        <trkpt lat="28.745508" lon="104.654677"><ele>379.2791</ele><time>2026-01-09T22:02:02.000Z</time></trkpt>
        <trkpt lat="28.745483" lon="104.654722"><ele>380.79364</ele><time>2026-01-09T22:02:07.000Z</time></trkpt>
        <trkpt lat="28.745484" lon="104.654779"><ele>381.21338</ele><time>2026-01-09T22:02:14.000Z</time></trkpt>
        <trkpt lat="28.745466" lon="104.654837"><ele>381.57812</ele><time>2026-01-09T22:02:20.000Z</time></trkpt>
        <trkpt lat="28.745441" lon="104.654882"><ele>382.22754</ele><time>2026-01-09T22:02:25.000Z</time></trkpt>
        <trkpt lat="28.745392" lon="104.654906"><ele>383.432</ele><time>2026-01-09T22:02:32.000Z</time></trkpt>
        <trkpt lat="28.745346" lon="104.654913"><ele>384.97888</ele><time>2026-01-09T22:02:37.000Z</time></trkpt>
        <trkpt lat="28.745293" lon="104.654903"><ele>386.61212</ele><time>2026-01-09T22:02:43.000Z</time></trkpt>
        <trkpt lat="28.745242" lon="104.654909"><ele>387.89072</ele><time>2026-01-09T22:02:48.000Z</time></trkpt>
        <trkpt lat="28.745193" lon="104.654916"><ele>388.54962</ele><time>2026-01-09T22:02:57.000Z</time></trkpt>
        <trkpt lat="28.745148" lon="104.654934"><ele>390.77112</ele><time>2026-01-09T22:03:18.000Z</time></trkpt>
        <trkpt lat="28.745102" lon="104.654954"><ele>391.51526</ele><time>2026-01-09T22:03:23.000Z</time></trkpt>
        <trkpt lat="28.745057" lon="104.654977"><ele>392.88837</ele><time>2026-01-09T22:03:30.000Z</time></trkpt>
        <trkpt lat="28.745013" lon="104.655006"><ele>394.0424</ele><time>2026-01-09T22:03:37.000Z</time></trkpt>
        <trkpt lat="28.744976" lon="104.655038"><ele>395.0005</ele><time>2026-01-09T22:03:43.000Z</time></trkpt>
        <trkpt lat="28.744959" lon="104.655095"><ele>396.57648</ele><time>2026-01-09T22:03:52.000Z</time></trkpt>
        <trkpt lat="28.744961" lon="104.655155"><ele>397.09427</ele><time>2026-01-09T22:04:04.000Z</time></trkpt>
        <trkpt lat="28.744983" lon="104.655202"><ele>397.71347</ele><time>2026-01-09T22:04:09.000Z</time></trkpt>
        <trkpt lat="28.745033" lon="104.655227"><ele>396.36597</ele><time>2026-01-09T22:04:30.000Z</time></trkpt>
        <trkpt lat="28.745076" lon="104.655253"><ele>396.45404</ele><time>2026-01-09T22:04:35.000Z</time></trkpt>
        <trkpt lat="28.745087" lon="104.655311"><ele>396.3834</ele><time>2026-01-09T22:04:40.000Z</time></trkpt>
        <trkpt lat="28.745041" lon="104.655324"><ele>396.9991</ele><time>2026-01-09T22:04:44.000Z</time></trkpt>
        <trkpt lat="28.744995" lon="104.65531"><ele>396.83127</ele><time>2026-01-09T22:04:58.000Z</time></trkpt>
        <trkpt lat="28.744941" lon="104.655319"><ele>397.42975</ele><time>2026-01-09T22:05:13.000Z</time></trkpt>
        <trkpt lat="28.744891" lon="104.655325"><ele>401.4136</ele><time>2026-01-09T22:05:19.000Z</time></trkpt>
        <trkpt lat="28.744846" lon="104.655338"><ele>403.8678</ele><time>2026-01-09T22:05:23.000Z</time></trkpt>
        <trkpt lat="28.74479" lon="104.655354"><ele>406.59872</ele><time>2026-01-09T22:05:28.000Z</time></trkpt>
        <trkpt lat="28.744742" lon="104.655348"><ele>409.86847</ele><time>2026-01-09T22:05:33.000Z</time></trkpt>
        <trkpt lat="28.7447" lon="104.655312"><ele>411.02063</ele><time>2026-01-09T22:05:39.000Z</time></trkpt>
        <trkpt lat="28.744658" lon="104.655288"><ele>412.36407</ele><time>2026-01-09T22:05:43.000Z</time></trkpt>
        <trkpt lat="28.744621" lon="104.65524"><ele>414.2706</ele><time>2026-01-09T22:05:47.000Z</time></trkpt>
        <trkpt lat="28.744596" lon="104.655192"><ele>415.273</ele><time>2026-01-09T22:05:51.000Z</time></trkpt>
        <trkpt lat="28.744589" lon="104.655121"><ele>416.19638</ele><time>2026-01-09T22:05:55.000Z</time></trkpt>
        <trkpt lat="28.744601" lon="104.655061"><ele>416.5398</ele><time>2026-01-09T22:05:59.000Z</time></trkpt>
        <trkpt lat="28.744619" lon="104.655005"><ele>415.52213</ele><time>2026-01-09T22:06:03.000Z</time></trkpt>
        <trkpt lat="28.744631" lon="104.654948"><ele>414.3014</ele><time>2026-01-09T22:06:07.000Z</time></trkpt>
        <trkpt lat="28.744612" lon="104.654895"><ele>412.49146</ele><time>2026-01-09T22:06:13.000Z</time></trkpt>
        <trkpt lat="28.744652" lon="104.654929"><ele>409.70395</ele><time>2026-01-09T22:06:22.000Z</time></trkpt>
        <trkpt lat="28.744688" lon="104.654888"><ele>406.71768</ele><time>2026-01-09T22:07:00.000Z</time></trkpt>
        <trkpt lat="28.744638" lon="104.654866"><ele>407.42184</ele><time>2026-01-09T22:07:44.000Z</time></trkpt>
        <trkpt lat="28.744601" lon="104.65483"><ele>408.02814</ele><time>2026-01-09T22:07:48.000Z</time></trkpt>
        <trkpt lat="28.74457" lon="104.654781"><ele>408.0558</ele><time>2026-01-09T22:07:52.000Z</time></trkpt>
        <trkpt lat="28.744548" lon="104.654735"><ele>407.88895</ele><time>2026-01-09T22:07:56.000Z</time></trkpt>
        <trkpt lat="28.744517" lon="104.65469"><ele>407.4513</ele><time>2026-01-09T22:08:01.000Z</time></trkpt>
        <trkpt lat="28.744475" lon="104.654656"><ele>408.3718</ele><time>2026-01-09T22:08:06.000Z</time></trkpt>
        <trkpt lat="28.744436" lon="104.654614"><ele>410.16638</ele><time>2026-01-09T22:08:11.000Z</time></trkpt>
        <trkpt lat="28.744414" lon="104.654558"><ele>411.02698</ele><time>2026-01-09T22:08:34.000Z</time></trkpt>
        <trkpt lat="28.744393" lon="104.654509"><ele>412.5661</ele><time>2026-01-09T22:08:59.000Z</time></trkpt>
        <trkpt lat="28.744362" lon="104.654471"><ele>412.12308</ele><time>2026-01-09T22:09:15.000Z</time></trkpt>
        <trkpt lat="28.744337" lon="104.654426"><ele>412.45172</ele><time>2026-01-09T22:09:20.000Z</time></trkpt>
        <trkpt lat="28.744309" lon="104.654382"><ele>414.42932</ele><time>2026-01-09T22:09:30.000Z</time></trkpt>
        <trkpt lat="28.744292" lon="104.654322"><ele>415.89383</ele><time>2026-01-09T22:09:37.000Z</time></trkpt>
        <trkpt lat="28.744299" lon="104.654269"><ele>417.2184</ele><time>2026-01-09T22:09:42.000Z</time></trkpt>
        <trkpt lat="28.744311" lon="104.654206"><ele>417.9469</ele><time>2026-01-09T22:09:50.000Z</time></trkpt>
        <trkpt lat="28.744324" lon="104.65415"><ele>419.2295</ele><time>2026-01-09T22:09:55.000Z</time></trkpt>
        <trkpt lat="28.744301" lon="104.654093"><ele>419.56744</ele><time>2026-01-09T22:10:01.000Z</time></trkpt>
        <trkpt lat="28.74427" lon="104.654053"><ele>420.95718</ele><time>2026-01-09T22:10:06.000Z</time></trkpt>
        <trkpt lat="28.744217" lon="104.654033"><ele>421.24136</ele><time>2026-01-09T22:10:14.000Z</time></trkpt>
        <trkpt lat="28.744171" lon="104.654028"><ele>422.51328</ele><time>2026-01-09T22:10:25.000Z</time></trkpt>
        <trkpt lat="28.744126" lon="104.654013"><ele>423.1704</ele><time>2026-01-09T22:10:30.000Z</time></trkpt>
        <trkpt lat="28.744079" lon="104.65401"><ele>423.72058</ele><time>2026-01-09T22:10:35.000Z</time></trkpt>
        <trkpt lat="28.744027" lon="104.654022"><ele>425.15955</ele><time>2026-01-09T22:10:40.000Z</time></trkpt>
        <trkpt lat="28.743977" lon="104.654017"><ele>426.25122</ele><time>2026-01-09T22:11:07.000Z</time></trkpt>
        <trkpt lat="28.743925" lon="104.654029"><ele>427.4083</ele><time>2026-01-09T22:11:13.000Z</time></trkpt>
        <trkpt lat="28.743883" lon="104.654049"><ele>427.9621</ele><time>2026-01-09T22:11:24.000Z</time></trkpt>
        <trkpt lat="28.743829" lon="104.654064"><ele>429.08377</ele><time>2026-01-09T22:11:30.000Z</time></trkpt>
        <trkpt lat="28.743791" lon="104.654095"><ele>429.95947</ele><time>2026-01-09T22:11:36.000Z</time></trkpt>
        <trkpt lat="28.74377" lon="104.65405"><ele>430.01263</ele><time>2026-01-09T22:12:12.000Z</time></trkpt>
        <trkpt lat="28.743731" lon="104.654088"><ele>431.13818</ele><time>2026-01-09T22:13:41.000Z</time></trkpt>
        <trkpt lat="28.743688" lon="104.654126"><ele>431.39496</ele><time>2026-01-09T22:13:46.000Z</time></trkpt>
        <trkpt lat="28.743665" lon="104.654175"><ele>431.59528</ele><time>2026-01-09T22:13:49.000Z</time></trkpt>
        <trkpt lat="28.743641" lon="104.654226"><ele>432.20328</ele><time>2026-01-09T22:13:55.000Z</time></trkpt>
        <trkpt lat="28.743605" lon="104.654261"><ele>432.85696</ele><time>2026-01-09T22:14:06.000Z</time></trkpt>
        <trkpt lat="28.743601" lon="104.654316"><ele>433.99683</ele><time>2026-01-09T22:14:22.000Z</time></trkpt>
        <trkpt lat="28.743582" lon="104.654371"><ele>434.09268</ele><time>2026-01-09T22:14:29.000Z</time></trkpt>
        <trkpt lat="28.743587" lon="104.654436"><ele>434.50247</ele><time>2026-01-09T22:14:33.000Z</time></trkpt>
        <trkpt lat="28.743579" lon="104.654496"><ele>435.1021</ele><time>2026-01-09T22:14:38.000Z</time></trkpt>
        <trkpt lat="28.743589" lon="104.654551"><ele>435.74335</ele><time>2026-01-09T22:14:43.000Z</time></trkpt>
        <trkpt lat="28.743602" lon="104.654605"><ele>436.98993</ele><time>2026-01-09T22:14:49.000Z</time></trkpt>
        <trkpt lat="28.743644" lon="104.654648"><ele>438.07</ele><time>2026-01-09T22:14:57.000Z</time></trkpt>
        <trkpt lat="28.74367" lon="104.654692"><ele>438.18246</ele><time>2026-01-09T22:15:05.000Z</time></trkpt>
        <trkpt lat="28.743665" lon="104.654744"><ele>438.81973</ele><time>2026-01-09T22:15:20.000Z</time></trkpt>
        <trkpt lat="28.743669" lon="104.654798"><ele>440.0579</ele><time>2026-01-09T22:15:29.000Z</time></trkpt>
        <trkpt lat="28.743674" lon="104.654853"><ele>441.68918</ele><time>2026-01-09T22:15:40.000Z</time></trkpt>
        <trkpt lat="28.743691" lon="104.654905"><ele>443.29355</ele><time>2026-01-09T22:15:47.000Z</time></trkpt>
        <trkpt lat="28.743709" lon="104.654958"><ele>444.23602</ele><time>2026-01-09T22:15:53.000Z</time></trkpt>
        <trkpt lat="28.743738" lon="104.655013"><ele>444.9911</ele><time>2026-01-09T22:16:01.000Z</time></trkpt>
        <trkpt lat="28.74377" lon="104.655055"><ele>445.90063</ele><time>2026-01-09T22:16:06.000Z</time></trkpt>
        <trkpt lat="28.743811" lon="104.655088"><ele>446.3959</ele><time>2026-01-09T22:16:11.000Z</time></trkpt>
        <trkpt lat="28.743853" lon="104.655116"><ele>446.59552</ele><time>2026-01-09T22:16:15.000Z</time></trkpt>
        <trkpt lat="28.743878" lon="104.65516"><ele>446.3928</ele><time>2026-01-09T22:16:19.000Z</time></trkpt>
        <trkpt lat="28.743887" lon="104.655214"><ele>447.15485</ele><time>2026-01-09T22:16:30.000Z</time></trkpt>
        <trkpt lat="28.743898" lon="104.655267"><ele>447.48877</ele><time>2026-01-09T22:16:44.000Z</time></trkpt>
        <trkpt lat="28.743893" lon="104.65532"><ele>448.21033</ele><time>2026-01-09T22:16:52.000Z</time></trkpt>
        <trkpt lat="28.743888" lon="104.655382"><ele>450.51776</ele><time>2026-01-09T22:16:59.000Z</time></trkpt>
        <trkpt lat="28.743875" lon="104.655434"><ele>451.7561</ele><time>2026-01-09T22:17:04.000Z</time></trkpt>
        <trkpt lat="28.743839" lon="104.655471"><ele>454.3429</ele><time>2026-01-09T22:17:10.000Z</time></trkpt>
        <trkpt lat="28.743795" lon="104.655485"><ele>456.29208</ele><time>2026-01-09T22:17:28.000Z</time></trkpt>
        <trkpt lat="28.743758" lon="104.655524"><ele>458.71146</ele><time>2026-01-09T22:17:35.000Z</time></trkpt>
        <trkpt lat="28.743714" lon="104.655499"><ele>459.85886</ele><time>2026-01-09T22:17:39.000Z</time></trkpt>
        <trkpt lat="28.743673" lon="104.655469"><ele>460.88687</ele><time>2026-01-09T22:17:43.000Z</time></trkpt>
        <trkpt lat="28.743637" lon="104.655433"><ele>461.95407</ele><time>2026-01-09T22:17:47.000Z</time></trkpt>
        <trkpt lat="28.743664" lon="104.655387"><ele>460.9061</ele><time>2026-01-09T22:17:54.000Z</time></trkpt>
        <trkpt lat="28.743619" lon="104.65536"><ele>459.50003</ele><time>2026-01-09T22:18:12.000Z</time></trkpt>
        <trkpt lat="28.743575" lon="104.655349"><ele>460.0568</ele><time>2026-01-09T22:18:52.000Z</time></trkpt>
        <trkpt lat="28.743522" lon="104.655337"><ele>461.0479</ele><time>2026-01-09T22:18:57.000Z</time></trkpt>
        <trkpt lat="28.743479" lon="104.655321"><ele>462.33105</ele><time>2026-01-09T22:19:02.000Z</time></trkpt>
        <trkpt lat="28.743432" lon="104.6553"><ele>463.59048</ele><time>2026-01-09T22:19:10.000Z</time></trkpt>
        <trkpt lat="28.743381" lon="104.655287"><ele>464.06198</ele><time>2026-01-09T22:19:16.000Z</time></trkpt>
        <trkpt lat="28.743341" lon="104.655253"><ele>463.0009</ele><time>2026-01-09T22:19:47.000Z</time></trkpt>
        <trkpt lat="28.743299" lon="104.655223"><ele>465.22296</ele><time>2026-01-09T22:19:57.000Z</time></trkpt>
        <trkpt lat="28.743248" lon="104.655214"><ele>465.89145</ele><time>2026-01-09T22:20:03.000Z</time></trkpt>
        <trkpt lat="28.743197" lon="104.65519"><ele>467.08234</ele><time>2026-01-09T22:20:09.000Z</time></trkpt>
        <trkpt lat="28.743155" lon="104.65517"><ele>468.97092</ele><time>2026-01-09T22:20:14.000Z</time></trkpt>
        <trkpt lat="28.743106" lon="104.655151"><ele>470.22806</ele><time>2026-01-09T22:20:19.000Z</time></trkpt>
        <trkpt lat="28.743055" lon="104.655136"><ele>471.88028</ele><time>2026-01-09T22:20:33.000Z</time></trkpt>
        <trkpt lat="28.743008" lon="104.655133"><ele>473.33163</ele><time>2026-01-09T22:20:38.000Z</time></trkpt>
        <trkpt lat="28.742967" lon="104.655099"><ele>474.29715</ele><time>2026-01-09T22:20:47.000Z</time></trkpt>
        <trkpt lat="28.742922" lon="104.655096"><ele>475.57114</ele><time>2026-01-09T22:20:52.000Z</time></trkpt>
        <trkpt lat="28.742899" lon="104.655047"><ele>475.24243</ele><time>2026-01-09T22:21:31.000Z</time></trkpt>
        <trkpt lat="28.742854" lon="104.655011"><ele>476.58487</ele><time>2026-01-09T22:21:37.000Z</time></trkpt>
        <trkpt lat="28.742815" lon="104.654979"><ele>477.18848</ele><time>2026-01-09T22:21:43.000Z</time></trkpt>
        <trkpt lat="28.742776" lon="104.654951"><ele>477.844</ele><time>2026-01-09T22:21:48.000Z</time></trkpt>
        <trkpt lat="28.742739" lon="104.654916"><ele>478.91486</ele><time>2026-01-09T22:21:57.000Z</time></trkpt>
        <trkpt lat="28.742698" lon="104.65489"><ele>480.1378</ele><time>2026-01-09T22:22:03.000Z</time></trkpt>
        <trkpt lat="28.742656" lon="104.65486"><ele>480.60004</ele><time>2026-01-09T22:22:09.000Z</time></trkpt>
        <trkpt lat="28.742613" lon="104.654833"><ele>481.66537</ele><time>2026-01-09T22:22:14.000Z</time></trkpt>
        <trkpt lat="28.742576" lon="104.654796"><ele>482.75378</ele><time>2026-01-09T22:22:19.000Z</time></trkpt>
        <trkpt lat="28.742533" lon="104.654761"><ele>483.90277</ele><time>2026-01-09T22:22:24.000Z</time></trkpt>
        <trkpt lat="28.742487" lon="104.654744"><ele>485.3326</ele><time>2026-01-09T22:22:29.000Z</time></trkpt>
        <trkpt lat="28.742438" lon="104.654735"><ele>486.95746</ele><time>2026-01-09T22:23:06.000Z</time></trkpt>
        <trkpt lat="28.74239" lon="104.654724"><ele>487.95865</ele><time>2026-01-09T22:23:12.000Z</time></trkpt>
        <trkpt lat="28.742339" lon="104.654724"><ele>489.2393</ele><time>2026-01-09T22:23:29.000Z</time></trkpt>
        <trkpt lat="28.742284" lon="104.654721"><ele>491.10483</ele><time>2026-01-09T22:23:36.000Z</time></trkpt>
        <trkpt lat="28.742219" lon="104.65471"><ele>492.7345</ele><time>2026-01-09T22:23:39.000Z</time></trkpt>
        <trkpt lat="28.74217" lon="104.654719"><ele>494.0148</ele><time>2026-01-09T22:23:42.000Z</time></trkpt>
        <trkpt lat="28.742136" lon="104.654768"><ele>494.3332</ele><time>2026-01-09T22:24:31.000Z</time></trkpt>
        <trkpt lat="28.742121" lon="104.654822"><ele>495.62036</ele><time>2026-01-09T22:24:40.000Z</time></trkpt>
        <trkpt lat="28.742121" lon="104.654874"><ele>496.5637</ele><time>2026-01-09T22:24:45.000Z</time></trkpt>
        <trkpt lat="28.742119" lon="104.654932"><ele>498.24744</ele><time>2026-01-09T22:24:50.000Z</time></trkpt>
        <trkpt lat="28.742126" lon="104.654986"><ele>500.0046</ele><time>2026-01-09T22:25:02.000Z</time></trkpt>
        <trkpt lat="28.742146" lon="104.655032"><ele>500.9263</ele><time>2026-01-09T22:25:12.000Z</time></trkpt>
        <trkpt lat="28.742137" lon="104.655086"><ele>501.9065</ele><time>2026-01-09T22:25:17.000Z</time></trkpt>
        <trkpt lat="28.742121" lon="104.655142"><ele>502.63477</ele><time>2026-01-09T22:25:42.000Z</time></trkpt>
        <trkpt lat="28.742108" lon="104.655194"><ele>504.11697</ele><time>2026-01-09T22:25:50.000Z</time></trkpt>
        <trkpt lat="28.742074" lon="104.655236"><ele>505.28806</ele><time>2026-01-09T22:25:57.000Z</time></trkpt>
        <trkpt lat="28.742043" lon="104.655275"><ele>506.15842</ele><time>2026-01-09T22:26:04.000Z</time></trkpt>
        <trkpt lat="28.742015" lon="104.655319"><ele>506.3726</ele><time>2026-01-09T22:26:11.000Z</time></trkpt>
        <trkpt lat="28.741986" lon="104.655363"><ele>508.72775</ele><time>2026-01-09T22:26:18.000Z</time></trkpt>
        <trkpt lat="28.74195" lon="104.6554"><ele>510.0054</ele><time>2026-01-09T22:26:24.000Z</time></trkpt>
        <trkpt lat="28.741916" lon="104.655452"><ele>511.26437</ele><time>2026-01-09T22:26:33.000Z</time></trkpt>
        <trkpt lat="28.74189" lon="104.655497"><ele>513.1088</ele><time>2026-01-09T22:26:39.000Z</time></trkpt>
        <trkpt lat="28.741853" lon="104.655534"><ele>514.13556</ele><time>2026-01-09T22:28:30.000Z</time></trkpt>
        <trkpt lat="28.741809" lon="104.655567"><ele>514.69464</ele><time>2026-01-09T22:28:37.000Z</time></trkpt>
        <trkpt lat="28.741757" lon="104.655589"><ele>515.86194</ele><time>2026-01-09T22:28:44.000Z</time></trkpt>
        <trkpt lat="28.741706" lon="104.655596"><ele>515.873</ele><time>2026-01-09T22:28:49.000Z</time></trkpt>
        <trkpt lat="28.741657" lon="104.655613"><ele>516.70245</ele><time>2026-01-09T22:28:53.000Z</time></trkpt>
        <trkpt lat="28.741608" lon="104.65562"><ele>517.5453</ele><time>2026-01-09T22:28:57.000Z</time></trkpt>
        <trkpt lat="28.741552" lon="104.655621"><ele>519.147</ele><time>2026-01-09T22:29:02.000Z</time></trkpt>
      </trkseg>
      <trkseg>
        <trkpt lat="28.741588" lon="104.655586"><ele>518.00604</ele><time>2026-01-09T22:30:38.000Z</time></trkpt>
        <trkpt lat="28.741546" lon="104.655607"><ele>517.73047</ele><time>2026-01-09T22:31:03.000Z</time></trkpt>
        <trkpt lat="28.741521" lon="104.655652"><ele>519.66547</ele><time>2026-01-09T22:33:01.000Z</time></trkpt>
        <trkpt lat="28.741478" lon="104.655677"><ele>520.9627</ele><time>2026-01-09T22:33:05.000Z</time></trkpt>
        <trkpt lat="28.741431" lon="104.655675"><ele>521.4091</ele><time>2026-01-09T22:33:24.000Z</time></trkpt>
        <trkpt lat="28.741373" lon="104.655688"><ele>522.739</ele><time>2026-01-09T22:33:29.000Z</time></trkpt>
        <trkpt lat="28.741325" lon="104.655708"><ele>526.03186</ele><time>2026-01-09T22:33:35.000Z</time></trkpt>
        <trkpt lat="28.741283" lon="104.655739"><ele>528.6548</ele><time>2026-01-09T22:33:40.000Z</time></trkpt>
        <trkpt lat="28.741246" lon="104.655783"><ele>531.42365</ele><time>2026-01-09T22:33:45.000Z</time></trkpt>
        <trkpt lat="28.741199" lon="104.655801"><ele>533.28406</ele><time>2026-01-09T22:33:50.000Z</time></trkpt>
        <trkpt lat="28.741156" lon="104.655834"><ele>535.70465</ele><time>2026-01-09T22:33:55.000Z</time></trkpt>
        <trkpt lat="28.74111" lon="104.655815"><ele>538.9679</ele><time>2026-01-09T22:34:05.000Z</time></trkpt>
        <trkpt lat="28.741083" lon="104.655869"><ele>541.0218</ele><time>2026-01-09T22:34:20.000Z</time></trkpt>
        <trkpt lat="28.741047" lon="104.655921"><ele>541.9801</ele><time>2026-01-09T22:34:25.000Z</time></trkpt>
        <trkpt lat="28.740996" lon="104.655939"><ele>542.41174</ele><time>2026-01-09T22:34:30.000Z</time></trkpt>
        <trkpt lat="28.740953" lon="104.655972"><ele>541.96783</ele><time>2026-01-09T22:34:34.000Z</time></trkpt>
        <trkpt lat="28.740914" lon="104.656001"><ele>542.47974</ele><time>2026-01-09T22:34:38.000Z</time></trkpt>
        <trkpt lat="28.740863" lon="104.656017"><ele>543.27057</ele><time>2026-01-09T22:34:44.000Z</time></trkpt>
        <trkpt lat="28.740834" lon="104.656055"><ele>542.7571</ele><time>2026-01-09T22:34:47.000Z</time></trkpt>
        <trkpt lat="28.740785" lon="104.656057"><ele>542.81506</ele><time>2026-01-09T22:34:52.000Z</time></trkpt>
        <trkpt lat="28.740818" lon="104.656018"><ele>541.7317</ele><time>2026-01-09T22:35:17.000Z</time></trkpt>
        <trkpt lat="28.740765" lon="104.656044"><ele>542.753</ele><time>2026-01-09T22:35:26.000Z</time></trkpt>
        <trkpt lat="28.740724" lon="104.656075"><ele>543.01526</ele><time>2026-01-09T22:35:30.000Z</time></trkpt>
        <trkpt lat="28.74068" lon="104.656095"><ele>542.9159</ele><time>2026-01-09T22:35:36.000Z</time></trkpt>
        <trkpt lat="28.740635" lon="104.656121"><ele>542.85846</ele><time>2026-01-09T22:35:39.000Z</time></trkpt>
        <trkpt lat="28.740596" lon="104.656161"><ele>543.2434</ele><time>2026-01-09T22:35:44.000Z</time></trkpt>
        <trkpt lat="28.740551" lon="104.656174"><ele>544.2098</ele><time>2026-01-09T22:35:55.000Z</time></trkpt>
        <trkpt lat="28.740504" lon="104.65623"><ele>544.71606</ele><time>2026-01-09T22:36:01.000Z</time></trkpt>
        <trkpt lat="28.740452" lon="104.656242"><ele>545.2288</ele><time>2026-01-09T22:36:11.000Z</time></trkpt>
        <trkpt lat="28.740423" lon="104.656285"><ele>545.43085</ele><time>2026-01-09T22:36:32.000Z</time></trkpt>
        <trkpt lat="28.740381" lon="104.656316"><ele>545.938</ele><time>2026-01-09T22:36:45.000Z</time></trkpt>
        <trkpt lat="28.740346" lon="104.656348"><ele>546.9885</ele><time>2026-01-09T22:36:50.000Z</time></trkpt>
        <trkpt lat="28.7403" lon="104.656381"><ele>547.102</ele><time>2026-01-09T22:36:56.000Z</time></trkpt>
        <trkpt lat="28.740263" lon="104.656419"><ele>547.39166</ele><time>2026-01-09T22:37:02.000Z</time></trkpt>
        <trkpt lat="28.740233" lon="104.656466"><ele>548.6914</ele><time>2026-01-09T22:37:07.000Z</time></trkpt>
        <trkpt lat="28.740192" lon="104.65649"><ele>550.3538</ele><time>2026-01-09T22:37:15.000Z</time></trkpt>
        <trkpt lat="28.740172" lon="104.656539"><ele>551.6453</ele><time>2026-01-09T22:37:22.000Z</time></trkpt>
        <trkpt lat="28.740156" lon="104.656591"><ele>552.74384</ele><time>2026-01-09T22:37:28.000Z</time></trkpt>
        <trkpt lat="28.740158" lon="104.656645"><ele>553.0893</ele><time>2026-01-09T22:37:34.000Z</time></trkpt>
        <trkpt lat="28.740168" lon="104.656702"><ele>554.52594</ele><time>2026-01-09T22:37:41.000Z</time></trkpt>
        <trkpt lat="28.740175" lon="104.656757"><ele>555.91974</ele><time>2026-01-09T22:37:47.000Z</time></trkpt>
        <trkpt lat="28.740186" lon="104.656817"><ele>557.39233</ele><time>2026-01-09T22:37:55.000Z</time></trkpt>
        <trkpt lat="28.740216" lon="104.656862"><ele>559.51447</ele><time>2026-01-09T22:38:04.000Z</time></trkpt>
        <trkpt lat="28.740254" lon="104.656903"><ele>562.12823</ele><time>2026-01-09T22:38:12.000Z</time></trkpt>
        <trkpt lat="28.7403" lon="104.656934"><ele>563.1469</ele><time>2026-01-09T22:38:19.000Z</time></trkpt>
        <trkpt lat="28.74034" lon="104.656958"><ele>563.7735</ele><time>2026-01-09T22:38:24.000Z</time></trkpt>
        <trkpt lat="28.740379" lon="104.657"><ele>564.8899</ele><time>2026-01-09T22:38:37.000Z</time></trkpt>
        <trkpt lat="28.740428" lon="104.657008"><ele>565.8433</ele><time>2026-01-09T22:38:47.000Z</time></trkpt>
        <trkpt lat="28.740474" lon="104.657026"><ele>565.8296</ele><time>2026-01-09T22:38:54.000Z</time></trkpt>
        <trkpt lat="28.740525" lon="104.657039"><ele>566.43976</ele><time>2026-01-09T22:39:00.000Z</time></trkpt>
        <trkpt lat="28.74056" lon="104.657076"><ele>566.62085</ele><time>2026-01-09T22:39:07.000Z</time></trkpt>
        <trkpt lat="28.740602" lon="104.657097"><ele>566.1624</ele><time>2026-01-09T22:39:12.000Z</time></trkpt>
        <trkpt lat="28.740639" lon="104.657125"><ele>567.28156</ele><time>2026-01-09T22:39:18.000Z</time></trkpt>
        <trkpt lat="28.740678" lon="104.65716"><ele>566.3208</ele><time>2026-01-09T22:39:23.000Z</time></trkpt>
        <trkpt lat="28.740633" lon="104.657184"><ele>566.51776</ele><time>2026-01-09T22:39:30.000Z</time></trkpt>
        <trkpt lat="28.740587" lon="104.657175"><ele>568.07904</ele><time>2026-01-09T22:39:37.000Z</time></trkpt>
        <trkpt lat="28.740533" lon="104.657174"><ele>569.7139</ele><time>2026-01-09T22:39:43.000Z</time></trkpt>
        <trkpt lat="28.740482" lon="104.657188"><ele>570.9989</ele><time>2026-01-09T22:39:47.000Z</time></trkpt>
        <trkpt lat="28.740437" lon="104.657163"><ele>572.41284</ele><time>2026-01-09T22:39:58.000Z</time></trkpt>
        <trkpt lat="28.740391" lon="104.657144"><ele>573.6608</ele><time>2026-01-09T22:40:12.000Z</time></trkpt>
        <trkpt lat="28.740346" lon="104.657145"><ele>574.168</ele><time>2026-01-09T22:40:36.000Z</time></trkpt>
        <trkpt lat="28.740294" lon="104.657137"><ele>574.29706</ele><time>2026-01-09T22:40:44.000Z</time></trkpt>
        <trkpt lat="28.74024" lon="104.657142"><ele>575.59924</ele><time>2026-01-09T22:40:49.000Z</time></trkpt>
        <trkpt lat="28.740193" lon="104.657131"><ele>576.2377</ele><time>2026-01-09T22:40:55.000Z</time></trkpt>
        <trkpt lat="28.740148" lon="104.657118"><ele>576.6461</ele><time>2026-01-09T22:41:02.000Z</time></trkpt>
        <trkpt lat="28.740101" lon="104.657115"><ele>576.2538</ele><time>2026-01-09T22:41:07.000Z</time></trkpt>
        <trkpt lat="28.740049" lon="104.657121"><ele>576.92145</ele><time>2026-01-09T22:41:11.000Z</time></trkpt>
        <trkpt lat="28.739998" lon="104.657102"><ele>576.92786</ele><time>2026-01-09T22:41:20.000Z</time></trkpt>
        <trkpt lat="28.739937" lon="104.6571"><ele>577.32416</ele><time>2026-01-09T22:41:25.000Z</time></trkpt>
        <trkpt lat="28.7399" lon="104.657067"><ele>577.42206</ele><time>2026-01-09T22:41:30.000Z</time></trkpt>
        <trkpt lat="28.739854" lon="104.657064"><ele>576.957</ele><time>2026-01-09T22:41:35.000Z</time></trkpt>
        <trkpt lat="28.739807" lon="104.657059"><ele>577.53735</ele><time>2026-01-09T22:41:39.000Z</time></trkpt>
        <trkpt lat="28.739759" lon="104.657049"><ele>578.5741</ele><time>2026-01-09T22:41:43.000Z</time></trkpt>
        <trkpt lat="28.73972" lon="104.657021"><ele>578.83136</ele><time>2026-01-09T22:41:48.000Z</time></trkpt>
        <trkpt lat="28.739687" lon="104.65698"><ele>578.2274</ele><time>2026-01-09T22:41:54.000Z</time></trkpt>
        <trkpt lat="28.739637" lon="104.656966"><ele>578.5969</ele><time>2026-01-09T22:42:00.000Z</time></trkpt>
        <trkpt lat="28.73959" lon="104.656931"><ele>580.3616</ele><time>2026-01-09T22:42:13.000Z</time></trkpt>
        <trkpt lat="28.739565" lon="104.656888"><ele>580.27905</ele><time>2026-01-09T22:42:17.000Z</time></trkpt>
        <trkpt lat="28.739527" lon="104.656859"><ele>580.92194</ele><time>2026-01-09T22:42:42.000Z</time></trkpt>
        <trkpt lat="28.739498" lon="104.656819"><ele>580.4013</ele><time>2026-01-09T22:42:49.000Z</time></trkpt>
        <trkpt lat="28.739465" lon="104.656779"><ele>580.1038</ele><time>2026-01-09T22:42:55.000Z</time></trkpt>
        <trkpt lat="28.739429" lon="104.656736"><ele>579.35693</ele><time>2026-01-09T22:43:01.000Z</time></trkpt>
        <trkpt lat="28.739397" lon="104.656694"><ele>580.0222</ele><time>2026-01-09T22:43:06.000Z</time></trkpt>
        <trkpt lat="28.739366" lon="104.656644"><ele>578.7329</ele><time>2026-01-09T22:43:16.000Z</time></trkpt>
        <trkpt lat="28.739334" lon="104.656604"><ele>578.81995</ele><time>2026-01-09T22:43:20.000Z</time></trkpt>
        <trkpt lat="28.739298" lon="104.656565"><ele>577.1818</ele><time>2026-01-09T22:43:25.000Z</time></trkpt>
        <trkpt lat="28.739266" lon="104.656526"><ele>578.0383</ele><time>2026-01-09T22:43:30.000Z</time></trkpt>
        <trkpt lat="28.739223" lon="104.656496"><ele>577.6786</ele><time>2026-01-09T22:43:37.000Z</time></trkpt>
        <trkpt lat="28.739184" lon="104.656469"><ele>577.9865</ele><time>2026-01-09T22:43:41.000Z</time></trkpt>
        <trkpt lat="28.739139" lon="104.65644"><ele>578.2826</ele><time>2026-01-09T22:43:46.000Z</time></trkpt>
        <trkpt lat="28.739096" lon="104.656424"><ele>577.8251</ele><time>2026-01-09T22:43:50.000Z</time></trkpt>
        <trkpt lat="28.739048" lon="104.656421"><ele>577.0651</ele><time>2026-01-09T22:43:55.000Z</time></trkpt>
        <trkpt lat="28.738999" lon="104.656422"><ele>577.229</ele><time>2026-01-09T22:44:02.000Z</time></trkpt>
        <trkpt lat="28.738951" lon="104.656431"><ele>577.4866</ele><time>2026-01-09T22:44:07.000Z</time></trkpt>
        <trkpt lat="28.738901" lon="104.656447"><ele>577.8144</ele><time>2026-01-09T22:44:12.000Z</time></trkpt>
        <trkpt lat="28.738855" lon="104.656467"><ele>578.19543</ele><time>2026-01-09T22:44:17.000Z</time></trkpt>
        <trkpt lat="28.738809" lon="104.656486"><ele>578.83496</ele><time>2026-01-09T22:44:21.000Z</time></trkpt>
        <trkpt lat="28.738764" lon="104.656511"><ele>579.46533</ele><time>2026-01-09T22:44:26.000Z</time></trkpt>
        <trkpt lat="28.738719" lon="104.656535"><ele>580.9517</ele><time>2026-01-09T22:44:31.000Z</time></trkpt>
        <trkpt lat="28.738668" lon="104.656558"><ele>582.37177</ele><time>2026-01-09T22:44:37.000Z</time></trkpt>
        <trkpt lat="28.738624" lon="104.656574"><ele>582.8681</ele><time>2026-01-09T22:44:41.000Z</time></trkpt>
        <trkpt lat="28.738589" lon="104.656609"><ele>583.9624</ele><time>2026-01-09T22:44:45.000Z</time></trkpt>
        <trkpt lat="28.738547" lon="104.656631"><ele>584.2309</ele><time>2026-01-09T22:44:48.000Z</time></trkpt>
        <trkpt lat="28.738503" lon="104.656666"><ele>585.36316</ele><time>2026-01-09T22:44:52.000Z</time></trkpt>
        <trkpt lat="28.738451" lon="104.656692"><ele>586.4017</ele><time>2026-01-09T22:44:57.000Z</time></trkpt>
        <trkpt lat="28.738405" lon="104.656723"><ele>588.0149</ele><time>2026-01-09T22:45:01.000Z</time></trkpt>
        <trkpt lat="28.738358" lon="104.656753"><ele>588.6272</ele><time>2026-01-09T22:45:05.000Z</time></trkpt>
        <trkpt lat="28.738313" lon="104.656737"><ele>588.846</ele><time>2026-01-09T22:45:13.000Z</time></trkpt>
        <trkpt lat="28.738268" lon="104.656756"><ele>588.6348</ele><time>2026-01-09T22:45:18.000Z</time></trkpt>
        <trkpt lat="28.738232" lon="104.656789"><ele>589.59174</ele><time>2026-01-09T22:45:23.000Z</time></trkpt>
        <trkpt lat="28.73819" lon="104.656825"><ele>590.1669</ele><time>2026-01-09T22:45:29.000Z</time></trkpt>
        <trkpt lat="28.738151" lon="104.656797"><ele>590.7804</ele><time>2026-01-09T22:45:44.000Z</time></trkpt>
        <trkpt lat="28.738116" lon="104.656838"><ele>592.00555</ele><time>2026-01-09T22:46:01.000Z</time></trkpt>
        <trkpt lat="28.738072" lon="104.656859"><ele>592.65186</ele><time>2026-01-09T22:46:08.000Z</time></trkpt>
        <trkpt lat="28.738041" lon="104.656909"><ele>594.5503</ele><time>2026-01-09T22:46:12.000Z</time></trkpt>
        <trkpt lat="28.737994" lon="104.656915"><ele>596.4553</ele><time>2026-01-09T22:46:18.000Z</time></trkpt>
        <trkpt lat="28.737947" lon="104.656924"><ele>597.2294</ele><time>2026-01-09T22:46:33.000Z</time></trkpt>
        <trkpt lat="28.737912" lon="104.656966"><ele>599.212</ele><time>2026-01-09T22:46:48.000Z</time></trkpt>
        <trkpt lat="28.737868" lon="104.656998"><ele>600.18396</ele><time>2026-01-09T22:46:54.000Z</time></trkpt>
        <trkpt lat="28.737813" lon="104.657013"><ele>601.9757</ele><time>2026-01-09T22:46:58.000Z</time></trkpt>
        <trkpt lat="28.737758" lon="104.657007"><ele>603.9438</ele><time>2026-01-09T22:47:03.000Z</time></trkpt>
        <trkpt lat="28.737775" lon="104.657055"><ele>604.7529</ele><time>2026-01-09T22:47:22.000Z</time></trkpt>
        <trkpt lat="28.737794" lon="104.65711"><ele>607.4721</ele><time>2026-01-09T22:47:47.000Z</time></trkpt>
        <trkpt lat="28.737833" lon="104.657137"><ele>607.0618</ele><time>2026-01-09T22:47:54.000Z</time></trkpt>
        <trkpt lat="28.73786" lon="104.657179"><ele>607.68915</ele><time>2026-01-09T22:47:59.000Z</time></trkpt>
        <trkpt lat="28.737806" lon="104.657233"><ele>609.4798</ele><time>2026-01-09T22:48:14.000Z</time></trkpt>
        <trkpt lat="28.737824" lon="104.657289"><ele>612.2005</ele><time>2026-01-09T22:48:29.000Z</time></trkpt>
        <trkpt lat="28.737816" lon="104.657344"><ele>613.0624</ele><time>2026-01-09T22:48:45.000Z</time></trkpt>
        <trkpt lat="28.737826" lon="104.657397"><ele>613.61633</ele><time>2026-01-09T22:48:54.000Z</time></trkpt>
        <trkpt lat="28.737801" lon="104.657444"><ele>614.7606</ele><time>2026-01-09T22:49:01.000Z</time></trkpt>
        <trkpt lat="28.737848" lon="104.657455"><ele>616.1676</ele><time>2026-01-09T22:49:18.000Z</time></trkpt>
        <trkpt lat="28.737824" lon="104.6575"><ele>616.3305</ele><time>2026-01-09T22:49:31.000Z</time></trkpt>
        <trkpt lat="28.737819" lon="104.657552"><ele>617.65735</ele><time>2026-01-09T22:49:39.000Z</time></trkpt>
        <trkpt lat="28.737784" lon="104.657588"><ele>617.9177</ele><time>2026-01-09T22:49:50.000Z</time></trkpt>
        <trkpt lat="28.737792" lon="104.657647"><ele>618.8863</ele><time>2026-01-09T22:50:02.000Z</time></trkpt>
        <trkpt lat="28.737782" lon="104.657702"><ele>619.9554</ele><time>2026-01-09T22:50:07.000Z</time></trkpt>
        <trkpt lat="28.737738" lon="104.657733"><ele>620.58765</ele><time>2026-01-09T22:50:12.000Z</time></trkpt>
        <trkpt lat="28.737707" lon="104.657779"><ele>621.739</ele><time>2026-01-09T22:50:17.000Z</time></trkpt>
        <trkpt lat="28.737662" lon="104.657764"><ele>622.736</ele><time>2026-01-09T22:50:37.000Z</time></trkpt>
        <trkpt lat="28.737671" lon="104.657814"><ele>622.1495</ele><time>2026-01-09T22:50:49.000Z</time></trkpt>
        <trkpt lat="28.737645" lon="104.657862"><ele>622.0586</ele><time>2026-01-09T22:50:56.000Z</time></trkpt>
        <trkpt lat="28.737607" lon="104.65791"><ele>621.9048</ele><time>2026-01-09T22:51:01.000Z</time></trkpt>
        <trkpt lat="28.737583" lon="104.657954"><ele>622.0079</ele><time>2026-01-09T22:51:07.000Z</time></trkpt>
        <trkpt lat="28.737609" lon="104.657997"><ele>620.9871</ele><time>2026-01-09T22:51:32.000Z</time></trkpt>
        <trkpt lat="28.73765" lon="104.657969"><ele>621.5898</ele><time>2026-01-09T22:51:36.000Z</time></trkpt>
        <trkpt lat="28.7377" lon="104.65797"><ele>621.88153</ele><time>2026-01-09T22:51:46.000Z</time></trkpt>
        <trkpt lat="28.737745" lon="104.657984"><ele>622.7383</ele><time>2026-01-09T22:51:54.000Z</time></trkpt>
        <trkpt lat="28.737781" lon="104.65802"><ele>622.9429</ele><time>2026-01-09T22:52:06.000Z</time></trkpt>
        <trkpt lat="28.737833" lon="104.658037"><ele>622.9761</ele><time>2026-01-09T22:52:11.000Z</time></trkpt>
        <trkpt lat="28.73788" lon="104.658052"><ele>624.0215</ele><time>2026-01-09T22:52:16.000Z</time></trkpt>
        <trkpt lat="28.737932" lon="104.65806"><ele>623.94617</ele><time>2026-01-09T22:52:22.000Z</time></trkpt>
        <trkpt lat="28.737979" lon="104.658079"><ele>625.3618</ele><time>2026-01-09T22:52:28.000Z</time></trkpt>
        <trkpt lat="28.738024" lon="104.658093"><ele>624.7494</ele><time>2026-01-09T22:52:33.000Z</time></trkpt>
        <trkpt lat="28.738073" lon="104.658103"><ele>624.7939</ele><time>2026-01-09T22:52:39.000Z</time></trkpt>
        <trkpt lat="28.738123" lon="104.658098"><ele>624.7115</ele><time>2026-01-09T22:52:44.000Z</time></trkpt>
        <trkpt lat="28.738171" lon="104.658089"><ele>625.07513</ele><time>2026-01-09T22:52:49.000Z</time></trkpt>
        <trkpt lat="28.738226" lon="104.658077"><ele>626.8843</ele><time>2026-01-09T22:53:32.000Z</time></trkpt>
        <trkpt lat="28.738273" lon="104.658084"><ele>627.2794</ele><time>2026-01-09T22:53:38.000Z</time></trkpt>
        <trkpt lat="28.738326" lon="104.658114"><ele>627.37964</ele><time>2026-01-09T22:53:43.000Z</time></trkpt>
        <trkpt lat="28.738365" lon="104.658157"><ele>628.2275</ele><time>2026-01-09T22:53:48.000Z</time></trkpt>
        <trkpt lat="28.738401" lon="104.658198"><ele>628.1883</ele><time>2026-01-09T22:53:53.000Z</time></trkpt>
        <trkpt lat="28.738405" lon="104.65825"><ele>629.0925</ele><time>2026-01-09T22:54:20.000Z</time></trkpt>
        <trkpt lat="28.73845" lon="104.658273"><ele>628.9008</ele><time>2026-01-09T22:54:29.000Z</time></trkpt>
        <trkpt lat="28.738482" lon="104.658311"><ele>628.4139</ele><time>2026-01-09T22:54:34.000Z</time></trkpt>
        <trkpt lat="28.738514" lon="104.658349"><ele>629.93976</ele><time>2026-01-09T22:54:39.000Z</time></trkpt>
        <trkpt lat="28.738544" lon="104.658395"><ele>630.3287</ele><time>2026-01-09T22:54:47.000Z</time></trkpt>
        <trkpt lat="28.738582" lon="104.658444"><ele>630.4746</ele><time>2026-01-09T22:54:52.000Z</time></trkpt>
        <trkpt lat="28.738624" lon="104.658485"><ele>631.55884</ele><time>2026-01-09T22:54:58.000Z</time></trkpt>
        <trkpt lat="28.738658" lon="104.658524"><ele>631.6844</ele><time>2026-01-09T22:55:03.000Z</time></trkpt>
        <trkpt lat="28.738694" lon="104.658561"><ele>631.17474</ele><time>2026-01-09T22:55:08.000Z</time></trkpt>
        <trkpt lat="28.738739" lon="104.658599"><ele>631.0443</ele><time>2026-01-09T22:55:14.000Z</time></trkpt>
        <trkpt lat="28.738768" lon="104.658646"><ele>631.1879</ele><time>2026-01-09T22:55:19.000Z</time></trkpt>
        <trkpt lat="28.738797" lon="104.658686"><ele>631.404</ele><time>2026-01-09T22:55:23.000Z</time></trkpt>
        <trkpt lat="28.738838" lon="104.658723"><ele>631.411</ele><time>2026-01-09T22:55:31.000Z</time></trkpt>
        <trkpt lat="28.738858" lon="104.658775"><ele>631.2973</ele><time>2026-01-09T22:55:37.000Z</time></trkpt>
        <trkpt lat="28.73889" lon="104.658825"><ele>630.5462</ele><time>2026-01-09T22:55:42.000Z</time></trkpt>
        <trkpt lat="28.738926" lon="104.658869"><ele>629.2993</ele><time>2026-01-09T22:55:51.000Z</time></trkpt>
        <trkpt lat="28.738963" lon="104.65891"><ele>629.4623</ele><time>2026-01-09T22:55:59.000Z</time></trkpt>
        <trkpt lat="28.739008" lon="104.65893"><ele>629.05554</ele><time>2026-01-09T22:56:03.000Z</time></trkpt>
        <trkpt lat="28.739055" lon="104.658943"><ele>628.3489</ele><time>2026-01-09T22:56:08.000Z</time></trkpt>
        <trkpt lat="28.739104" lon="104.658931"><ele>627.9909</ele><time>2026-01-09T22:56:13.000Z</time></trkpt>
        <trkpt lat="28.739152" lon="104.658914"><ele>627.9991</ele><time>2026-01-09T22:56:17.000Z</time></trkpt>
        <trkpt lat="28.739202" lon="104.658887"><ele>628.58295</ele><time>2026-01-09T22:56:22.000Z</time></trkpt>
        <trkpt lat="28.739252" lon="104.658862"><ele>628.64795</ele><time>2026-01-09T22:56:27.000Z</time></trkpt>
        <trkpt lat="28.739296" lon="104.658837"><ele>629.448</ele><time>2026-01-09T22:56:31.000Z</time></trkpt>
        <trkpt lat="28.739336" lon="104.658804"><ele>631.12225</ele><time>2026-01-09T22:56:40.000Z</time></trkpt>
        <trkpt lat="28.739381" lon="104.658795"><ele>630.84515</ele><time>2026-01-09T22:56:44.000Z</time></trkpt>
        <trkpt lat="28.739429" lon="104.658773"><ele>630.2572</ele><time>2026-01-09T22:56:49.000Z</time></trkpt>
        <trkpt lat="28.739475" lon="104.658762"><ele>632.8065</ele><time>2026-01-09T22:57:11.000Z</time></trkpt>
        <trkpt lat="28.739523" lon="104.658779"><ele>632.5076</ele><time>2026-01-09T22:57:17.000Z</time></trkpt>
        <trkpt lat="28.739575" lon="104.658803"><ele>632.7121</ele><time>2026-01-09T22:57:23.000Z</time></trkpt>
        <trkpt lat="28.739625" lon="104.658801"><ele>632.1488</ele><time>2026-01-09T22:57:28.000Z</time></trkpt>
        <trkpt lat="28.739671" lon="104.658831"><ele>631.25684</ele><time>2026-01-09T22:57:34.000Z</time></trkpt>
        <trkpt lat="28.739706" lon="104.658871"><ele>631.37946</ele><time>2026-01-09T22:57:39.000Z</time></trkpt>
        <trkpt lat="28.739728" lon="104.658917"><ele>632.28107</ele><time>2026-01-09T22:57:45.000Z</time></trkpt>
        <trkpt lat="28.739742" lon="104.658966"><ele>632.2269</ele><time>2026-01-09T22:57:50.000Z</time></trkpt>
        <trkpt lat="28.739723" lon="104.65902"><ele>632.37305</ele><time>2026-01-09T22:57:59.000Z</time></trkpt>
        <trkpt lat="28.7397" lon="104.659066"><ele>632.7446</ele><time>2026-01-09T22:58:04.000Z</time></trkpt>
        <trkpt lat="28.739689" lon="104.65912"><ele>632.8996</ele><time>2026-01-09T22:58:09.000Z</time></trkpt>
        <trkpt lat="28.739688" lon="104.659175"><ele>632.7985</ele><time>2026-01-09T22:58:13.000Z</time></trkpt>
        <trkpt lat="28.73971" lon="104.659221"><ele>632.2593</ele><time>2026-01-09T22:58:18.000Z</time></trkpt>
        <trkpt lat="28.739752" lon="104.659243"><ele>631.97845</ele><time>2026-01-09T22:58:23.000Z</time></trkpt>
        <trkpt lat="28.739804" lon="104.659245"><ele>632.2949</ele><time>2026-01-09T22:58:28.000Z</time></trkpt>
        <trkpt lat="28.739856" lon="104.659246"><ele>632.7026</ele><time>2026-01-09T22:58:34.000Z</time></trkpt>
        <trkpt lat="28.7399" lon="104.659267"><ele>632.9366</ele><time>2026-01-09T22:58:40.000Z</time></trkpt>
        <trkpt lat="28.739943" lon="104.6593"><ele>633.0551</ele><time>2026-01-09T22:58:46.000Z</time></trkpt>
        <trkpt lat="28.739987" lon="104.659315"><ele>633.59283</ele><time>2026-01-09T22:58:51.000Z</time></trkpt>
        <trkpt lat="28.74004" lon="104.659324"><ele>634.5315</ele><time>2026-01-09T22:58:59.000Z</time></trkpt>
        <trkpt lat="28.740086" lon="104.659357"><ele>634.1085</ele><time>2026-01-09T22:59:06.000Z</time></trkpt>
        <trkpt lat="28.740128" lon="104.65939"><ele>635.34485</ele><time>2026-01-09T22:59:12.000Z</time></trkpt>
        <trkpt lat="28.740179" lon="104.659412"><ele>635.6821</ele><time>2026-01-09T22:59:21.000Z</time></trkpt>
        <trkpt lat="28.740224" lon="104.659432"><ele>635.40375</ele><time>2026-01-09T22:59:25.000Z</time></trkpt>
        <trkpt lat="28.740268" lon="104.659465"><ele>635.1356</ele><time>2026-01-09T22:59:30.000Z</time></trkpt>
        <trkpt lat="28.740307" lon="104.659498"><ele>634.42883</ele><time>2026-01-09T22:59:35.000Z</time></trkpt>
        <trkpt lat="28.740338" lon="104.659539"><ele>633.87006</ele><time>2026-01-09T22:59:40.000Z</time></trkpt>
        <trkpt lat="28.740367" lon="104.659591"><ele>634.09595</ele><time>2026-01-09T22:59:45.000Z</time></trkpt>
        <trkpt lat="28.740402" lon="104.659626"><ele>634.78033</ele><time>2026-01-09T22:59:52.000Z</time></trkpt>
        <trkpt lat="28.740423" lon="104.659677"><ele>633.3325</ele><time>2026-01-09T22:59:57.000Z</time></trkpt>
        <trkpt lat="28.740458" lon="104.659726"><ele>633.1101</ele><time>2026-01-09T23:00:03.000Z</time></trkpt>
        <trkpt lat="28.740494" lon="104.659772"><ele>633.1043</ele><time>2026-01-09T23:00:08.000Z</time></trkpt>
        <trkpt lat="28.74053" lon="104.659825"><ele>632.793</ele><time>2026-01-09T23:00:14.000Z</time></trkpt>
        <trkpt lat="28.740566" lon="104.659867"><ele>632.9787</ele><time>2026-01-09T23:00:19.000Z</time></trkpt>
        <trkpt lat="28.740604" lon="104.659913"><ele>632.6797</ele><time>2026-01-09T23:00:24.000Z</time></trkpt>
        <trkpt lat="28.740626" lon="104.659964"><ele>633.4976</ele><time>2026-01-09T23:00:33.000Z</time></trkpt>
        <trkpt lat="28.740655" lon="104.660017"><ele>634.0446</ele><time>2026-01-09T23:00:39.000Z</time></trkpt>
        <trkpt lat="28.740651" lon="104.660079"><ele>635.6282</ele><time>2026-01-09T23:00:46.000Z</time></trkpt>
        <trkpt lat="28.740639" lon="104.660139"><ele>637.34595</ele><time>2026-01-09T23:00:51.000Z</time></trkpt>
        <trkpt lat="28.740628" lon="104.660191"><ele>638.2676</ele><time>2026-01-09T23:01:21.000Z</time></trkpt>
        <trkpt lat="28.740631" lon="104.660244"><ele>639.6852</ele><time>2026-01-09T23:01:50.000Z</time></trkpt>
        <trkpt lat="28.740607" lon="104.660296"><ele>640.7195</ele><time>2026-01-09T23:01:54.000Z</time></trkpt>
        <trkpt lat="28.740596" lon="104.66035"><ele>640.05493</ele><time>2026-01-09T23:01:59.000Z</time></trkpt>
        <trkpt lat="28.740585" lon="104.6604"><ele>640.83435</ele><time>2026-01-09T23:02:05.000Z</time></trkpt>
        <trkpt lat="28.740578" lon="104.660456"><ele>641.1204</ele><time>2026-01-09T23:02:09.000Z</time></trkpt>
        <trkpt lat="28.740581" lon="104.660514"><ele>641.8598</ele><time>2026-01-09T23:02:14.000Z</time></trkpt>
        <trkpt lat="28.740586" lon="104.660567"><ele>642.80884</ele><time>2026-01-09T23:02:19.000Z</time></trkpt>
        <trkpt lat="28.740598" lon="104.66062"><ele>643.2105</ele><time>2026-01-09T23:02:23.000Z</time></trkpt>
        <trkpt lat="28.740599" lon="104.66068"><ele>642.9568</ele><time>2026-01-09T23:02:28.000Z</time></trkpt>
        <trkpt lat="28.740614" lon="104.660735"><ele>643.3699</ele><time>2026-01-09T23:02:34.000Z</time></trkpt>
        <trkpt lat="28.740606" lon="104.66079"><ele>643.2813</ele><time>2026-01-09T23:02:38.000Z</time></trkpt>
        <trkpt lat="28.740589" lon="104.660845"><ele>642.9342</ele><time>2026-01-09T23:02:43.000Z</time></trkpt>
        <trkpt lat="28.740547" lon="104.660876"><ele>639.6358</ele><time>2026-01-09T23:03:03.000Z</time></trkpt>
        <trkpt lat="28.740535" lon="104.660926"><ele>639.7414</ele><time>2026-01-09T23:03:08.000Z</time></trkpt>
        <trkpt lat="28.740572" lon="104.660959"><ele>638.071</ele><time>2026-01-09T23:03:26.000Z</time></trkpt>
        <trkpt lat="28.740527" lon="104.660963"><ele>638.62976</ele><time>2026-01-09T23:03:47.000Z</time></trkpt>
        <trkpt lat="28.740538" lon="104.660912"><ele>639.04236</ele><time>2026-01-09T23:03:55.000Z</time></trkpt>
        <trkpt lat="28.740542" lon="104.66086"><ele>640.47906</ele><time>2026-01-09T23:04:03.000Z</time></trkpt>
        <trkpt lat="28.740595" lon="104.660838"><ele>639.7201</ele><time>2026-01-09T23:04:20.000Z</time></trkpt>
        <trkpt lat="28.740568" lon="104.660893"><ele>641.6053</ele><time>2026-01-09T23:04:40.000Z</time></trkpt>
        <trkpt lat="28.740536" lon="104.660943"><ele>640.3125</ele><time>2026-01-09T23:04:45.000Z</time></trkpt>
        <trkpt lat="28.740514" lon="104.660996"><ele>639.6718</ele><time>2026-01-09T23:04:50.000Z</time></trkpt>
        <trkpt lat="28.740514" lon="104.661055"><ele>638.2522</ele><time>2026-01-09T23:04:56.000Z</time></trkpt>
        <trkpt lat="28.740522" lon="104.661107"><ele>636.8602</ele><time>2026-01-09T23:05:01.000Z</time></trkpt>
        <trkpt lat="28.740551" lon="104.661156"><ele>635.87744</ele><time>2026-01-09T23:05:24.000Z</time></trkpt>
        <trkpt lat="28.740593" lon="104.661181"><ele>635.71814</ele><time>2026-01-09T23:05:48.000Z</time></trkpt>
        <trkpt lat="28.740633" lon="104.661224"><ele>634.5831</ele><time>2026-01-09T23:05:56.000Z</time></trkpt>
        <trkpt lat="28.74069" lon="104.661222"><ele>635.67444</ele><time>2026-01-09T23:06:02.000Z</time></trkpt>
        <trkpt lat="28.740735" lon="104.661249"><ele>634.42145</ele><time>2026-01-09T23:06:08.000Z</time></trkpt>
        <trkpt lat="28.740781" lon="104.661274"><ele>633.28644</ele><time>2026-01-09T23:06:13.000Z</time></trkpt>
        <trkpt lat="28.740832" lon="104.661294"><ele>632.21094</ele><time>2026-01-09T23:06:20.000Z</time></trkpt>
        <trkpt lat="28.740889" lon="104.661311"><ele>632.0176</ele><time>2026-01-09T23:06:26.000Z</time></trkpt>
        <trkpt lat="28.740921" lon="104.661354"><ele>633.10156</ele><time>2026-01-09T23:06:34.000Z</time></trkpt>
        <trkpt lat="28.740971" lon="104.661361"><ele>631.4009</ele><time>2026-01-09T23:06:41.000Z</time></trkpt>
        <trkpt lat="28.741021" lon="104.661377"><ele>632.0818</ele><time>2026-01-09T23:06:46.000Z</time></trkpt>
        <trkpt lat="28.74108" lon="104.661391"><ele>635.8222</ele><time>2026-01-09T23:07:03.000Z</time></trkpt>
        <trkpt lat="28.741127" lon="104.661415"><ele>636.02686</ele><time>2026-01-09T23:07:08.000Z</time></trkpt>
        <trkpt lat="28.741174" lon="104.661444"><ele>636.1105</ele><time>2026-01-09T23:07:13.000Z</time></trkpt>
        <trkpt lat="28.741217" lon="104.661472"><ele>636.00867</ele><time>2026-01-09T23:07:18.000Z</time></trkpt>
        <trkpt lat="28.74126" lon="104.661498"><ele>638.02637</ele><time>2026-01-09T23:07:23.000Z</time></trkpt>
        <trkpt lat="28.741298" lon="104.661532"><ele>637.81604</ele><time>2026-01-09T23:07:28.000Z</time></trkpt>
        <trkpt lat="28.741353" lon="104.661561"><ele>638.032</ele><time>2026-01-09T23:07:32.000Z</time></trkpt>
        <trkpt lat="28.741396" lon="104.661585"><ele>638.312</ele><time>2026-01-09T23:07:36.000Z</time></trkpt>
        <trkpt lat="28.741439" lon="104.661607"><ele>637.4169</ele><time>2026-01-09T23:07:41.000Z</time></trkpt>
        <trkpt lat="28.741478" lon="104.661645"><ele>636.4251</ele><time>2026-01-09T23:07:46.000Z</time></trkpt>
        <trkpt lat="28.741515" lon="104.661686"><ele>635.783</ele><time>2026-01-09T23:07:53.000Z</time></trkpt>
        <trkpt lat="28.741526" lon="104.661739"><ele>637.8298</ele><time>2026-01-09T23:08:12.000Z</time></trkpt>
        <trkpt lat="28.741577" lon="104.661658"><ele>637.94855</ele><time>2026-01-09T23:08:29.000Z</time></trkpt>
        <trkpt lat="28.741604" lon="104.661704"><ele>637.78595</ele><time>2026-01-09T23:08:36.000Z</time></trkpt>
        <trkpt lat="28.741616" lon="104.661756"><ele>637.4018</ele><time>2026-01-09T23:08:44.000Z</time></trkpt>
        <trkpt lat="28.741596" lon="104.661811"><ele>637.7436</ele><time>2026-01-09T23:08:47.000Z</time></trkpt>
        <trkpt lat="28.741616" lon="104.66187"><ele>636.4566</ele><time>2026-01-09T23:09:22.000Z</time></trkpt>
        <trkpt lat="28.741625" lon="104.661936"><ele>636.07043</ele><time>2026-01-09T23:09:27.000Z</time></trkpt>
        <trkpt lat="28.741607" lon="104.661865"><ele>636.1863</ele><time>2026-01-09T23:09:48.000Z</time></trkpt>
        <trkpt lat="28.741634" lon="104.661908"><ele>636.10486</ele><time>2026-01-09T23:10:02.000Z</time></trkpt>
        <trkpt lat="28.741625" lon="104.662017"><ele>635.27344</ele><time>2026-01-09T23:10:15.000Z</time></trkpt>
        <trkpt lat="28.741573" lon="104.661992"><ele>635.5915</ele><time>2026-01-09T23:10:28.000Z</time></trkpt>
        <trkpt lat="28.741549" lon="104.661944"><ele>635.25006</ele><time>2026-01-09T23:10:31.000Z</time></trkpt>
        <trkpt lat="28.741525" lon="104.66189"><ele>635.3754</ele><time>2026-01-09T23:10:33.000Z</time></trkpt>
        <trkpt lat="28.741576" lon="104.661864"><ele>635.0484</ele><time>2026-01-09T23:10:36.000Z</time></trkpt>
        <trkpt lat="28.741624" lon="104.661842"><ele>635.07983</ele><time>2026-01-09T23:10:40.000Z</time></trkpt>
        <trkpt lat="28.741672" lon="104.661857"><ele>635.67267</ele><time>2026-01-09T23:10:46.000Z</time></trkpt>
        <trkpt lat="28.741716" lon="104.661837"><ele>634.7198</ele><time>2026-01-09T23:10:52.000Z</time></trkpt>
        <trkpt lat="28.741772" lon="104.661826"><ele>633.9637</ele><time>2026-01-09T23:11:02.000Z</time></trkpt>
        <trkpt lat="28.741817" lon="104.661835"><ele>633.5803</ele><time>2026-01-09T23:11:07.000Z</time></trkpt>
        <trkpt lat="28.741869" lon="104.66182"><ele>632.9593</ele><time>2026-01-09T23:11:13.000Z</time></trkpt>
        <trkpt lat="28.741928" lon="104.661832"><ele>632.462</ele><time>2026-01-09T23:11:17.000Z</time></trkpt>
        <trkpt lat="28.741977" lon="104.661818"><ele>631.73065</ele><time>2026-01-09T23:11:24.000Z</time></trkpt>
        <trkpt lat="28.742011" lon="104.66178"><ele>630.51666</ele><time>2026-01-09T23:11:30.000Z</time></trkpt>
        <trkpt lat="28.742052" lon="104.661758"><ele>630.48303</ele><time>2026-01-09T23:11:35.000Z</time></trkpt>
        <trkpt lat="28.742055" lon="104.661819"><ele>629.65247</ele><time>2026-01-09T23:11:48.000Z</time></trkpt>
        <trkpt lat="28.742035" lon="104.661878"><ele>629.6015</ele><time>2026-01-09T23:11:52.000Z</time></trkpt>
        <trkpt lat="28.742039" lon="104.661945"><ele>628.6872</ele><time>2026-01-09T23:11:57.000Z</time></trkpt>
        <trkpt lat="28.741992" lon="104.661988"><ele>628.40125</ele><time>2026-01-09T23:12:03.000Z</time></trkpt>
        <trkpt lat="28.74204" lon="104.662"><ele>627.1468</ele><time>2026-01-09T23:12:19.000Z</time></trkpt>
        <trkpt lat="28.742109" lon="104.661951"><ele>624.27045</ele><time>2026-01-09T23:12:35.000Z</time></trkpt>
        <trkpt lat="28.741982" lon="104.662023"><ele>625.96515</ele><time>2026-01-09T23:12:50.000Z</time></trkpt>
        <trkpt lat="28.742039" lon="104.661975"><ele>626.71936</ele><time>2026-01-09T23:12:53.000Z</time></trkpt>
        <trkpt lat="28.742104" lon="104.661921"><ele>624.94684</ele><time>2026-01-09T23:12:58.000Z</time></trkpt>
        <trkpt lat="28.742041" lon="104.66191"><ele>625.18506</ele><time>2026-01-09T23:13:54.000Z</time></trkpt>
        <trkpt lat="28.742005" lon="104.661944"><ele>628.78046</ele><time>2026-01-09T23:14:07.000Z</time></trkpt>
        <trkpt lat="28.742056" lon="104.66189"><ele>627.979</ele><time>2026-01-09T23:14:23.000Z</time></trkpt>
        <trkpt lat="28.742097" lon="104.661861"><ele>627.4795</ele><time>2026-01-09T23:14:28.000Z</time></trkpt>
        <trkpt lat="28.742155" lon="104.661848"><ele>626.47876</ele><time>2026-01-09T23:14:36.000Z</time></trkpt>
        <trkpt lat="28.742195" lon="104.661823"><ele>624.95715</ele><time>2026-01-09T23:14:42.000Z</time></trkpt>
        <trkpt lat="28.742228" lon="104.661782"><ele>623.6045</ele><time>2026-01-09T23:14:47.000Z</time></trkpt>
        <trkpt lat="28.742269" lon="104.661759"><ele>623.44995</ele><time>2026-01-09T23:14:52.000Z</time></trkpt>
        <trkpt lat="28.742312" lon="104.66174"><ele>622.8437</ele><time>2026-01-09T23:14:56.000Z</time></trkpt>
        <trkpt lat="28.742364" lon="104.661718"><ele>622.9394</ele><time>2026-01-09T23:15:02.000Z</time></trkpt>
        <trkpt lat="28.742415" lon="104.661721"><ele>621.8028</ele><time>2026-01-09T23:15:08.000Z</time></trkpt>
        <trkpt lat="28.742451" lon="104.661752"><ele>621.3941</ele><time>2026-01-09T23:15:16.000Z</time></trkpt>
        <trkpt lat="28.742442" lon="104.661813"><ele>620.1194</ele><time>2026-01-09T23:15:28.000Z</time></trkpt>
        <trkpt lat="28.742397" lon="104.66177"><ele>621.413</ele><time>2026-01-09T23:15:51.000Z</time></trkpt>
        <trkpt lat="28.742412" lon="104.661718"><ele>623.0016</ele><time>2026-01-09T23:16:27.000Z</time></trkpt>
        <trkpt lat="28.742449" lon="104.661673"><ele>622.9736</ele><time>2026-01-09T23:16:33.000Z</time></trkpt>
        <trkpt lat="28.742495" lon="104.661651"><ele>622.4258</ele><time>2026-01-09T23:16:38.000Z</time></trkpt>
        <trkpt lat="28.742546" lon="104.661647"><ele>622.45593</ele><time>2026-01-09T23:16:42.000Z</time></trkpt>
        <trkpt lat="28.742598" lon="104.661649"><ele>622.5026</ele><time>2026-01-09T23:16:45.000Z</time></trkpt>
        <trkpt lat="28.742654" lon="104.661662"><ele>623.4561</ele><time>2026-01-09T23:16:49.000Z</time></trkpt>
        <trkpt lat="28.742712" lon="104.661652"><ele>624.46606</ele><time>2026-01-09T23:16:54.000Z</time></trkpt>
        <trkpt lat="28.742762" lon="104.661657"><ele>624.52673</ele><time>2026-01-09T23:17:00.000Z</time></trkpt>
        <trkpt lat="28.742813" lon="104.661672"><ele>624.88074</ele><time>2026-01-09T23:17:06.000Z</time></trkpt>
        <trkpt lat="28.742858" lon="104.661685"><ele>625.8207</ele><time>2026-01-09T23:17:11.000Z</time></trkpt>
        <trkpt lat="28.742887" lon="104.661734"><ele>626.2889</ele><time>2026-01-09T23:17:15.000Z</time></trkpt>
        <trkpt lat="28.742883" lon="104.661787"><ele>626.2268</ele><time>2026-01-09T23:17:22.000Z</time></trkpt>
        <trkpt lat="28.742913" lon="104.661834"><ele>625.8947</ele><time>2026-01-09T23:17:27.000Z</time></trkpt>
        <trkpt lat="28.742926" lon="104.66189"><ele>626.03925</ele><time>2026-01-09T23:17:32.000Z</time></trkpt>
        <trkpt lat="28.742923" lon="104.66195"><ele>625.5452</ele><time>2026-01-09T23:17:38.000Z</time></trkpt>
        <trkpt lat="28.742896" lon="104.662001"><ele>625.812</ele><time>2026-01-09T23:17:44.000Z</time></trkpt>
        <trkpt lat="28.742875" lon="104.662058"><ele>626.03015</ele><time>2026-01-09T23:17:50.000Z</time></trkpt>
        <trkpt lat="28.74287" lon="104.66211"><ele>626.26245</ele><time>2026-01-09T23:18:03.000Z</time></trkpt>
        <trkpt lat="28.742856" lon="104.662168"><ele>626.8376</ele><time>2026-01-09T23:18:07.000Z</time></trkpt>
        <trkpt lat="28.742833" lon="104.662218"><ele>625.908</ele><time>2026-01-09T23:18:12.000Z</time></trkpt>
        <trkpt lat="28.742824" lon="104.662271"><ele>626.0784</ele><time>2026-01-09T23:18:17.000Z</time></trkpt>
        <trkpt lat="28.742809" lon="104.66233"><ele>624.4211</ele><time>2026-01-09T23:18:23.000Z</time></trkpt>
        <trkpt lat="28.742795" lon="104.662385"><ele>623.2895</ele><time>2026-01-09T23:18:28.000Z</time></trkpt>
        <trkpt lat="28.742789" lon="104.66244"><ele>622.7853</ele><time>2026-01-09T23:18:33.000Z</time></trkpt>
        <trkpt lat="28.742767" lon="104.662489"><ele>619.65326</ele><time>2026-01-09T23:18:40.000Z</time></trkpt>
        <trkpt lat="28.742761" lon="104.662548"><ele>618.71954</ele><time>2026-01-09T23:18:45.000Z</time></trkpt>
        <trkpt lat="28.742755" lon="104.662614"><ele>617.72845</ele><time>2026-01-09T23:18:50.000Z</time></trkpt>
        <trkpt lat="28.742756" lon="104.662674"><ele>615.5934</ele><time>2026-01-09T23:19:00.000Z</time></trkpt>
        <trkpt lat="28.742753" lon="104.662732"><ele>614.62537</ele><time>2026-01-09T23:19:06.000Z</time></trkpt>
        <trkpt lat="28.742755" lon="104.662788"><ele>613.8139</ele><time>2026-01-09T23:19:11.000Z</time></trkpt>
        <trkpt lat="28.742778" lon="104.662839"><ele>612.7333</ele><time>2026-01-09T23:19:16.000Z</time></trkpt>
        <trkpt lat="28.742793" lon="104.662898"><ele>610.18024</ele><time>2026-01-09T23:19:24.000Z</time></trkpt>
        <trkpt lat="28.742818" lon="104.662941"><ele>609.7037</ele><time>2026-01-09T23:19:28.000Z</time></trkpt>
        <trkpt lat="28.742839" lon="104.662988"><ele>610.2408</ele><time>2026-01-09T23:19:32.000Z</time></trkpt>
        <trkpt lat="28.74286" lon="104.663044"><ele>609.98456</ele><time>2026-01-09T23:19:38.000Z</time></trkpt>
        <trkpt lat="28.742883" lon="104.66309"><ele>611.0624</ele><time>2026-01-09T23:19:43.000Z</time></trkpt>
        <trkpt lat="28.742902" lon="104.663151"><ele>611.5502</ele><time>2026-01-09T23:19:47.000Z</time></trkpt>
        <trkpt lat="28.742918" lon="104.663202"><ele>611.6649</ele><time>2026-01-09T23:19:54.000Z</time></trkpt>
        <trkpt lat="28.742927" lon="104.663258"><ele>611.74524</ele><time>2026-01-09T23:20:02.000Z</time></trkpt>
        <trkpt lat="28.742919" lon="104.663205"><ele>612.3088</ele><time>2026-01-09T23:20:27.000Z</time></trkpt>
        <trkpt lat="28.742969" lon="104.663212"><ele>612.2166</ele><time>2026-01-09T23:20:55.000Z</time></trkpt>
        <trkpt lat="28.743024" lon="104.663229"><ele>611.38934</ele><time>2026-01-09T23:21:00.000Z</time></trkpt>
        <trkpt lat="28.743069" lon="104.663248"><ele>612.31036</ele><time>2026-01-09T23:21:04.000Z</time></trkpt>
        <trkpt lat="28.74312" lon="104.663254"><ele>611.5872</ele><time>2026-01-09T23:21:09.000Z</time></trkpt>
        <trkpt lat="28.743166" lon="104.663263"><ele>610.80774</ele><time>2026-01-09T23:21:13.000Z</time></trkpt>
        <trkpt lat="28.743213" lon="104.663262"><ele>610.0345</ele><time>2026-01-09T23:21:18.000Z</time></trkpt>
        <trkpt lat="28.743252" lon="104.663233"><ele>609.779</ele><time>2026-01-09T23:21:23.000Z</time></trkpt>
        <trkpt lat="28.743314" lon="104.663218"><ele>608.7487</ele><time>2026-01-09T23:21:28.000Z</time></trkpt>
        <trkpt lat="28.743366" lon="104.663245"><ele>606.2271</ele><time>2026-01-09T23:21:32.000Z</time></trkpt>
        <trkpt lat="28.743419" lon="104.663266"><ele>603.4759</ele><time>2026-01-09T23:21:36.000Z</time></trkpt>
        <trkpt lat="28.743432" lon="104.663318"><ele>602.02216</ele><time>2026-01-09T23:21:44.000Z</time></trkpt>
        <trkpt lat="28.743485" lon="104.66332"><ele>600.35077</ele><time>2026-01-09T23:21:49.000Z</time></trkpt>
        <trkpt lat="28.743532" lon="104.663309"><ele>599.35626</ele><time>2026-01-09T23:21:53.000Z</time></trkpt>
        <trkpt lat="28.743573" lon="104.663287"><ele>598.78375</ele><time>2026-01-09T23:21:57.000Z</time></trkpt>
        <trkpt lat="28.743628" lon="104.66328"><ele>598.84485</ele><time>2026-01-09T23:22:02.000Z</time></trkpt>
        <trkpt lat="28.743678" lon="104.663249"><ele>597.34686</ele><time>2026-01-09T23:22:08.000Z</time></trkpt>
        <trkpt lat="28.743727" lon="104.663219"><ele>597.5439</ele><time>2026-01-09T23:22:14.000Z</time></trkpt>
        <trkpt lat="28.743772" lon="104.6632"><ele>597.6983</ele><time>2026-01-09T23:22:18.000Z</time></trkpt>
        <trkpt lat="28.743814" lon="104.663167"><ele>596.6026</ele><time>2026-01-09T23:22:23.000Z</time></trkpt>
        <trkpt lat="28.743853" lon="104.663127"><ele>595.73</ele><time>2026-01-09T23:22:28.000Z</time></trkpt>
        <trkpt lat="28.743884" lon="104.663084"><ele>595.17474</ele><time>2026-01-09T23:22:33.000Z</time></trkpt>
        <trkpt lat="28.743914" lon="104.663043"><ele>595.0897</ele><time>2026-01-09T23:22:41.000Z</time></trkpt>
        <trkpt lat="28.743947" lon="104.663002"><ele>594.8677</ele><time>2026-01-09T23:22:46.000Z</time></trkpt>
        <trkpt lat="28.743981" lon="104.662954"><ele>595.10455</ele><time>2026-01-09T23:22:51.000Z</time></trkpt>
        <trkpt lat="28.743997" lon="104.662895"><ele>594.83215</ele><time>2026-01-09T23:22:56.000Z</time></trkpt>
        <trkpt lat="28.744018" lon="104.662848"><ele>595.02563</ele><time>2026-01-09T23:23:00.000Z</time></trkpt>
        <trkpt lat="28.744037" lon="104.6628"><ele>595.61273</ele><time>2026-01-09T23:23:04.000Z</time></trkpt>
        <trkpt lat="28.744057" lon="104.662743"><ele>595.8388</ele><time>2026-01-09T23:23:09.000Z</time></trkpt>
        <trkpt lat="28.744076" lon="104.662697"><ele>595.9202</ele><time>2026-01-09T23:23:13.000Z</time></trkpt>
        <trkpt lat="28.744098" lon="104.662642"><ele>595.68445</ele><time>2026-01-09T23:23:18.000Z</time></trkpt>
        <trkpt lat="28.744105" lon="104.662585"><ele>595.00964</ele><time>2026-01-09T23:23:25.000Z</time></trkpt>
        <trkpt lat="28.744123" lon="104.662531"><ele>594.2663</ele><time>2026-01-09T23:23:29.000Z</time></trkpt>
        <trkpt lat="28.744132" lon="104.662478"><ele>593.9266</ele><time>2026-01-09T23:23:33.000Z</time></trkpt>
        <trkpt lat="28.744149" lon="104.662428"><ele>593.8063</ele><time>2026-01-09T23:23:37.000Z</time></trkpt>
        <trkpt lat="28.74417" lon="104.662378"><ele>593.4108</ele><time>2026-01-09T23:23:43.000Z</time></trkpt>
        <trkpt lat="28.744194" lon="104.662329"><ele>592.4779</ele><time>2026-01-09T23:23:52.000Z</time></trkpt>
        <trkpt lat="28.744236" lon="104.66231"><ele>592.2787</ele><time>2026-01-09T23:23:56.000Z</time></trkpt>
        <trkpt lat="28.744283" lon="104.662326"><ele>593.1933</ele><time>2026-01-09T23:24:21.000Z</time></trkpt>
        <trkpt lat="28.744309" lon="104.662369"><ele>592.7434</ele><time>2026-01-09T23:24:25.000Z</time></trkpt>
        <trkpt lat="28.744334" lon="104.662419"><ele>592.86896</ele><time>2026-01-09T23:24:46.000Z</time></trkpt>
        <trkpt lat="28.744371" lon="104.662454"><ele>593.6585</ele><time>2026-01-09T23:24:50.000Z</time></trkpt>
        <trkpt lat="28.744399" lon="104.6625"><ele>593.04114</ele><time>2026-01-09T23:24:55.000Z</time></trkpt>
        <trkpt lat="28.744422" lon="104.662547"><ele>592.5766</ele><time>2026-01-09T23:25:00.000Z</time></trkpt>
        <trkpt lat="28.744434" lon="104.662599"><ele>592.3568</ele><time>2026-01-09T23:25:05.000Z</time></trkpt>
        <trkpt lat="28.744437" lon="104.662657"><ele>592.76685</ele><time>2026-01-09T23:25:09.000Z</time></trkpt>
        <trkpt lat="28.744446" lon="104.662716"><ele>592.8124</ele><time>2026-01-09T23:25:14.000Z</time></trkpt>
        <trkpt lat="28.744453" lon="104.662768"><ele>592.45856</ele><time>2026-01-09T23:25:18.000Z</time></trkpt>
        <trkpt lat="28.74446" lon="104.662829"><ele>592.4424</ele><time>2026-01-09T23:25:23.000Z</time></trkpt>
        <trkpt lat="28.744475" lon="104.662882"><ele>592.2778</ele><time>2026-01-09T23:25:28.000Z</time></trkpt>
        <trkpt lat="28.7445" lon="104.662925"><ele>592.24567</ele><time>2026-01-09T23:25:32.000Z</time></trkpt>
        <trkpt lat="28.744535" lon="104.662966"><ele>593.1424</ele><time>2026-01-09T23:25:37.000Z</time></trkpt>
        <trkpt lat="28.744585" lon="104.662985"><ele>593.3715</ele><time>2026-01-09T23:25:42.000Z</time></trkpt>
        <trkpt lat="28.744637" lon="104.662998"><ele>593.789</ele><time>2026-01-09T23:25:47.000Z</time></trkpt>
        <trkpt lat="28.744685" lon="104.663013"><ele>594.0501</ele><time>2026-01-09T23:25:53.000Z</time></trkpt>
        <trkpt lat="28.744727" lon="104.663041"><ele>595.081</ele><time>2026-01-09T23:25:58.000Z</time></trkpt>
        <trkpt lat="28.744772" lon="104.663063"><ele>595.7552</ele><time>2026-01-09T23:26:03.000Z</time></trkpt>
        <trkpt lat="28.744822" lon="104.663087"><ele>596.0129</ele><time>2026-01-09T23:26:09.000Z</time></trkpt>
        <trkpt lat="28.74487" lon="104.663093"><ele>595.8251</ele><time>2026-01-09T23:26:31.000Z</time></trkpt>
        <trkpt lat="28.744916" lon="104.663114"><ele>596.68964</ele><time>2026-01-09T23:26:35.000Z</time></trkpt>
        <trkpt lat="28.744963" lon="104.663131"><ele>596.821</ele><time>2026-01-09T23:26:39.000Z</time></trkpt>
        <trkpt lat="28.745006" lon="104.663156"><ele>596.9336</ele><time>2026-01-09T23:26:43.000Z</time></trkpt>
        <trkpt lat="28.745056" lon="104.663178"><ele>596.89026</ele><time>2026-01-09T23:26:48.000Z</time></trkpt>
        <trkpt lat="28.745105" lon="104.663192"><ele>596.7334</ele><time>2026-01-09T23:26:52.000Z</time></trkpt>
        <trkpt lat="28.74516" lon="104.663207"><ele>595.9535</ele><time>2026-01-09T23:26:57.000Z</time></trkpt>
        <trkpt lat="28.745206" lon="104.663223"><ele>595.80524</ele><time>2026-01-09T23:27:01.000Z</time></trkpt>
        <trkpt lat="28.745252" lon="104.663235"><ele>595.64734</ele><time>2026-01-09T23:27:05.000Z</time></trkpt>
        <trkpt lat="28.7453" lon="104.663244"><ele>595.22797</ele><time>2026-01-09T23:27:09.000Z</time></trkpt>
        <trkpt lat="28.745347" lon="104.663232"><ele>594.96075</ele><time>2026-01-09T23:27:14.000Z</time></trkpt>
        <trkpt lat="28.745402" lon="104.663232"><ele>594.439</ele><time>2026-01-09T23:27:19.000Z</time></trkpt>
        <trkpt lat="28.745448" lon="104.663228"><ele>594.7625</ele><time>2026-01-09T23:27:38.000Z</time></trkpt>
        <trkpt lat="28.745468" lon="104.663276"><ele>594.01685</ele><time>2026-01-09T23:27:44.000Z</time></trkpt>
        <trkpt lat="28.745502" lon="104.663315"><ele>593.97156</ele><time>2026-01-09T23:27:48.000Z</time></trkpt>
        <trkpt lat="28.745554" lon="104.663304"><ele>593.3203</ele><time>2026-01-09T23:27:56.000Z</time></trkpt>
        <trkpt lat="28.745602" lon="104.663282"><ele>593.26917</ele><time>2026-01-09T23:28:03.000Z</time></trkpt>
        <trkpt lat="28.745646" lon="104.663267"><ele>593.4782</ele><time>2026-01-09T23:28:12.000Z</time></trkpt>
        <trkpt lat="28.745696" lon="104.66324"><ele>594.0764</ele><time>2026-01-09T23:28:17.000Z</time></trkpt>
        <trkpt lat="28.745741" lon="104.663233"><ele>594.51855</ele><time>2026-01-09T23:28:20.000Z</time></trkpt>
        <trkpt lat="28.745789" lon="104.663223"><ele>595.1866</ele><time>2026-01-09T23:28:26.000Z</time></trkpt>
        <trkpt lat="28.745837" lon="104.663217"><ele>595.6802</ele><time>2026-01-09T23:28:31.000Z</time></trkpt>
        <trkpt lat="28.745886" lon="104.663198"><ele>596.141</ele><time>2026-01-09T23:28:36.000Z</time></trkpt>
        <trkpt lat="28.745921" lon="104.663165"><ele>596.5893</ele><time>2026-01-09T23:28:41.000Z</time></trkpt>
        <trkpt lat="28.745968" lon="104.663139"><ele>597.3807</ele><time>2026-01-09T23:28:46.000Z</time></trkpt>
        <trkpt lat="28.746015" lon="104.663125"><ele>598.2328</ele><time>2026-01-09T23:29:01.000Z</time></trkpt>
        <trkpt lat="28.746064" lon="104.663132"><ele>598.7894</ele><time>2026-01-09T23:29:07.000Z</time></trkpt>
        <trkpt lat="28.746114" lon="104.66312"><ele>599.3012</ele><time>2026-01-09T23:29:13.000Z</time></trkpt>
        <trkpt lat="28.746168" lon="104.663111"><ele>599.7354</ele><time>2026-01-09T23:29:25.000Z</time></trkpt>
        <trkpt lat="28.746213" lon="104.663105"><ele>600.44586</ele><time>2026-01-09T23:29:31.000Z</time></trkpt>
        <trkpt lat="28.746251" lon="104.663074"><ele>602.24927</ele><time>2026-01-09T23:29:35.000Z</time></trkpt>
        <trkpt lat="28.746302" lon="104.663063"><ele>602.677</ele><time>2026-01-09T23:29:40.000Z</time></trkpt>
        <trkpt lat="28.74635" lon="104.663033"><ele>603.1011</ele><time>2026-01-09T23:30:00.000Z</time></trkpt>
        <trkpt lat="28.746394" lon="104.663"><ele>603.1956</ele><time>2026-01-09T23:30:05.000Z</time></trkpt>
        <trkpt lat="28.746431" lon="104.662959"><ele>603.5453</ele><time>2026-01-09T23:30:10.000Z</time></trkpt>
        <trkpt lat="28.746472" lon="104.662911"><ele>603.28284</ele><time>2026-01-09T23:30:15.000Z</time></trkpt>
        <trkpt lat="28.746507" lon="104.66288"><ele>602.7715</ele><time>2026-01-09T23:30:20.000Z</time></trkpt>
        <trkpt lat="28.746516" lon="104.662943"><ele>603.5429</ele><time>2026-01-09T23:30:30.000Z</time></trkpt>
        <trkpt lat="28.7465" lon="104.662998"><ele>604.0079</ele><time>2026-01-09T23:30:34.000Z</time></trkpt>
        <trkpt lat="28.746517" lon="104.663058"><ele>604.2136</ele><time>2026-01-09T23:30:40.000Z</time></trkpt>
        <trkpt lat="28.746537" lon="104.663107"><ele>604.22864</ele><time>2026-01-09T23:30:44.000Z</time></trkpt>
        <trkpt lat="28.746568" lon="104.663152"><ele>604.4022</ele><time>2026-01-09T23:30:49.000Z</time></trkpt>
        <trkpt lat="28.7466" lon="104.663189"><ele>604.46936</ele><time>2026-01-09T23:30:53.000Z</time></trkpt>
        <trkpt lat="28.746645" lon="104.663225"><ele>605.13324</ele><time>2026-01-09T23:30:58.000Z</time></trkpt>
        <trkpt lat="28.746685" lon="104.66326"><ele>605.82306</ele><time>2026-01-09T23:31:03.000Z</time></trkpt>
        <trkpt lat="28.746732" lon="104.663289"><ele>605.98535</ele><time>2026-01-09T23:31:12.000Z</time></trkpt>
        <trkpt lat="28.746779" lon="104.663319"><ele>604.9238</ele><time>2026-01-09T23:31:18.000Z</time></trkpt>
        <trkpt lat="28.746827" lon="104.663345"><ele>603.67444</ele><time>2026-01-09T23:31:24.000Z</time></trkpt>
        <trkpt lat="28.746862" lon="104.663377"><ele>604.88257</ele><time>2026-01-09T23:31:28.000Z</time></trkpt>
        <trkpt lat="28.746903" lon="104.663423"><ele>604.9672</ele><time>2026-01-09T23:31:34.000Z</time></trkpt>
        <trkpt lat="28.746909" lon="104.663476"><ele>604.9397</ele><time>2026-01-09T23:31:43.000Z</time></trkpt>
        <trkpt lat="28.746934" lon="104.663538"><ele>605.2559</ele><time>2026-01-09T23:31:49.000Z</time></trkpt>
        <trkpt lat="28.746955" lon="104.663588"><ele>605.0945</ele><time>2026-01-09T23:31:53.000Z</time></trkpt>
        <trkpt lat="28.746963" lon="104.663648"><ele>605.9117</ele><time>2026-01-09T23:31:59.000Z</time></trkpt>
        <trkpt lat="28.74695" lon="104.663709"><ele>608.8178</ele><time>2026-01-09T23:32:21.000Z</time></trkpt>
        <trkpt lat="28.746944" lon="104.663769"><ele>609.9448</ele><time>2026-01-09T23:32:26.000Z</time></trkpt>
        <trkpt lat="28.746939" lon="104.663828"><ele>611.9029</ele><time>2026-01-09T23:32:41.000Z</time></trkpt>
        <trkpt lat="28.746971" lon="104.663885"><ele>612.43146</ele><time>2026-01-09T23:32:46.000Z</time></trkpt>
        <trkpt lat="28.747017" lon="104.663878"><ele>613.1971</ele><time>2026-01-09T23:32:53.000Z</time></trkpt>
        <trkpt lat="28.747067" lon="104.663876"><ele>613.43365</ele><time>2026-01-09T23:33:17.000Z</time></trkpt>
        <trkpt lat="28.747115" lon="104.663858"><ele>612.33984</ele><time>2026-01-09T23:33:23.000Z</time></trkpt>
        <trkpt lat="28.747164" lon="104.663867"><ele>611.9756</ele><time>2026-01-09T23:33:30.000Z</time></trkpt>
        <trkpt lat="28.747215" lon="104.663898"><ele>610.6982</ele><time>2026-01-09T23:33:37.000Z</time></trkpt>
        <trkpt lat="28.747255" lon="104.663924"><ele>611.5194</ele><time>2026-01-09T23:33:42.000Z</time></trkpt>
        <trkpt lat="28.7473" lon="104.663949"><ele>612.2063</ele><time>2026-01-09T23:33:50.000Z</time></trkpt>
        <trkpt lat="28.747346" lon="104.663967"><ele>612.7883</ele><time>2026-01-09T23:33:56.000Z</time></trkpt>
        <trkpt lat="28.747399" lon="104.66399"><ele>612.65594</ele><time>2026-01-09T23:34:05.000Z</time></trkpt>
        <trkpt lat="28.747449" lon="104.664006"><ele>613.1094</ele><time>2026-01-09T23:34:12.000Z</time></trkpt>
        <trkpt lat="28.747494" lon="104.664002"><ele>613.1947</ele><time>2026-01-09T23:34:26.000Z</time></trkpt>
        <trkpt lat="28.747546" lon="104.664032"><ele>613.58295</ele><time>2026-01-09T23:34:35.000Z</time></trkpt>
        <trkpt lat="28.747588" lon="104.664049"><ele>613.14984</ele><time>2026-01-09T23:34:42.000Z</time></trkpt>
        <trkpt lat="28.747634" lon="104.664078"><ele>613.2407</ele><time>2026-01-09T23:34:54.000Z</time></trkpt>
        <trkpt lat="28.747671" lon="104.66412"><ele>613.52765</ele><time>2026-01-09T23:35:03.000Z</time></trkpt>
        <trkpt lat="28.747708" lon="104.664155"><ele>615.12335</ele><time>2026-01-09T23:35:12.000Z</time></trkpt>
        <trkpt lat="28.74775" lon="104.664183"><ele>616.0651</ele><time>2026-01-09T23:35:22.000Z</time></trkpt>
        <trkpt lat="28.747784" lon="104.664221"><ele>616.8519</ele><time>2026-01-09T23:35:30.000Z</time></trkpt>
        <trkpt lat="28.747812" lon="104.664265"><ele>618.7877</ele><time>2026-01-09T23:35:39.000Z</time></trkpt>
        <trkpt lat="28.747821" lon="104.664316"><ele>619.674</ele><time>2026-01-09T23:35:44.000Z</time></trkpt>
        <trkpt lat="28.747842" lon="104.664361"><ele>621.7974</ele><time>2026-01-09T23:35:51.000Z</time></trkpt>
        <trkpt lat="28.747858" lon="104.664415"><ele>622.87177</ele><time>2026-01-09T23:36:00.000Z</time></trkpt>
        <trkpt lat="28.747896" lon="104.664461"><ele>623.8556</ele><time>2026-01-09T23:36:06.000Z</time></trkpt>
        <trkpt lat="28.74794" lon="104.664492"><ele>625.10596</ele><time>2026-01-09T23:36:12.000Z</time></trkpt>
        <trkpt lat="28.747987" lon="104.664488"><ele>624.9291</ele><time>2026-01-09T23:36:21.000Z</time></trkpt>
        <trkpt lat="28.748036" lon="104.664481"><ele>624.3137</ele><time>2026-01-09T23:36:38.000Z</time></trkpt>
        <trkpt lat="28.748079" lon="104.664505"><ele>628.0878</ele><time>2026-01-09T23:36:58.000Z</time></trkpt>
        <trkpt lat="28.748122" lon="104.664481"><ele>630.162</ele><time>2026-01-09T23:37:20.000Z</time></trkpt>
        <trkpt lat="28.748167" lon="104.664484"><ele>623.11005</ele><time>2026-01-09T23:37:30.000Z</time></trkpt>
        <trkpt lat="28.748186" lon="104.664431"><ele>622.4048</ele><time>2026-01-09T23:37:42.000Z</time></trkpt>
        <trkpt lat="28.748226" lon="104.664407"><ele>618.10767</ele><time>2026-01-09T23:37:50.000Z</time></trkpt>
        <trkpt lat="28.748271" lon="104.664374"><ele>616.9794</ele><time>2026-01-09T23:38:01.000Z</time></trkpt>
        <trkpt lat="28.748325" lon="104.66437"><ele>612.4921</ele><time>2026-01-09T23:38:11.000Z</time></trkpt>
        <trkpt lat="28.748369" lon="104.664392"><ele>610.86414</ele><time>2026-01-09T23:38:16.000Z</time></trkpt>
        <trkpt lat="28.748405" lon="104.664433"><ele>609.7865</ele><time>2026-01-09T23:38:23.000Z</time></trkpt>
        <trkpt lat="28.748428" lon="104.664486"><ele>609.1701</ele><time>2026-01-09T23:38:30.000Z</time></trkpt>
        <trkpt lat="28.748441" lon="104.664541"><ele>609.2693</ele><time>2026-01-09T23:38:36.000Z</time></trkpt>
        <trkpt lat="28.748478" lon="104.664573"><ele>617.01514</ele><time>2026-01-09T23:38:55.000Z</time></trkpt>
        <trkpt lat="28.748502" lon="104.664619"><ele>621.946</ele><time>2026-01-09T23:39:15.000Z</time></trkpt>
        <trkpt lat="28.748531" lon="104.664662"><ele>621.60114</ele><time>2026-01-09T23:39:21.000Z</time></trkpt>
        <trkpt lat="28.748557" lon="104.664715"><ele>617.4477</ele><time>2026-01-09T23:39:30.000Z</time></trkpt>
        <trkpt lat="28.748575" lon="104.66477"><ele>614.62445</ele><time>2026-01-09T23:39:35.000Z</time></trkpt>
        <trkpt lat="28.748602" lon="104.664812"><ele>614.9811</ele><time>2026-01-09T23:39:40.000Z</time></trkpt>
        <trkpt lat="28.748634" lon="104.664849"><ele>615.33105</ele><time>2026-01-09T23:39:47.000Z</time></trkpt>
        <trkpt lat="28.748674" lon="104.664878"><ele>615.30145</ele><time>2026-01-09T23:39:54.000Z</time></trkpt>
        <trkpt lat="28.748718" lon="104.664892"><ele>613.5048</ele><time>2026-01-09T23:40:01.000Z</time></trkpt>
        <trkpt lat="28.748765" lon="104.66491"><ele>611.3919</ele><time>2026-01-09T23:40:08.000Z</time></trkpt>
        <trkpt lat="28.748815" lon="104.664937"><ele>609.97723</ele><time>2026-01-09T23:40:14.000Z</time></trkpt>
        <trkpt lat="28.748854" lon="104.664963"><ele>609.14716</ele><time>2026-01-09T23:40:19.000Z</time></trkpt>
        <trkpt lat="28.748893" lon="104.665"><ele>609.374</ele><time>2026-01-09T23:40:25.000Z</time></trkpt>
        <trkpt lat="28.748935" lon="104.665022"><ele>608.3174</ele><time>2026-01-09T23:40:31.000Z</time></trkpt>
        <trkpt lat="28.748981" lon="104.66503"><ele>605.35846</ele><time>2026-01-09T23:40:37.000Z</time></trkpt>
        <trkpt lat="28.749026" lon="104.665049"><ele>602.4991</ele><time>2026-01-09T23:40:45.000Z</time></trkpt>
        <trkpt lat="28.749066" lon="104.665077"><ele>600.47253</ele><time>2026-01-09T23:41:00.000Z</time></trkpt>
        <trkpt lat="28.749105" lon="104.665111"><ele>598.62054</ele><time>2026-01-09T23:41:17.000Z</time></trkpt>
        <trkpt lat="28.749137" lon="104.66515"><ele>598.1843</ele><time>2026-01-09T23:41:27.000Z</time></trkpt>
        <trkpt lat="28.749168" lon="104.665196"><ele>597.4784</ele><time>2026-01-09T23:41:37.000Z</time></trkpt>
        <trkpt lat="28.74921" lon="104.665228"><ele>598.2569</ele><time>2026-01-09T23:41:43.000Z</time></trkpt>
        <trkpt lat="28.749251" lon="104.66527"><ele>597.82416</ele><time>2026-01-09T23:41:48.000Z</time></trkpt>
        <trkpt lat="28.749296" lon="104.665298"><ele>599.4924</ele><time>2026-01-09T23:41:57.000Z</time></trkpt>
        <trkpt lat="28.749335" lon="104.665333"><ele>598.3774</ele><time>2026-01-09T23:42:04.000Z</time></trkpt>
        <trkpt lat="28.749375" lon="104.665372"><ele>597.94763</ele><time>2026-01-09T23:42:10.000Z</time></trkpt>
        <trkpt lat="28.749406" lon="104.66541"><ele>598.32904</ele><time>2026-01-09T23:42:20.000Z</time></trkpt>
        <trkpt lat="28.749438" lon="104.665461"><ele>598.1373</ele><time>2026-01-09T23:42:33.000Z</time></trkpt>
        <trkpt lat="28.749457" lon="104.665509"><ele>597.8212</ele><time>2026-01-09T23:42:44.000Z</time></trkpt>
        <trkpt lat="28.749474" lon="104.665559"><ele>599.628</ele><time>2026-01-09T23:42:54.000Z</time></trkpt>
        <trkpt lat="28.749519" lon="104.665576"><ele>599.7845</ele><time>2026-01-09T23:43:11.000Z</time></trkpt>
        <trkpt lat="28.749567" lon="104.665593"><ele>599.7363</ele><time>2026-01-09T23:43:24.000Z</time></trkpt>
        <trkpt lat="28.74961" lon="104.665618"><ele>596.0243</ele><time>2026-01-09T23:43:36.000Z</time></trkpt>
        <trkpt lat="28.749649" lon="104.665647"><ele>595.54486</ele><time>2026-01-09T23:43:43.000Z</time></trkpt>
        <trkpt lat="28.749693" lon="104.665689"><ele>593.8795</ele><time>2026-01-09T23:43:51.000Z</time></trkpt>
        <trkpt lat="28.749727" lon="104.665728"><ele>594.8263</ele><time>2026-01-09T23:43:58.000Z</time></trkpt>
        <trkpt lat="28.749751" lon="104.665775"><ele>594.5378</ele><time>2026-01-09T23:44:05.000Z</time></trkpt>
        <trkpt lat="28.74978" lon="104.665817"><ele>595.3868</ele><time>2026-01-09T23:44:10.000Z</time></trkpt>
        <trkpt lat="28.749801" lon="104.665865"><ele>596.1793</ele><time>2026-01-09T23:44:17.000Z</time></trkpt>
        <trkpt lat="28.749811" lon="104.665918"><ele>597.4456</ele><time>2026-01-09T23:44:26.000Z</time></trkpt>
        <trkpt lat="28.749838" lon="104.665968"><ele>598.1894</ele><time>2026-01-09T23:44:34.000Z</time></trkpt>
        <trkpt lat="28.749876" lon="104.666004"><ele>601.9025</ele><time>2026-01-09T23:45:09.000Z</time></trkpt>
        <trkpt lat="28.749831" lon="104.66601"><ele>600.6348</ele><time>2026-01-09T23:46:28.000Z</time></trkpt>
        <trkpt lat="28.749791" lon="104.66598"><ele>603.09467</ele><time>2026-01-09T23:46:41.000Z</time></trkpt>
        <trkpt lat="28.749835" lon="104.666005"><ele>602.5221</ele><time>2026-01-09T23:46:56.000Z</time></trkpt>
        <trkpt lat="28.749795" lon="104.665969"><ele>608.0369</ele><time>2026-01-09T23:48:25.000Z</time></trkpt>
        <trkpt lat="28.749846" lon="104.665961"><ele>603.5217</ele><time>2026-01-09T23:48:37.000Z</time></trkpt>
        <trkpt lat="28.74982" lon="104.666003"><ele>604.5269</ele><time>2026-01-09T23:48:50.000Z</time></trkpt>
        <trkpt lat="28.749872" lon="104.665997"><ele>600.0609</ele><time>2026-01-09T23:49:23.000Z</time></trkpt>
        <trkpt lat="28.749825" lon="104.665994"><ele>602.4765</ele><time>2026-01-09T23:50:07.000Z</time></trkpt>
        <trkpt lat="28.749864" lon="104.66602"><ele>601.5731</ele><time>2026-01-09T23:50:22.000Z</time></trkpt>
        <trkpt lat="28.749924" lon="104.666037"><ele>602.40247</ele><time>2026-01-09T23:50:31.000Z</time></trkpt>
        <trkpt lat="28.749923" lon="104.666093"><ele>602.2856</ele><time>2026-01-09T23:51:02.000Z</time></trkpt>
        <trkpt lat="28.749935" lon="104.666143"><ele>602.2305</ele><time>2026-01-09T23:51:12.000Z</time></trkpt>
        <trkpt lat="28.749973" lon="104.666184"><ele>602.28424</ele><time>2026-01-09T23:51:19.000Z</time></trkpt>
        <trkpt lat="28.750009" lon="104.666221"><ele>602.3842</ele><time>2026-01-09T23:51:27.000Z</time></trkpt>
        <trkpt lat="28.750037" lon="104.666266"><ele>601.93744</ele><time>2026-01-09T23:51:35.000Z</time></trkpt>
        <trkpt lat="28.750061" lon="104.666311"><ele>602.45624</ele><time>2026-01-09T23:51:42.000Z</time></trkpt>
        <trkpt lat="28.750091" lon="104.666361"><ele>603.1627</ele><time>2026-01-09T23:51:48.000Z</time></trkpt>
        <trkpt lat="28.750125" lon="104.6664"><ele>603.99493</ele><time>2026-01-09T23:51:54.000Z</time></trkpt>
        <trkpt lat="28.750154" lon="104.666443"><ele>603.6778</ele><time>2026-01-09T23:52:01.000Z</time></trkpt>
        <trkpt lat="28.750174" lon="104.66651"><ele>604.06433</ele><time>2026-01-09T23:52:11.000Z</time></trkpt>
        <trkpt lat="28.750212" lon="104.666544"><ele>603.8181</ele><time>2026-01-09T23:52:18.000Z</time></trkpt>
        <trkpt lat="28.750236" lon="104.666587"><ele>603.78546</ele><time>2026-01-09T23:52:25.000Z</time></trkpt>
        <trkpt lat="28.750271" lon="104.666627"><ele>603.32764</ele><time>2026-01-09T23:52:30.000Z</time></trkpt>
        <trkpt lat="28.750305" lon="104.666664"><ele>602.92993</ele><time>2026-01-09T23:52:34.000Z</time></trkpt>
        <trkpt lat="28.750314" lon="104.666717"><ele>602.38184</ele><time>2026-01-09T23:52:40.000Z</time></trkpt>
        <trkpt lat="28.75035" lon="104.666758"><ele>602.2375</ele><time>2026-01-09T23:52:46.000Z</time></trkpt>
        <trkpt lat="28.750375" lon="104.666801"><ele>602.0376</ele><time>2026-01-09T23:52:53.000Z</time></trkpt>
        <trkpt lat="28.750405" lon="104.666845"><ele>601.4925</ele><time>2026-01-09T23:53:00.000Z</time></trkpt>
        <trkpt lat="28.750446" lon="104.666871"><ele>600.74786</ele><time>2026-01-09T23:53:09.000Z</time></trkpt>
        <trkpt lat="28.750486" lon="104.666907"><ele>600.9653</ele><time>2026-01-09T23:53:15.000Z</time></trkpt>
        <trkpt lat="28.750504" lon="104.66696"><ele>601.15784</ele><time>2026-01-09T23:53:21.000Z</time></trkpt>
        <trkpt lat="28.750551" lon="104.666981"><ele>600.8718</ele><time>2026-01-09T23:53:28.000Z</time></trkpt>
        <trkpt lat="28.750596" lon="104.667017"><ele>600.3702</ele><time>2026-01-09T23:53:34.000Z</time></trkpt>
        <trkpt lat="28.750603" lon="104.667077"><ele>600.24457</ele><time>2026-01-09T23:53:39.000Z</time></trkpt>
        <trkpt lat="28.750634" lon="104.667123"><ele>600.79974</ele><time>2026-01-09T23:53:44.000Z</time></trkpt>
        <trkpt lat="28.750662" lon="104.667167"><ele>601.6492</ele><time>2026-01-09T23:53:54.000Z</time></trkpt>
        <trkpt lat="28.75069" lon="104.667211"><ele>601.188</ele><time>2026-01-09T23:53:59.000Z</time></trkpt>
        <trkpt lat="28.750705" lon="104.667273"><ele>601.63684</ele><time>2026-01-09T23:54:04.000Z</time></trkpt>
        <trkpt lat="28.750716" lon="104.667323"><ele>601.23206</ele><time>2026-01-09T23:54:12.000Z</time></trkpt>
        <trkpt lat="28.750741" lon="104.66737"><ele>600.601</ele><time>2026-01-09T23:54:18.000Z</time></trkpt>
        <trkpt lat="28.750764" lon="104.667421"><ele>600.3901</ele><time>2026-01-09T23:54:23.000Z</time></trkpt>
        <trkpt lat="28.750749" lon="104.667483"><ele>600.64215</ele><time>2026-01-09T23:54:32.000Z</time></trkpt>
        <trkpt lat="28.750765" lon="104.667534"><ele>601.0331</ele><time>2026-01-09T23:54:38.000Z</time></trkpt>
        <trkpt lat="28.750801" lon="104.667569"><ele>601.3035</ele><time>2026-01-09T23:54:44.000Z</time></trkpt>
        <trkpt lat="28.750811" lon="104.667627"><ele>600.78094</ele><time>2026-01-09T23:54:50.000Z</time></trkpt>
        <trkpt lat="28.750828" lon="104.667675"><ele>599.8702</ele><time>2026-01-09T23:55:00.000Z</time></trkpt>
        <trkpt lat="28.750858" lon="104.667719"><ele>598.5242</ele><time>2026-01-09T23:55:11.000Z</time></trkpt>
        <trkpt lat="28.750895" lon="104.667761"><ele>597.3254</ele><time>2026-01-09T23:55:21.000Z</time></trkpt>
        <trkpt lat="28.750942" lon="104.667763"><ele>596.9593</ele><time>2026-01-09T23:55:30.000Z</time></trkpt>
        <trkpt lat="28.750991" lon="104.66775"><ele>594.5209</ele><time>2026-01-09T23:55:39.000Z</time></trkpt>
        <trkpt lat="28.751041" lon="104.667739"><ele>592.8439</ele><time>2026-01-09T23:55:49.000Z</time></trkpt>
        <trkpt lat="28.751083" lon="104.667719"><ele>590.2857</ele><time>2026-01-09T23:55:59.000Z</time></trkpt>
        <trkpt lat="28.751123" lon="104.667696"><ele>587.74646</ele><time>2026-01-09T23:56:09.000Z</time></trkpt>
        <trkpt lat="28.751172" lon="104.667691"><ele>583.34735</ele><time>2026-01-09T23:56:26.000Z</time></trkpt>
        <trkpt lat="28.751205" lon="104.667651"><ele>582.607</ele><time>2026-01-09T23:56:34.000Z</time></trkpt>
        <trkpt lat="28.751187" lon="104.667598"><ele>583.07587</ele><time>2026-01-09T23:56:46.000Z</time></trkpt>
        <trkpt lat="28.751169" lon="104.667534"><ele>583.02966</ele><time>2026-01-09T23:56:50.000Z</time></trkpt>
        <trkpt lat="28.751153" lon="104.667485"><ele>584.72516</ele><time>2026-01-09T23:56:57.000Z</time></trkpt>
        <trkpt lat="28.751159" lon="104.667425"><ele>585.57477</ele><time>2026-01-09T23:57:03.000Z</time></trkpt>
        <trkpt lat="28.751168" lon="104.667374"><ele>583.4955</ele><time>2026-01-09T23:57:19.000Z</time></trkpt>
        <trkpt lat="28.751149" lon="104.667322"><ele>582.62897</ele><time>2026-01-09T23:57:34.000Z</time></trkpt>
        <trkpt lat="28.751199" lon="104.667337"><ele>577.619</ele><time>2026-01-09T23:57:49.000Z</time></trkpt>
        <trkpt lat="28.751247" lon="104.667344"><ele>575.61206</ele><time>2026-01-09T23:57:56.000Z</time></trkpt>
        <trkpt lat="28.751292" lon="104.66736"><ele>572.3912</ele><time>2026-01-09T23:58:03.000Z</time></trkpt>
        <trkpt lat="28.751305" lon="104.667307"><ele>567.2257</ele><time>2026-01-09T23:58:20.000Z</time></trkpt>
        <trkpt lat="28.751337" lon="104.667345"><ele>564.44275</ele><time>2026-01-09T23:58:40.000Z</time></trkpt>
        <trkpt lat="28.751394" lon="104.667354"><ele>564.06195</ele><time>2026-01-09T23:58:51.000Z</time></trkpt>
        <trkpt lat="28.751435" lon="104.667332"><ele>565.0469</ele><time>2026-01-09T23:58:57.000Z</time></trkpt>
        <trkpt lat="28.751455" lon="104.66738"><ele>564.9409</ele><time>2026-01-09T23:59:26.000Z</time></trkpt>
        <trkpt lat="28.751429" lon="104.667433"><ele>565.2681</ele><time>2026-01-10T00:00:07.000Z</time></trkpt>
        <trkpt lat="28.751429" lon="104.66749"><ele>565.8698</ele><time>2026-01-10T00:00:16.000Z</time></trkpt>
        <trkpt lat="28.751423" lon="104.667546"><ele>564.8682</ele><time>2026-01-10T00:00:20.000Z</time></trkpt>
        <trkpt lat="28.751409" lon="104.667606"><ele>566.14056</ele><time>2026-01-10T00:00:25.000Z</time></trkpt>
        <trkpt lat="28.751406" lon="104.667663"><ele>566.53906</ele><time>2026-01-10T00:00:31.000Z</time></trkpt>
        <trkpt lat="28.7514" lon="104.667717"><ele>567.1567</ele><time>2026-01-10T00:00:36.000Z</time></trkpt>
        <trkpt lat="28.751382" lon="104.66777"><ele>566.1315</ele><time>2026-01-10T00:00:43.000Z</time></trkpt>
        <trkpt lat="28.751388" lon="104.667827"><ele>567.1906</ele><time>2026-01-10T00:00:48.000Z</time></trkpt>
        <trkpt lat="28.751381" lon="104.667885"><ele>567.6842</ele><time>2026-01-10T00:00:53.000Z</time></trkpt>
        <trkpt lat="28.751382" lon="104.667936"><ele>568.5606</ele><time>2026-01-10T00:00:58.000Z</time></trkpt>
        <trkpt lat="28.751367" lon="104.667985"><ele>568.779</ele><time>2026-01-10T00:01:04.000Z</time></trkpt>
        <trkpt lat="28.751359" lon="104.668039"><ele>568.80225</ele><time>2026-01-10T00:01:10.000Z</time></trkpt>
        <trkpt lat="28.75133" lon="104.668088"><ele>569.39484</ele><time>2026-01-10T00:01:16.000Z</time></trkpt>
        <trkpt lat="28.751311" lon="104.668135"><ele>569.8191</ele><time>2026-01-10T00:01:22.000Z</time></trkpt>
        <trkpt lat="28.751263" lon="104.668155"><ele>569.89</ele><time>2026-01-10T00:01:33.000Z</time></trkpt>
        <trkpt lat="28.751219" lon="104.668191"><ele>571.328</ele><time>2026-01-10T00:01:40.000Z</time></trkpt>
        <trkpt lat="28.751177" lon="104.668211"><ele>572.1613</ele><time>2026-01-10T00:01:46.000Z</time></trkpt>
        <trkpt lat="28.75113" lon="104.668228"><ele>573.1236</ele><time>2026-01-10T00:01:52.000Z</time></trkpt>
        <trkpt lat="28.751062" lon="104.668206"><ele>575.3248</ele><time>2026-01-10T00:02:30.000Z</time></trkpt>
        <trkpt lat="28.75111" lon="104.668216"><ele>575.2303</ele><time>2026-01-10T00:03:38.000Z</time></trkpt>
        <trkpt lat="28.751065" lon="104.668214"><ele>575.3782</ele><time>2026-01-10T00:04:02.000Z</time></trkpt>
        <trkpt lat="28.751017" lon="104.668205"><ele>575.64</ele><time>2026-01-10T00:04:08.000Z</time></trkpt>
        <trkpt lat="28.750973" lon="104.668182"><ele>575.2351</ele><time>2026-01-10T00:04:14.000Z</time></trkpt>
        <trkpt lat="28.75093" lon="104.668151"><ele>576.0556</ele><time>2026-01-10T00:04:20.000Z</time></trkpt>
        <trkpt lat="28.750885" lon="104.668124"><ele>577.7106</ele><time>2026-01-10T00:04:27.000Z</time></trkpt>
        <trkpt lat="28.750851" lon="104.66809"><ele>579.4945</ele><time>2026-01-10T00:04:32.000Z</time></trkpt>
        <trkpt lat="28.750807" lon="104.668067"><ele>581.4597</ele><time>2026-01-10T00:04:41.000Z</time></trkpt>
        <trkpt lat="28.750759" lon="104.668059"><ele>582.63947</ele><time>2026-01-10T00:04:48.000Z</time></trkpt>
        <trkpt lat="28.750706" lon="104.668064"><ele>583.1704</ele><time>2026-01-10T00:04:53.000Z</time></trkpt>
        <trkpt lat="28.750652" lon="104.668063"><ele>583.2079</ele><time>2026-01-10T00:04:59.000Z</time></trkpt>
        <trkpt lat="28.750602" lon="104.668078"><ele>583.4727</ele><time>2026-01-10T00:05:04.000Z</time></trkpt>
        <trkpt lat="28.750551" lon="104.668079"><ele>582.4652</ele><time>2026-01-10T00:05:10.000Z</time></trkpt>
        <trkpt lat="28.750501" lon="104.668102"><ele>581.89984</ele><time>2026-01-10T00:05:14.000Z</time></trkpt>
        <trkpt lat="28.750459" lon="104.668124"><ele>580.6378</ele><time>2026-01-10T00:05:20.000Z</time></trkpt>
        <trkpt lat="28.750413" lon="104.668155"><ele>578.9984</ele><time>2026-01-10T00:05:27.000Z</time></trkpt>
        <trkpt lat="28.750367" lon="104.668183"><ele>575.99097</ele><time>2026-01-10T00:05:33.000Z</time></trkpt>
        <trkpt lat="28.75033" lon="104.668219"><ele>574.5827</ele><time>2026-01-10T00:05:38.000Z</time></trkpt>
        <trkpt lat="28.75029" lon="104.668266"><ele>572.8247</ele><time>2026-01-10T00:05:43.000Z</time></trkpt>
        <trkpt lat="28.75026" lon="104.668311"><ele>571.72614</ele><time>2026-01-10T00:05:47.000Z</time></trkpt>
        <trkpt lat="28.750215" lon="104.668348"><ele>570.6998</ele><time>2026-01-10T00:05:55.000Z</time></trkpt>
        <trkpt lat="28.750182" lon="104.66839"><ele>570.6633</ele><time>2026-01-10T00:06:03.000Z</time></trkpt>
        <trkpt lat="28.750154" lon="104.668429"><ele>571.30804</ele><time>2026-01-10T00:06:07.000Z</time></trkpt>
        <trkpt lat="28.750117" lon="104.668469"><ele>571.6894</ele><time>2026-01-10T00:06:12.000Z</time></trkpt>
        <trkpt lat="28.750083" lon="104.66852"><ele>571.7111</ele><time>2026-01-10T00:06:18.000Z</time></trkpt>
        <trkpt lat="28.750057" lon="104.668566"><ele>572.8459</ele><time>2026-01-10T00:06:23.000Z</time></trkpt>
        <trkpt lat="28.750014" lon="104.66859"><ele>573.4735</ele><time>2026-01-10T00:06:30.000Z</time></trkpt>
        <trkpt lat="28.749978" lon="104.668624"><ele>575.39136</ele><time>2026-01-10T00:06:36.000Z</time></trkpt>
        <trkpt lat="28.749945" lon="104.668676"><ele>575.586</ele><time>2026-01-10T00:06:44.000Z</time></trkpt>
        <trkpt lat="28.749918" lon="104.668722"><ele>576.16815</ele><time>2026-01-10T00:06:49.000Z</time></trkpt>
        <trkpt lat="28.7499" lon="104.668776"><ele>575.79193</ele><time>2026-01-10T00:06:54.000Z</time></trkpt>
        <trkpt lat="28.749876" lon="104.668827"><ele>574.4881</ele><time>2026-01-10T00:07:00.000Z</time></trkpt>
        <trkpt lat="28.749846" lon="104.668872"><ele>574.59814</ele><time>2026-01-10T00:07:04.000Z</time></trkpt>
        <trkpt lat="28.749793" lon="104.668886"><ele>574.0613</ele><time>2026-01-10T00:07:21.000Z</time></trkpt>
        <trkpt lat="28.749794" lon="104.668946"><ele>573.77563</ele><time>2026-01-10T00:07:35.000Z</time></trkpt>
        <trkpt lat="28.749743" lon="104.668948"><ele>573.7101</ele><time>2026-01-10T00:07:43.000Z</time></trkpt>
        <trkpt lat="28.749789" lon="104.66894"><ele>573.88635</ele><time>2026-01-10T00:08:04.000Z</time></trkpt>
        <trkpt lat="28.749744" lon="104.668928"><ele>573.7246</ele><time>2026-01-10T00:08:25.000Z</time></trkpt>
        <trkpt lat="28.749738" lon="104.668876"><ele>574.1457</ele><time>2026-01-10T00:08:43.000Z</time></trkpt>
        <trkpt lat="28.749772" lon="104.668912"><ele>574.4291</ele><time>2026-01-10T00:09:25.000Z</time></trkpt>
        <trkpt lat="28.749726" lon="104.668912"><ele>573.92175</ele><time>2026-01-10T00:09:35.000Z</time></trkpt>
        <trkpt lat="28.749759" lon="104.668951"><ele>573.5855</ele><time>2026-01-10T00:10:15.000Z</time></trkpt>
        <trkpt lat="28.749772" lon="104.669004"><ele>573.3884</ele><time>2026-01-10T00:10:22.000Z</time></trkpt>
        <trkpt lat="28.749757" lon="104.669058"><ele>573.9972</ele><time>2026-01-10T00:10:27.000Z</time></trkpt>
        <trkpt lat="28.749736" lon="104.669109"><ele>574.0488</ele><time>2026-01-10T00:10:32.000Z</time></trkpt>
        <trkpt lat="28.749723" lon="104.66917"><ele>573.60455</ele><time>2026-01-10T00:10:37.000Z</time></trkpt>
        <trkpt lat="28.749716" lon="104.669227"><ele>573.2652</ele><time>2026-01-10T00:10:43.000Z</time></trkpt>
        <trkpt lat="28.749715" lon="104.669289"><ele>573.26794</ele><time>2026-01-10T00:10:48.000Z</time></trkpt>
        <trkpt lat="28.749716" lon="104.669346"><ele>573.05286</ele><time>2026-01-10T00:10:53.000Z</time></trkpt>
        <trkpt lat="28.749717" lon="104.669399"><ele>573.30334</ele><time>2026-01-10T00:10:58.000Z</time></trkpt>
        <trkpt lat="28.749716" lon="104.669463"><ele>573.549</ele><time>2026-01-10T00:11:03.000Z</time></trkpt>
        <trkpt lat="28.749718" lon="104.669515"><ele>573.4973</ele><time>2026-01-10T00:11:07.000Z</time></trkpt>
        <trkpt lat="28.749716" lon="104.669571"><ele>573.97925</ele><time>2026-01-10T00:11:13.000Z</time></trkpt>
        <trkpt lat="28.749714" lon="104.669632"><ele>574.7612</ele><time>2026-01-10T00:11:18.000Z</time></trkpt>
        <trkpt lat="28.749688" lon="104.669683"><ele>574.7489</ele><time>2026-01-10T00:11:22.000Z</time></trkpt>
        <trkpt lat="28.749664" lon="104.669729"><ele>574.6503</ele><time>2026-01-10T00:11:26.000Z</time></trkpt>
        <trkpt lat="28.749697" lon="104.66977"><ele>573.8064</ele><time>2026-01-10T00:11:48.000Z</time></trkpt>
        <trkpt lat="28.749736" lon="104.669802"><ele>573.6741</ele><time>2026-01-10T00:11:55.000Z</time></trkpt>
        <trkpt lat="28.749784" lon="104.669824"><ele>573.8869</ele><time>2026-01-10T00:12:05.000Z</time></trkpt>
        <trkpt lat="28.749827" lon="104.669846"><ele>574.71686</ele><time>2026-01-10T00:12:12.000Z</time></trkpt>
        <trkpt lat="28.749841" lon="104.669895"><ele>575.5948</ele><time>2026-01-10T00:12:43.000Z</time></trkpt>
        <trkpt lat="28.749879" lon="104.669929"><ele>575.6795</ele><time>2026-01-10T00:12:51.000Z</time></trkpt>
        <trkpt lat="28.749926" lon="104.669925"><ele>576.42664</ele><time>2026-01-10T00:13:07.000Z</time></trkpt>
        <trkpt lat="28.749963" lon="104.66996"><ele>575.44727</ele><time>2026-01-10T00:13:14.000Z</time></trkpt>
        <trkpt lat="28.749996" lon="104.670012"><ele>574.0894</ele><time>2026-01-10T00:13:22.000Z</time></trkpt>
        <trkpt lat="28.750032" lon="104.670047"><ele>570.5175</ele><time>2026-01-10T00:13:30.000Z</time></trkpt>
        <trkpt lat="28.750061" lon="104.670093"><ele>570.5468</ele><time>2026-01-10T00:13:35.000Z</time></trkpt>
        <trkpt lat="28.750097" lon="104.670131"><ele>568.6136</ele><time>2026-01-10T00:13:41.000Z</time></trkpt>
        <trkpt lat="28.750134" lon="104.670164"><ele>566.09735</ele><time>2026-01-10T00:13:48.000Z</time></trkpt>
        <trkpt lat="28.750131" lon="104.670215"><ele>561.97864</ele><time>2026-01-10T00:14:07.000Z</time></trkpt>
        <trkpt lat="28.750148" lon="104.67029"><ele>559.3068</ele><time>2026-01-10T00:15:09.000Z</time></trkpt>
        <trkpt lat="28.750155" lon="104.670346"><ele>557.5216</ele><time>2026-01-10T00:15:12.000Z</time></trkpt>
        <trkpt lat="28.75018" lon="104.670399"><ele>554.68036</ele><time>2026-01-10T00:15:16.000Z</time></trkpt>
        <trkpt lat="28.750176" lon="104.670451"><ele>554.96643</ele><time>2026-01-10T00:15:41.000Z</time></trkpt>
        <trkpt lat="28.75022" lon="104.670467"><ele>554.5949</ele><time>2026-01-10T00:16:03.000Z</time></trkpt>
        <trkpt lat="28.750261" lon="104.670503"><ele>552.124</ele><time>2026-01-10T00:16:33.000Z</time></trkpt>
        <trkpt lat="28.750306" lon="104.670538"><ele>551.5036</ele><time>2026-01-10T00:16:39.000Z</time></trkpt>
        <trkpt lat="28.750338" lon="104.670575"><ele>550.3024</ele><time>2026-01-10T00:16:43.000Z</time></trkpt>
        <trkpt lat="28.750343" lon="104.67063"><ele>549.92737</ele><time>2026-01-10T00:17:09.000Z</time></trkpt>
        <trkpt lat="28.750363" lon="104.67068"><ele>549.129</ele><time>2026-01-10T00:17:19.000Z</time></trkpt>
        <trkpt lat="28.750408" lon="104.670708"><ele>547.66925</ele><time>2026-01-10T00:18:10.000Z</time></trkpt>
        <trkpt lat="28.750362" lon="104.670726"><ele>548.11334</ele><time>2026-01-10T00:18:59.000Z</time></trkpt>
        <trkpt lat="28.750333" lon="104.670767"><ele>548.7643</ele><time>2026-01-10T00:19:05.000Z</time></trkpt>
        <trkpt lat="28.750317" lon="104.67082"><ele>549.336</ele><time>2026-01-10T00:19:11.000Z</time></trkpt>
        <trkpt lat="28.750291" lon="104.670865"><ele>550.85815</ele><time>2026-01-10T00:19:18.000Z</time></trkpt>
        <trkpt lat="28.750275" lon="104.670914"><ele>551.83813</ele><time>2026-01-10T00:19:28.000Z</time></trkpt>
        <trkpt lat="28.750265" lon="104.670974"><ele>552.43805</ele><time>2026-01-10T00:19:32.000Z</time></trkpt>
        <trkpt lat="28.750252" lon="104.671028"><ele>552.78265</ele><time>2026-01-10T00:19:37.000Z</time></trkpt>
        <trkpt lat="28.750251" lon="104.67108"><ele>552.44904</ele><time>2026-01-10T00:19:42.000Z</time></trkpt>
        <trkpt lat="28.750249" lon="104.671131"><ele>552.2834</ele><time>2026-01-10T00:19:47.000Z</time></trkpt>
        <trkpt lat="28.750262" lon="104.671185"><ele>551.9057</ele><time>2026-01-10T00:19:54.000Z</time></trkpt>
        <trkpt lat="28.750264" lon="104.67125"><ele>552.2917</ele><time>2026-01-10T00:20:00.000Z</time></trkpt>
        <trkpt lat="28.750268" lon="104.671303"><ele>551.2054</ele><time>2026-01-10T00:20:06.000Z</time></trkpt>
        <trkpt lat="28.750249" lon="104.671361"><ele>550.149</ele><time>2026-01-10T00:20:11.000Z</time></trkpt>
        <trkpt lat="28.75023" lon="104.671408"><ele>549.69165</ele><time>2026-01-10T00:20:19.000Z</time></trkpt>
        <trkpt lat="28.750208" lon="104.671459"><ele>549.2021</ele><time>2026-01-10T00:20:25.000Z</time></trkpt>
        <trkpt lat="28.750193" lon="104.671511"><ele>547.0217</ele><time>2026-01-10T00:20:29.000Z</time></trkpt>
        <trkpt lat="28.750175" lon="104.67156"><ele>546.1486</ele><time>2026-01-10T00:20:33.000Z</time></trkpt>
        <trkpt lat="28.750161" lon="104.67162"><ele>545.5634</ele><time>2026-01-10T00:20:38.000Z</time></trkpt>
        <trkpt lat="28.750148" lon="104.671674"><ele>544.6615</ele><time>2026-01-10T00:20:43.000Z</time></trkpt>
        <trkpt lat="28.750158" lon="104.671733"><ele>543.39307</ele><time>2026-01-10T00:20:49.000Z</time></trkpt>
        <trkpt lat="28.750161" lon="104.671795"><ele>542.76465</ele><time>2026-01-10T00:20:55.000Z</time></trkpt>
        <trkpt lat="28.750184" lon="104.671848"><ele>541.3777</ele><time>2026-01-10T00:21:04.000Z</time></trkpt>
        <trkpt lat="28.75023" lon="104.671867"><ele>541.6491</ele><time>2026-01-10T00:21:12.000Z</time></trkpt>
        <trkpt lat="28.750281" lon="104.671866"><ele>542.0989</ele><time>2026-01-10T00:21:22.000Z</time></trkpt>
        <trkpt lat="28.750332" lon="104.671863"><ele>542.0008</ele><time>2026-01-10T00:21:29.000Z</time></trkpt>
        <trkpt lat="28.750377" lon="104.671844"><ele>542.8274</ele><time>2026-01-10T00:21:35.000Z</time></trkpt>
        <trkpt lat="28.750426" lon="104.671835"><ele>543.5344</ele><time>2026-01-10T00:21:40.000Z</time></trkpt>
        <trkpt lat="28.750473" lon="104.671824"><ele>544.3243</ele><time>2026-01-10T00:21:44.000Z</time></trkpt>
        <trkpt lat="28.750527" lon="104.671811"><ele>545.4858</ele><time>2026-01-10T00:21:48.000Z</time></trkpt>
        <trkpt lat="28.750573" lon="104.671819"><ele>546.59125</ele><time>2026-01-10T00:21:54.000Z</time></trkpt>
        <trkpt lat="28.750612" lon="104.671846"><ele>548.12616</ele><time>2026-01-10T00:22:11.000Z</time></trkpt>
        <trkpt lat="28.750658" lon="104.671843"><ele>547.8366</ele><time>2026-01-10T00:22:15.000Z</time></trkpt>
        <trkpt lat="28.750709" lon="104.671851"><ele>547.90314</ele><time>2026-01-10T00:22:20.000Z</time></trkpt>
        <trkpt lat="28.750762" lon="104.671862"><ele>548.1664</ele><time>2026-01-10T00:22:27.000Z</time></trkpt>
        <trkpt lat="28.750799" lon="104.671892"><ele>545.3977</ele><time>2026-01-10T00:22:36.000Z</time></trkpt>
        <trkpt lat="28.750834" lon="104.671933"><ele>545.14075</ele><time>2026-01-10T00:22:42.000Z</time></trkpt>
        <trkpt lat="28.750858" lon="104.671986"><ele>543.2467</ele><time>2026-01-10T00:22:49.000Z</time></trkpt>
        <trkpt lat="28.750834" lon="104.672043"><ele>540.6336</ele><time>2026-01-10T00:23:03.000Z</time></trkpt>
        <trkpt lat="28.750803" lon="104.672099"><ele>541.3333</ele><time>2026-01-10T00:23:08.000Z</time></trkpt>
        <trkpt lat="28.750785" lon="104.672146"><ele>540.1789</ele><time>2026-01-10T00:23:13.000Z</time></trkpt>
        <trkpt lat="28.750759" lon="104.672193"><ele>539.5625</ele><time>2026-01-10T00:23:17.000Z</time></trkpt>
        <trkpt lat="28.750718" lon="104.672241"><ele>538.2207</ele><time>2026-01-10T00:23:28.000Z</time></trkpt>
        <trkpt lat="28.750666" lon="104.67226"><ele>536.96466</ele><time>2026-01-10T00:23:43.000Z</time></trkpt>
        <trkpt lat="28.750631" lon="104.6723"><ele>536.3983</ele><time>2026-01-10T00:23:56.000Z</time></trkpt>
        <trkpt lat="28.750588" lon="104.672332"><ele>536.0216</ele><time>2026-01-10T00:24:05.000Z</time></trkpt>
        <trkpt lat="28.750548" lon="104.672369"><ele>535.4406</ele><time>2026-01-10T00:24:12.000Z</time></trkpt>
        <trkpt lat="28.750522" lon="104.672415"><ele>534.8935</ele><time>2026-01-10T00:24:18.000Z</time></trkpt>
        <trkpt lat="28.750471" lon="104.672442"><ele>534.40204</ele><time>2026-01-10T00:24:23.000Z</time></trkpt>
        <trkpt lat="28.750413" lon="104.672463"><ele>534.51685</ele><time>2026-01-10T00:24:28.000Z</time></trkpt>
        <trkpt lat="28.750368" lon="104.672479"><ele>534.8728</ele><time>2026-01-10T00:24:33.000Z</time></trkpt>
        <trkpt lat="28.750326" lon="104.672507"><ele>535.33405</ele><time>2026-01-10T00:24:38.000Z</time></trkpt>
        <trkpt lat="28.750284" lon="104.67254"><ele>535.88403</ele><time>2026-01-10T00:24:44.000Z</time></trkpt>
        <trkpt lat="28.750236" lon="104.67256"><ele>535.4756</ele><time>2026-01-10T00:24:50.000Z</time></trkpt>
        <trkpt lat="28.750188" lon="104.672559"><ele>533.79114</ele><time>2026-01-10T00:24:56.000Z</time></trkpt>
        <trkpt lat="28.750139" lon="104.672555"><ele>533.7416</ele><time>2026-01-10T00:25:04.000Z</time></trkpt>
        <trkpt lat="28.750088" lon="104.672551"><ele>533.04205</ele><time>2026-01-10T00:25:10.000Z</time></trkpt>
        <trkpt lat="28.750032" lon="104.67254"><ele>532.0016</ele><time>2026-01-10T00:25:20.000Z</time></trkpt>
        <trkpt lat="28.749982" lon="104.672524"><ele>530.56024</ele><time>2026-01-10T00:25:27.000Z</time></trkpt>
        <trkpt lat="28.74994" lon="104.672486"><ele>530.78687</ele><time>2026-01-10T00:25:32.000Z</time></trkpt>
        <trkpt lat="28.749892" lon="104.672472"><ele>531.6202</ele><time>2026-01-10T00:25:37.000Z</time></trkpt>
        <trkpt lat="28.749846" lon="104.672472"><ele>531.4063</ele><time>2026-01-10T00:25:42.000Z</time></trkpt>
        <trkpt lat="28.749799" lon="104.672474"><ele>532.1429</ele><time>2026-01-10T00:25:46.000Z</time></trkpt>
        <trkpt lat="28.749745" lon="104.672477"><ele>530.6818</ele><time>2026-01-10T00:25:52.000Z</time></trkpt>
        <trkpt lat="28.749703" lon="104.672495"><ele>530.14453</ele><time>2026-01-10T00:26:01.000Z</time></trkpt>
        <trkpt lat="28.749719" lon="104.672549"><ele>529.47534</ele><time>2026-01-10T00:26:09.000Z</time></trkpt>
        <trkpt lat="28.749759" lon="104.672582"><ele>528.5145</ele><time>2026-01-10T00:26:15.000Z</time></trkpt>
        <trkpt lat="28.749805" lon="104.672612"><ele>529.8387</ele><time>2026-01-10T00:26:22.000Z</time></trkpt>
        <trkpt lat="28.749849" lon="104.672638"><ele>529.272</ele><time>2026-01-10T00:26:28.000Z</time></trkpt>
        <trkpt lat="28.749891" lon="104.67267"><ele>528.41516</ele><time>2026-01-10T00:26:35.000Z</time></trkpt>
        <trkpt lat="28.749941" lon="104.6727"><ele>527.4677</ele><time>2026-01-10T00:26:41.000Z</time></trkpt>
        <trkpt lat="28.749981" lon="104.67274"><ele>526.83655</ele><time>2026-01-10T00:26:47.000Z</time></trkpt>
        <trkpt lat="28.750006" lon="104.672785"><ele>525.9987</ele><time>2026-01-10T00:26:59.000Z</time></trkpt>
        <trkpt lat="28.750015" lon="104.672843"><ele>525.0117</ele><time>2026-01-10T00:27:11.000Z</time></trkpt>
        <trkpt lat="28.750032" lon="104.672893"><ele>523.6802</ele><time>2026-01-10T00:27:21.000Z</time></trkpt>
        <trkpt lat="28.750022" lon="104.672951"><ele>522.60333</ele><time>2026-01-10T00:27:30.000Z</time></trkpt>
        <trkpt lat="28.750026" lon="104.673013"><ele>521.7813</ele><time>2026-01-10T00:27:35.000Z</time></trkpt>
        <trkpt lat="28.750055" lon="104.673059"><ele>519.21704</ele><time>2026-01-10T00:27:41.000Z</time></trkpt>
        <trkpt lat="28.750089" lon="104.673106"><ele>517.0985</ele><time>2026-01-10T00:27:47.000Z</time></trkpt>
        <trkpt lat="28.750123" lon="104.673144"><ele>513.53613</ele><time>2026-01-10T00:28:17.000Z</time></trkpt>
        <trkpt lat="28.750175" lon="104.673124"><ele>513.25854</ele><time>2026-01-10T00:28:24.000Z</time></trkpt>
        <trkpt lat="28.750215" lon="104.673097"><ele>513.8916</ele><time>2026-01-10T00:28:30.000Z</time></trkpt>
        <trkpt lat="28.750244" lon="104.673054"><ele>514.9304</ele><time>2026-01-10T00:28:41.000Z</time></trkpt>
        <trkpt lat="28.750287" lon="104.673016"><ele>515.7755</ele><time>2026-01-10T00:28:49.000Z</time></trkpt>
        <trkpt lat="28.750343" lon="104.673017"><ele>516.58246</ele><time>2026-01-10T00:28:58.000Z</time></trkpt>
        <trkpt lat="28.750373" lon="104.672974"><ele>517.186</ele><time>2026-01-10T00:29:05.000Z</time></trkpt>
        <trkpt lat="28.750408" lon="104.672937"><ele>517.33</ele><time>2026-01-10T00:29:12.000Z</time></trkpt>
        <trkpt lat="28.750445" lon="104.672906"><ele>519.02124</ele><time>2026-01-10T00:29:26.000Z</time></trkpt>
        <trkpt lat="28.750459" lon="104.672851"><ele>519.8374</ele><time>2026-01-10T00:29:35.000Z</time></trkpt>
        <trkpt lat="28.750509" lon="104.672834"><ele>520.0596</ele><time>2026-01-10T00:29:41.000Z</time></trkpt>
        <trkpt lat="28.750551" lon="104.672802"><ele>520.97046</ele><time>2026-01-10T00:29:52.000Z</time></trkpt>
        <trkpt lat="28.750596" lon="104.672788"><ele>521.75793</ele><time>2026-01-10T00:30:03.000Z</time></trkpt>
        <trkpt lat="28.75064" lon="104.672768"><ele>521.1807</ele><time>2026-01-10T00:30:09.000Z</time></trkpt>
        <trkpt lat="28.75069" lon="104.672741"><ele>520.38684</ele><time>2026-01-10T00:30:57.000Z</time></trkpt>
        <trkpt lat="28.750738" lon="104.67274"><ele>519.88336</ele><time>2026-01-10T00:31:07.000Z</time></trkpt>
        <trkpt lat="28.750786" lon="104.672723"><ele>520.3003</ele><time>2026-01-10T00:31:32.000Z</time></trkpt>
        <trkpt lat="28.750832" lon="104.672721"><ele>518.84564</ele><time>2026-01-10T00:31:38.000Z</time></trkpt>
        <trkpt lat="28.750881" lon="104.672707"><ele>517.94226</ele><time>2026-01-10T00:31:44.000Z</time></trkpt>
        <trkpt lat="28.750932" lon="104.672709"><ele>516.3139</ele><time>2026-01-10T00:31:50.000Z</time></trkpt>
        <trkpt lat="28.750976" lon="104.672694"><ele>516.0267</ele><time>2026-01-10T00:32:24.000Z</time></trkpt>
        <trkpt lat="28.75101" lon="104.672739"><ele>514.69763</ele><time>2026-01-10T00:32:29.000Z</time></trkpt>
        <trkpt lat="28.751033" lon="104.672783"><ele>512.68896</ele><time>2026-01-10T00:32:35.000Z</time></trkpt>
        <trkpt lat="28.751045" lon="104.672834"><ele>511.30984</ele><time>2026-01-10T00:32:43.000Z</time></trkpt>
        <trkpt lat="28.751086" lon="104.672872"><ele>509.71704</ele><time>2026-01-10T00:32:55.000Z</time></trkpt>
        <trkpt lat="28.751114" lon="104.672923"><ele>507.61652</ele><time>2026-01-10T00:33:01.000Z</time></trkpt>
        <trkpt lat="28.75112" lon="104.672977"><ele>506.0845</ele><time>2026-01-10T00:33:06.000Z</time></trkpt>
        <trkpt lat="28.751129" lon="104.673036"><ele>504.07047</ele><time>2026-01-10T00:33:12.000Z</time></trkpt>
        <trkpt lat="28.751146" lon="104.673086"><ele>501.9551</ele><time>2026-01-10T00:33:17.000Z</time></trkpt>
        <trkpt lat="28.751109" lon="104.673136"><ele>501.39072</ele><time>2026-01-10T00:33:29.000Z</time></trkpt>
        <trkpt lat="28.751153" lon="104.673161"><ele>499.81174</ele><time>2026-01-10T00:34:03.000Z</time></trkpt>
        <trkpt lat="28.751149" lon="104.673216"><ele>497.41052</ele><time>2026-01-10T00:34:16.000Z</time></trkpt>
        <trkpt lat="28.751145" lon="104.673269"><ele>496.35812</ele><time>2026-01-10T00:34:40.000Z</time></trkpt>
        <trkpt lat="28.75113" lon="104.673318"><ele>495.42136</ele><time>2026-01-10T00:34:45.000Z</time></trkpt>
        <trkpt lat="28.751126" lon="104.673374"><ele>494.33188</ele><time>2026-01-10T00:34:51.000Z</time></trkpt>
        <trkpt lat="28.751091" lon="104.673443"><ele>493.99286</ele><time>2026-01-10T00:34:58.000Z</time></trkpt>
        <trkpt lat="28.751051" lon="104.673473"><ele>494.97983</ele><time>2026-01-10T00:35:07.000Z</time></trkpt>
        <trkpt lat="28.751045" lon="104.673528"><ele>494.6728</ele><time>2026-01-10T00:35:16.000Z</time></trkpt>
        <trkpt lat="28.75102" lon="104.673578"><ele>494.36337</ele><time>2026-01-10T00:35:41.000Z</time></trkpt>
        <trkpt lat="28.751003" lon="104.673633"><ele>494.27866</ele><time>2026-01-10T00:36:00.000Z</time></trkpt>
        <trkpt lat="28.750971" lon="104.673676"><ele>492.00305</ele><time>2026-01-10T00:36:11.000Z</time></trkpt>
        <trkpt lat="28.750925" lon="104.67368"><ele>489.94968</ele><time>2026-01-10T00:36:22.000Z</time></trkpt>
        <trkpt lat="28.750938" lon="104.673736"><ele>489.8452</ele><time>2026-01-10T00:37:30.000Z</time></trkpt>
        <trkpt lat="28.750881" lon="104.673704"><ele>490.7162</ele><time>2026-01-10T00:38:34.000Z</time></trkpt>
        <trkpt lat="28.750907" lon="104.67375"><ele>489.52295</ele><time>2026-01-10T00:38:42.000Z</time></trkpt>
        <trkpt lat="28.750932" lon="104.673793"><ele>488.05017</ele><time>2026-01-10T00:38:47.000Z</time></trkpt>
        <trkpt lat="28.750953" lon="104.673841"><ele>487.14584</ele><time>2026-01-10T00:38:54.000Z</time></trkpt>
        <trkpt lat="28.750954" lon="104.673898"><ele>484.72992</ele><time>2026-01-10T00:39:06.000Z</time></trkpt>
        <trkpt lat="28.750973" lon="104.673948"><ele>482.41824</ele><time>2026-01-10T00:39:13.000Z</time></trkpt>
        <trkpt lat="28.751013" lon="104.673988"><ele>477.96915</ele><time>2026-01-10T00:39:32.000Z</time></trkpt>
        <trkpt lat="28.75103" lon="104.674038"><ele>478.10257</ele><time>2026-01-10T00:39:44.000Z</time></trkpt>
        <trkpt lat="28.751019" lon="104.674093"><ele>477.01862</ele><time>2026-01-10T00:40:54.000Z</time></trkpt>
        <trkpt lat="28.751068" lon="104.674117"><ele>475.10242</ele><time>2026-01-10T00:41:02.000Z</time></trkpt>
        <trkpt lat="28.751083" lon="104.674168"><ele>472.91885</ele><time>2026-01-10T00:41:23.000Z</time></trkpt>
        <trkpt lat="28.751098" lon="104.674217"><ele>470.07602</ele><time>2026-01-10T00:42:24.000Z</time></trkpt>
        <trkpt lat="28.751086" lon="104.674267"><ele>469.29904</ele><time>2026-01-10T00:42:31.000Z</time></trkpt>
        <trkpt lat="28.751069" lon="104.674326"><ele>468.35068</ele><time>2026-01-10T00:42:39.000Z</time></trkpt>
        <trkpt lat="28.751109" lon="104.67435"><ele>470.33398</ele><time>2026-01-10T00:43:40.000Z</time></trkpt>
        <trkpt lat="28.751089" lon="104.674397"><ele>467.75452</ele><time>2026-01-10T00:43:53.000Z</time></trkpt>
        <trkpt lat="28.75107" lon="104.674447"><ele>467.4515</ele><time>2026-01-10T00:44:34.000Z</time></trkpt>
        <trkpt lat="28.751122" lon="104.674464"><ele>471.5495</ele><time>2026-01-10T00:45:04.000Z</time></trkpt>
        <trkpt lat="28.751174" lon="104.674449"><ele>468.72754</ele><time>2026-01-10T00:45:09.000Z</time></trkpt>
        <trkpt lat="28.751211" lon="104.674416"><ele>465.86096</ele><time>2026-01-10T00:45:19.000Z</time></trkpt>
        <trkpt lat="28.751232" lon="104.674369"><ele>457.64243</ele><time>2026-01-10T00:45:34.000Z</time></trkpt>
        <trkpt lat="28.751266" lon="104.674323"><ele>456.99347</ele><time>2026-01-10T00:45:40.000Z</time></trkpt>
        <trkpt lat="28.751285" lon="104.674275"><ele>455.60583</ele><time>2026-01-10T00:46:21.000Z</time></trkpt>
        <trkpt lat="28.751331" lon="104.674265"><ele>454.32465</ele><time>2026-01-10T00:46:46.000Z</time></trkpt>
        <trkpt lat="28.751364" lon="104.674224"><ele>452.152</ele><time>2026-01-10T00:46:55.000Z</time></trkpt>
        <trkpt lat="28.751388" lon="104.674175"><ele>451.02734</ele><time>2026-01-10T00:47:00.000Z</time></trkpt>
        <trkpt lat="28.751402" lon="104.674119"><ele>451.72916</ele><time>2026-01-10T00:47:30.000Z</time></trkpt>
        <trkpt lat="28.751446" lon="104.674091"><ele>452.85196</ele><time>2026-01-10T00:47:39.000Z</time></trkpt>
        <trkpt lat="28.751491" lon="104.674093"><ele>451.4235</ele><time>2026-01-10T00:48:04.000Z</time></trkpt>
        <trkpt lat="28.751537" lon="104.674086"><ele>448.78894</ele><time>2026-01-10T00:48:15.000Z</time></trkpt>
        <trkpt lat="28.751585" lon="104.674078"><ele>448.87656</ele><time>2026-01-10T00:48:23.000Z</time></trkpt>
        <trkpt lat="28.751635" lon="104.674057"><ele>445.92307</ele><time>2026-01-10T00:48:31.000Z</time></trkpt>
        <trkpt lat="28.751681" lon="104.674036"><ele>440.84573</ele><time>2026-01-10T00:48:59.000Z</time></trkpt>
        <trkpt lat="28.751726" lon="104.674024"><ele>439.53763</ele><time>2026-01-10T00:49:07.000Z</time></trkpt>
        <trkpt lat="28.751759" lon="104.673988"><ele>438.91553</ele><time>2026-01-10T00:49:13.000Z</time></trkpt>
        <trkpt lat="28.751807" lon="104.673997"><ele>439.9827</ele><time>2026-01-10T00:49:27.000Z</time></trkpt>
        <trkpt lat="28.751796" lon="104.674047"><ele>437.642</ele><time>2026-01-10T00:50:25.000Z</time></trkpt>
        <trkpt lat="28.751783" lon="104.674097"><ele>436.07916</ele><time>2026-01-10T00:50:35.000Z</time></trkpt>
        <trkpt lat="28.751766" lon="104.67415"><ele>436.1942</ele><time>2026-01-10T00:50:44.000Z</time></trkpt>
        <trkpt lat="28.751784" lon="104.674091"><ele>435.70367</ele><time>2026-01-10T00:51:14.000Z</time></trkpt>
        <trkpt lat="28.751825" lon="104.674063"><ele>434.86484</ele><time>2026-01-10T00:51:26.000Z</time></trkpt>
        <trkpt lat="28.751869" lon="104.674017"><ele>434.0091</ele><time>2026-01-10T00:51:32.000Z</time></trkpt>
        <trkpt lat="28.751898" lon="104.673973"><ele>432.86395</ele><time>2026-01-10T00:51:41.000Z</time></trkpt>
        <trkpt lat="28.751942" lon="104.673963"><ele>432.8126</ele><time>2026-01-10T00:51:55.000Z</time></trkpt>
        <trkpt lat="28.751954" lon="104.673905"><ele>432.61792</ele><time>2026-01-10T00:52:06.000Z</time></trkpt>
        <trkpt lat="28.751977" lon="104.673859"><ele>433.3575</ele><time>2026-01-10T00:52:11.000Z</time></trkpt>
        <trkpt lat="28.752027" lon="104.673856"><ele>433.3079</ele><time>2026-01-10T00:52:15.000Z</time></trkpt>
        <trkpt lat="28.752075" lon="104.673894"><ele>433.4518</ele><time>2026-01-10T00:52:19.000Z</time></trkpt>
        <trkpt lat="28.752127" lon="104.673908"><ele>431.9647</ele><time>2026-01-10T00:52:23.000Z</time></trkpt>
        <trkpt lat="28.752169" lon="104.673933"><ele>433.93082</ele><time>2026-01-10T00:52:27.000Z</time></trkpt>
        <trkpt lat="28.7522" lon="104.673972"><ele>435.6041</ele><time>2026-01-10T00:52:31.000Z</time></trkpt>
        <trkpt lat="28.75224" lon="104.674002"><ele>438.5262</ele><time>2026-01-10T00:52:35.000Z</time></trkpt>
        <trkpt lat="28.752256" lon="104.674053"><ele>439.1243</ele><time>2026-01-10T00:52:40.000Z</time></trkpt>
        <trkpt lat="28.75224" lon="104.674109"><ele>441.56842</ele><time>2026-01-10T00:52:55.000Z</time></trkpt>
        <trkpt lat="28.752201" lon="104.674152"><ele>443.17105</ele><time>2026-01-10T00:53:01.000Z</time></trkpt>
        <trkpt lat="28.752173" lon="104.674198"><ele>442.68427</ele><time>2026-01-10T00:53:07.000Z</time></trkpt>
        <trkpt lat="28.75218" lon="104.674255"><ele>441.74554</ele><time>2026-01-10T00:53:12.000Z</time></trkpt>
        <trkpt lat="28.752184" lon="104.674309"><ele>439.3319</ele><time>2026-01-10T00:53:17.000Z</time></trkpt>
        <trkpt lat="28.752196" lon="104.674363"><ele>439.57428</ele><time>2026-01-10T00:53:22.000Z</time></trkpt>
        <trkpt lat="28.752232" lon="104.67433"><ele>436.51212</ele><time>2026-01-10T00:53:41.000Z</time></trkpt>
        <trkpt lat="28.752273" lon="104.674301"><ele>435.44742</ele><time>2026-01-10T00:53:54.000Z</time></trkpt>
        <trkpt lat="28.752306" lon="104.674251"><ele>431.8323</ele><time>2026-01-10T00:54:02.000Z</time></trkpt>
        <trkpt lat="28.752314" lon="104.674196"><ele>423.35382</ele><time>2026-01-10T00:54:36.000Z</time></trkpt>
        <trkpt lat="28.752351" lon="104.674159"><ele>419.06454</ele><time>2026-01-10T00:54:49.000Z</time></trkpt>
        <trkpt lat="28.752366" lon="104.674106"><ele>419.1131</ele><time>2026-01-10T00:54:55.000Z</time></trkpt>
        <trkpt lat="28.752392" lon="104.674057"><ele>420.932</ele><time>2026-01-10T00:55:04.000Z</time></trkpt>
        <trkpt lat="28.752401" lon="104.674006"><ele>413.564</ele><time>2026-01-10T00:55:11.000Z</time></trkpt>
        <trkpt lat="28.752412" lon="104.673952"><ele>409.86548</ele><time>2026-01-10T00:55:17.000Z</time></trkpt>
        <trkpt lat="28.752428" lon="104.673899"><ele>408.76492</ele><time>2026-01-10T00:55:22.000Z</time></trkpt>
        <trkpt lat="28.75245" lon="104.673848"><ele>408.06415</ele><time>2026-01-10T00:55:27.000Z</time></trkpt>
        <trkpt lat="28.752461" lon="104.673788"><ele>408.0581</ele><time>2026-01-10T00:55:33.000Z</time></trkpt>
        <trkpt lat="28.752453" lon="104.673735"><ele>409.06427</ele><time>2026-01-10T00:55:38.000Z</time></trkpt>
        <trkpt lat="28.752429" lon="104.673684"><ele>412.37656</ele><time>2026-01-10T00:56:07.000Z</time></trkpt>
        <trkpt lat="28.752394" lon="104.67364"><ele>414.82095</ele><time>2026-01-10T00:56:14.000Z</time></trkpt>
        <trkpt lat="28.75237" lon="104.673588"><ele>416.73224</ele><time>2026-01-10T00:56:19.000Z</time></trkpt>
        <trkpt lat="28.752352" lon="104.673528"><ele>419.11908</ele><time>2026-01-10T00:56:25.000Z</time></trkpt>
        <trkpt lat="28.752375" lon="104.673477"><ele>420.70032</ele><time>2026-01-10T00:56:30.000Z</time></trkpt>
        <trkpt lat="28.752394" lon="104.673422"><ele>421.72034</ele><time>2026-01-10T00:56:35.000Z</time></trkpt>
        <trkpt lat="28.752417" lon="104.673377"><ele>422.22787</ele><time>2026-01-10T00:56:40.000Z</time></trkpt>
        <trkpt lat="28.752424" lon="104.673314"><ele>423.09555</ele><time>2026-01-10T00:56:45.000Z</time></trkpt>
        <trkpt lat="28.752435" lon="104.673255"><ele>424.5382</ele><time>2026-01-10T00:56:49.000Z</time></trkpt>
        <trkpt lat="28.752464" lon="104.673204"><ele>426.43707</ele><time>2026-01-10T00:56:55.000Z</time></trkpt>
        <trkpt lat="28.752504" lon="104.673166"><ele>427.5045</ele><time>2026-01-10T00:56:59.000Z</time></trkpt>
        <trkpt lat="28.752549" lon="104.673154"><ele>429.10965</ele><time>2026-01-10T00:57:03.000Z</time></trkpt>
        <trkpt lat="28.752592" lon="104.673177"><ele>428.42062</ele><time>2026-01-10T00:57:43.000Z</time></trkpt>
        <trkpt lat="28.752637" lon="104.673202"><ele>427.6199</ele><time>2026-01-10T00:58:00.000Z</time></trkpt>
        <trkpt lat="28.752672" lon="104.67324"><ele>424.0748</ele><time>2026-01-10T00:58:19.000Z</time></trkpt>
        <trkpt lat="28.75266" lon="104.673295"><ele>423.67166</ele><time>2026-01-10T00:59:36.000Z</time></trkpt>
        <trkpt lat="28.752658" lon="104.673351"><ele>421.49835</ele><time>2026-01-10T00:59:59.000Z</time></trkpt>
        <trkpt lat="28.752674" lon="104.673302"><ele>420.613</ele><time>2026-01-10T01:00:10.000Z</time></trkpt>
        <trkpt lat="28.752651" lon="104.673256"><ele>424.3572</ele><time>2026-01-10T01:00:42.000Z</time></trkpt>
        <trkpt lat="28.752615" lon="104.673289"><ele>424.0713</ele><time>2026-01-10T01:01:07.000Z</time></trkpt>
        <trkpt lat="28.752648" lon="104.673328"><ele>421.5846</ele><time>2026-01-10T01:01:32.000Z</time></trkpt>
        <trkpt lat="28.752613" lon="104.673366"><ele>420.23236</ele><time>2026-01-10T01:02:18.000Z</time></trkpt>
        <trkpt lat="28.752628" lon="104.673418"><ele>417.21585</ele><time>2026-01-10T01:02:31.000Z</time></trkpt>
        <trkpt lat="28.752621" lon="104.673476"><ele>411.29855</ele><time>2026-01-10T01:02:49.000Z</time></trkpt>
        <trkpt lat="28.752621" lon="104.67353"><ele>401.86627</ele><time>2026-01-10T01:03:02.000Z</time></trkpt>
        <trkpt lat="28.752637" lon="104.673587"><ele>385.40308</ele><time>2026-01-10T01:04:21.000Z</time></trkpt>
        <trkpt lat="28.752673" lon="104.673632"><ele>381.96204</ele><time>2026-01-10T01:04:33.000Z</time></trkpt>
        <trkpt lat="28.75266" lon="104.673684"><ele>379.9894</ele><time>2026-01-10T01:04:52.000Z</time></trkpt>
        <trkpt lat="28.752681" lon="104.673732"><ele>377.29886</ele><time>2026-01-10T01:05:07.000Z</time></trkpt>
        <trkpt lat="28.752709" lon="104.673773"><ele>372.44946</ele><time>2026-01-10T01:05:23.000Z</time></trkpt>
        <trkpt lat="28.752739" lon="104.673817"><ele>370.91675</ele><time>2026-01-10T01:05:44.000Z</time></trkpt>
        <trkpt lat="28.752762" lon="104.673865"><ele>368.35687</ele><time>2026-01-10T01:06:15.000Z</time></trkpt>
        <trkpt lat="28.752787" lon="104.673917"><ele>366.37726</ele><time>2026-01-10T01:06:22.000Z</time></trkpt>
        <trkpt lat="28.752792" lon="104.673971"><ele>362.56</ele><time>2026-01-10T01:06:28.000Z</time></trkpt>
        <trkpt lat="28.7528" lon="104.674037"><ele>359.34277</ele><time>2026-01-10T01:06:33.000Z</time></trkpt>
        <trkpt lat="28.75282" lon="104.674087"><ele>360.22116</ele><time>2026-01-10T01:06:37.000Z</time></trkpt>
        <trkpt lat="28.752823" lon="104.674143"><ele>358.62405</ele><time>2026-01-10T01:06:43.000Z</time></trkpt>
        <trkpt lat="28.752865" lon="104.674185"><ele>361.70102</ele><time>2026-01-10T01:06:52.000Z</time></trkpt>
        <trkpt lat="28.75287" lon="104.674237"><ele>357.8812</ele><time>2026-01-10T01:07:15.000Z</time></trkpt>
        <trkpt lat="28.752895" lon="104.674281"><ele>356.49347</ele><time>2026-01-10T01:07:22.000Z</time></trkpt>
        <trkpt lat="28.752927" lon="104.674323"><ele>366.13086</ele><time>2026-01-10T01:08:59.000Z</time></trkpt>
        <trkpt lat="28.752973" lon="104.674349"><ele>362.1802</ele><time>2026-01-10T01:09:11.000Z</time></trkpt>
        <trkpt lat="28.753017" lon="104.674364"><ele>362.43686</ele><time>2026-01-10T01:09:29.000Z</time></trkpt>
        <trkpt lat="28.753069" lon="104.674385"><ele>360.3335</ele><time>2026-01-10T01:09:43.000Z</time></trkpt>
        <trkpt lat="28.753106" lon="104.674417"><ele>358.62048</ele><time>2026-01-10T01:09:52.000Z</time></trkpt>
        <trkpt lat="28.753126" lon="104.674464"><ele>357.8596</ele><time>2026-01-10T01:10:06.000Z</time></trkpt>
        <trkpt lat="28.753117" lon="104.674515"><ele>356.91122</ele><time>2026-01-10T01:10:12.000Z</time></trkpt>
        <trkpt lat="28.753118" lon="104.674568"><ele>353.9399</ele><time>2026-01-10T01:10:24.000Z</time></trkpt>
        <trkpt lat="28.753134" lon="104.67462"><ele>351.47366</ele><time>2026-01-10T01:10:34.000Z</time></trkpt>
        <trkpt lat="28.753127" lon="104.674674"><ele>350.879</ele><time>2026-01-10T01:12:06.000Z</time></trkpt>
        <trkpt lat="28.753159" lon="104.674718"><ele>347.0266</ele><time>2026-01-10T01:15:12.000Z</time></trkpt>
        <trkpt lat="28.75318" lon="104.674764"><ele>343.0197</ele><time>2026-01-10T01:15:35.000Z</time></trkpt>
        <trkpt lat="28.753232" lon="104.674769"><ele>343.0555</ele><time>2026-01-10T01:15:50.000Z</time></trkpt>
        <trkpt lat="28.753278" lon="104.674772"><ele>343.41766</ele><time>2026-01-10T01:16:03.000Z</time></trkpt>
        <trkpt lat="28.753319" lon="104.674738"><ele>343.09283</ele><time>2026-01-10T01:16:27.000Z</time></trkpt>
        <trkpt lat="28.75336" lon="104.674707"><ele>342.8351</ele><time>2026-01-10T01:16:33.000Z</time></trkpt>
        <trkpt lat="28.753416" lon="104.674731"><ele>343.02466</ele><time>2026-01-10T01:16:39.000Z</time></trkpt>
        <trkpt lat="28.753456" lon="104.674704"><ele>343.94232</ele><time>2026-01-10T01:17:12.000Z</time></trkpt>
        <trkpt lat="28.75348" lon="104.674751"><ele>343.772</ele><time>2026-01-10T01:17:26.000Z</time></trkpt>
        <trkpt lat="28.753512" lon="104.674792"><ele>338.7376</ele><time>2026-01-10T01:17:48.000Z</time></trkpt>
        <trkpt lat="28.753494" lon="104.674745"><ele>339.6864</ele><time>2026-01-10T01:18:37.000Z</time></trkpt>
        <trkpt lat="28.753509" lon="104.674695"><ele>340.81293</ele><time>2026-01-10T01:19:11.000Z</time></trkpt>
        <trkpt lat="28.753521" lon="104.674644"><ele>339.21188</ele><time>2026-01-10T01:19:16.000Z</time></trkpt>
        <trkpt lat="28.753556" lon="104.674598"><ele>344.01923</ele><time>2026-01-10T01:19:21.000Z</time></trkpt>
        <trkpt lat="28.753609" lon="104.67461"><ele>345.7279</ele><time>2026-01-10T01:19:27.000Z</time></trkpt>
        <trkpt lat="28.753652" lon="104.674631"><ele>346.49734</ele><time>2026-01-10T01:19:32.000Z</time></trkpt>
        <trkpt lat="28.753701" lon="104.674641"><ele>345.7522</ele><time>2026-01-10T01:19:42.000Z</time></trkpt>
        <trkpt lat="28.753747" lon="104.67467"><ele>344.4346</ele><time>2026-01-10T01:19:50.000Z</time></trkpt>
        <trkpt lat="28.753782" lon="104.674705"><ele>344.54144</ele><time>2026-01-10T01:19:55.000Z</time></trkpt>
        <trkpt lat="28.753825" lon="104.674738"><ele>343.03326</ele><time>2026-01-10T01:20:00.000Z</time></trkpt>
        <trkpt lat="28.753878" lon="104.674729"><ele>341.24106</ele><time>2026-01-10T01:20:06.000Z</time></trkpt>
        <trkpt lat="28.753932" lon="104.674745"><ele>340.68472</ele><time>2026-01-10T01:20:11.000Z</time></trkpt>
        <trkpt lat="28.753975" lon="104.674774"><ele>339.2149</ele><time>2026-01-10T01:20:15.000Z</time></trkpt>
        <trkpt lat="28.754007" lon="104.674814"><ele>337.68185</ele><time>2026-01-10T01:20:21.000Z</time></trkpt>
        <trkpt lat="28.754047" lon="104.674845"><ele>336.06607</ele><time>2026-01-10T01:20:33.000Z</time></trkpt>
        <trkpt lat="28.754091" lon="104.674832"><ele>335.9469</ele><time>2026-01-10T01:20:52.000Z</time></trkpt>
        <trkpt lat="28.754131" lon="104.674862"><ele>334.25064</ele><time>2026-01-10T01:21:08.000Z</time></trkpt>
        <trkpt lat="28.754175" lon="104.674875"><ele>332.4083</ele><time>2026-01-10T01:21:42.000Z</time></trkpt>
        <trkpt lat="28.754181" lon="104.674823"><ele>332.21518</ele><time>2026-01-10T01:21:45.000Z</time></trkpt>
        <trkpt lat="28.754205" lon="104.674765"><ele>334.3374</ele><time>2026-01-10T01:21:50.000Z</time></trkpt>
        <trkpt lat="28.75425" lon="104.674754"><ele>336.96146</ele><time>2026-01-10T01:21:56.000Z</time></trkpt>
        <trkpt lat="28.754271" lon="104.674803"><ele>337.05853</ele><time>2026-01-10T01:22:06.000Z</time></trkpt>
        <trkpt lat="28.754244" lon="104.674854"><ele>334.97733</ele><time>2026-01-10T01:22:12.000Z</time></trkpt>
        <trkpt lat="28.75423" lon="104.674912"><ele>332.61685</ele><time>2026-01-10T01:22:23.000Z</time></trkpt>
        <trkpt lat="28.754218" lon="104.674961"><ele>329.60797</ele><time>2026-01-10T01:23:12.000Z</time></trkpt>
        <trkpt lat="28.754209" lon="104.675023"><ele>327.6171</ele><time>2026-01-10T01:23:16.000Z</time></trkpt>
        <trkpt lat="28.754202" lon="104.675078"><ele>324.72046</ele><time>2026-01-10T01:23:22.000Z</time></trkpt>
        <trkpt lat="28.754198" lon="104.67513"><ele>324.5081</ele><time>2026-01-10T01:23:29.000Z</time></trkpt>
        <trkpt lat="28.754157" lon="104.675161"><ele>324.79074</ele><time>2026-01-10T01:23:40.000Z</time></trkpt>
        <trkpt lat="28.754103" lon="104.67517"><ele>325.65503</ele><time>2026-01-10T01:23:45.000Z</time></trkpt>
        <trkpt lat="28.754061" lon="104.675202"><ele>324.429</ele><time>2026-01-10T01:23:48.000Z</time></trkpt>
        <trkpt lat="28.75405" lon="104.675254"><ele>319.91226</ele><time>2026-01-10T01:23:50.000Z</time></trkpt>
        <trkpt lat="28.754078" lon="104.675301"><ele>314.20398</ele><time>2026-01-10T01:23:53.000Z</time></trkpt>
        <trkpt lat="28.754122" lon="104.675314"><ele>311.6578</ele><time>2026-01-10T01:23:57.000Z</time></trkpt>
        <trkpt lat="28.754172" lon="104.675291"><ele>310.29163</ele><time>2026-01-10T01:24:03.000Z</time></trkpt>
        <trkpt lat="28.754218" lon="104.675272"><ele>309.55597</ele><time>2026-01-10T01:24:09.000Z</time></trkpt>
        <trkpt lat="28.754267" lon="104.675255"><ele>310.06113</ele><time>2026-01-10T01:24:14.000Z</time></trkpt>
        <trkpt lat="28.754322" lon="104.67528"><ele>310.91132</ele><time>2026-01-10T01:24:19.000Z</time></trkpt>
        <trkpt lat="28.754348" lon="104.675331"><ele>311.20407</ele><time>2026-01-10T01:24:23.000Z</time></trkpt>
        <trkpt lat="28.754322" lon="104.675373"><ele>311.13074</ele><time>2026-01-10T01:24:36.000Z</time></trkpt>
        <trkpt lat="28.754363" lon="104.675405"><ele>310.0622</ele><time>2026-01-10T01:25:10.000Z</time></trkpt>
        <trkpt lat="28.754397" lon="104.675439"><ele>310.24088</ele><time>2026-01-10T01:25:20.000Z</time></trkpt>
        <trkpt lat="28.754428" lon="104.675486"><ele>307.9015</ele><time>2026-01-10T01:25:59.000Z</time></trkpt>
        <trkpt lat="28.75447" lon="104.675511"><ele>307.87827</ele><time>2026-01-10T01:26:05.000Z</time></trkpt>
        <trkpt lat="28.75443" lon="104.675482"><ele>308.53726</ele><time>2026-01-10T01:26:33.000Z</time></trkpt>
        <trkpt lat="28.754387" lon="104.675456"><ele>307.92133</ele><time>2026-01-10T01:26:42.000Z</time></trkpt>
        <trkpt lat="28.754363" lon="104.675402"><ele>308.32315</ele><time>2026-01-10T01:27:02.000Z</time></trkpt>
        <trkpt lat="28.754309" lon="104.675384"><ele>309.32407</ele><time>2026-01-10T01:27:07.000Z</time></trkpt>
        <trkpt lat="28.754267" lon="104.675414"><ele>307.47903</ele><time>2026-01-10T01:27:12.000Z</time></trkpt>
        <trkpt lat="28.754229" lon="104.675448"><ele>307.329</ele><time>2026-01-10T01:27:15.000Z</time></trkpt>
        <trkpt lat="28.754227" lon="104.6755"><ele>306.10373</ele><time>2026-01-10T01:27:17.000Z</time></trkpt>
        <trkpt lat="28.754242" lon="104.675554"><ele>305.13696</ele><time>2026-01-10T01:27:20.000Z</time></trkpt>
        <trkpt lat="28.754289" lon="104.675591"><ele>302.48166</ele><time>2026-01-10T01:27:24.000Z</time></trkpt>
        <trkpt lat="28.754326" lon="104.675622"><ele>301.21173</ele><time>2026-01-10T01:27:28.000Z</time></trkpt>
        <trkpt lat="28.754372" lon="104.675652"><ele>301.3132</ele><time>2026-01-10T01:27:34.000Z</time></trkpt>
        <trkpt lat="28.754418" lon="104.67566"><ele>302.64505</ele><time>2026-01-10T01:27:46.000Z</time></trkpt>
        <trkpt lat="28.754467" lon="104.675667"><ele>303.92383</ele><time>2026-01-10T01:27:56.000Z</time></trkpt>
        <trkpt lat="28.754517" lon="104.675663"><ele>303.2867</ele><time>2026-01-10T01:28:02.000Z</time></trkpt>
        <trkpt lat="28.754566" lon="104.675676"><ele>303.53445</ele><time>2026-01-10T01:28:10.000Z</time></trkpt>
        <trkpt lat="28.754612" lon="104.675669"><ele>304.20868</ele><time>2026-01-10T01:28:18.000Z</time></trkpt>
        <trkpt lat="28.754658" lon="104.675658"><ele>304.65387</ele><time>2026-01-10T01:28:24.000Z</time></trkpt>
        <trkpt lat="28.754706" lon="104.67566"><ele>304.85104</ele><time>2026-01-10T01:28:28.000Z</time></trkpt>
        <trkpt lat="28.754753" lon="104.675658"><ele>304.8956</ele><time>2026-01-10T01:28:32.000Z</time></trkpt>
        <trkpt lat="28.754806" lon="104.675666"><ele>305.95312</ele><time>2026-01-10T01:28:38.000Z</time></trkpt>
        <trkpt lat="28.754856" lon="104.675686"><ele>305.8462</ele><time>2026-01-10T01:28:53.000Z</time></trkpt>
        <trkpt lat="28.754899" lon="104.675707"><ele>305.14517</ele><time>2026-01-10T01:28:59.000Z</time></trkpt>
        <trkpt lat="28.754949" lon="104.67572"><ele>305.51105</ele><time>2026-01-10T01:29:05.000Z</time></trkpt>
        <trkpt lat="28.754994" lon="104.675729"><ele>304.5522</ele><time>2026-01-10T01:29:12.000Z</time></trkpt>
        <trkpt lat="28.755041" lon="104.67574"><ele>304.8484</ele><time>2026-01-10T01:29:20.000Z</time></trkpt>
        <trkpt lat="28.755078" lon="104.675779"><ele>304.24442</ele><time>2026-01-10T01:29:31.000Z</time></trkpt>
        <trkpt lat="28.75512" lon="104.67581"><ele>304.07788</ele><time>2026-01-10T01:29:38.000Z</time></trkpt>
        <trkpt lat="28.755159" lon="104.675844"><ele>304.01453</ele><time>2026-01-10T01:29:43.000Z</time></trkpt>
        <trkpt lat="28.755196" lon="104.675881"><ele>302.99692</ele><time>2026-01-10T01:29:49.000Z</time></trkpt>
        <trkpt lat="28.75524" lon="104.675898"><ele>302.3131</ele><time>2026-01-10T01:29:54.000Z</time></trkpt>
        <trkpt lat="28.755282" lon="104.675927"><ele>300.6991</ele><time>2026-01-10T01:30:00.000Z</time></trkpt>
        <trkpt lat="28.755331" lon="104.675946"><ele>300.6018</ele><time>2026-01-10T01:30:07.000Z</time></trkpt>
        <trkpt lat="28.755376" lon="104.675952"><ele>300.85092</ele><time>2026-01-10T01:30:12.000Z</time></trkpt>
        <trkpt lat="28.755426" lon="104.675956"><ele>301.17737</ele><time>2026-01-10T01:30:19.000Z</time></trkpt>
        <trkpt lat="28.755472" lon="104.675977"><ele>301.06335</ele><time>2026-01-10T01:30:25.000Z</time></trkpt>
        <trkpt lat="28.75552" lon="104.675964"><ele>300.36838</ele><time>2026-01-10T01:30:32.000Z</time></trkpt>
        <trkpt lat="28.755575" lon="104.675969"><ele>301.8848</ele><time>2026-01-10T01:30:42.000Z</time></trkpt>
        <trkpt lat="28.755618" lon="104.675986"><ele>301.90088</ele><time>2026-01-10T01:30:47.000Z</time></trkpt>
        <trkpt lat="28.755667" lon="104.675989"><ele>302.06247</ele><time>2026-01-10T01:30:52.000Z</time></trkpt>
        <trkpt lat="28.755713" lon="104.675983"><ele>302.114</ele><time>2026-01-10T01:30:58.000Z</time></trkpt>
        <trkpt lat="28.755772" lon="104.675983"><ele>302.83905</ele><time>2026-01-10T01:31:03.000Z</time></trkpt>
        <trkpt lat="28.755826" lon="104.675978"><ele>302.64462</ele><time>2026-01-10T01:31:08.000Z</time></trkpt>
        <trkpt lat="28.755873" lon="104.675984"><ele>303.61786</ele><time>2026-01-10T01:31:14.000Z</time></trkpt>
        <trkpt lat="28.755926" lon="104.676004"><ele>303.39124</ele><time>2026-01-10T01:31:19.000Z</time></trkpt>
        <trkpt lat="28.755981" lon="104.676013"><ele>303.9454</ele><time>2026-01-10T01:31:25.000Z</time></trkpt>
        <trkpt lat="28.756028" lon="104.676012"><ele>304.55392</ele><time>2026-01-10T01:31:30.000Z</time></trkpt>
        <trkpt lat="28.756077" lon="104.676023"><ele>303.13644</ele><time>2026-01-10T01:31:36.000Z</time></trkpt>
        <trkpt lat="28.756125" lon="104.676036"><ele>303.30154</ele><time>2026-01-10T01:31:40.000Z</time></trkpt>
        <trkpt lat="28.756173" lon="104.676055"><ele>302.6519</ele><time>2026-01-10T01:31:52.000Z</time></trkpt>
        <trkpt lat="28.756219" lon="104.676073"><ele>301.97467</ele><time>2026-01-10T01:31:57.000Z</time></trkpt>
        <trkpt lat="28.756259" lon="104.676105"><ele>299.90793</ele><time>2026-01-10T01:32:06.000Z</time></trkpt>
        <trkpt lat="28.756317" lon="104.676121"><ele>298.1588</ele><time>2026-01-10T01:32:13.000Z</time></trkpt>
        <trkpt lat="28.756364" lon="104.67612"><ele>298.41232</ele><time>2026-01-10T01:32:17.000Z</time></trkpt>
        <trkpt lat="28.756413" lon="104.676118"><ele>298.8246</ele><time>2026-01-10T01:32:22.000Z</time></trkpt>
        <trkpt lat="28.756465" lon="104.676105"><ele>299.99176</ele><time>2026-01-10T01:32:29.000Z</time></trkpt>
        <trkpt lat="28.756512" lon="104.676104"><ele>301.68387</ele><time>2026-01-10T01:32:39.000Z</time></trkpt>
        <trkpt lat="28.756562" lon="104.676077"><ele>300.94733</ele><time>2026-01-10T01:32:44.000Z</time></trkpt>
        <trkpt lat="28.756607" lon="104.676053"><ele>302.75858</ele><time>2026-01-10T01:32:49.000Z</time></trkpt>
        <trkpt lat="28.756646" lon="104.676021"><ele>304.4455</ele><time>2026-01-10T01:32:54.000Z</time></trkpt>
        <trkpt lat="28.756675" lon="104.675964"><ele>309.50662</ele><time>2026-01-10T01:33:14.000Z</time></trkpt>
        <trkpt lat="28.756722" lon="104.675942"><ele>310.8544</ele><time>2026-01-10T01:33:22.000Z</time></trkpt>
        <trkpt lat="28.756772" lon="104.675933"><ele>311.4748</ele><time>2026-01-10T01:33:28.000Z</time></trkpt>
        <trkpt lat="28.756817" lon="104.675935"><ele>311.7969</ele><time>2026-01-10T01:33:37.000Z</time></trkpt>
        <trkpt lat="28.75687" lon="104.675931"><ele>313.10806</ele><time>2026-01-10T01:33:43.000Z</time></trkpt>
        <trkpt lat="28.756918" lon="104.675923"><ele>312.5911</ele><time>2026-01-10T01:33:48.000Z</time></trkpt>
        <trkpt lat="28.756965" lon="104.675921"><ele>313.2923</ele><time>2026-01-10T01:33:52.000Z</time></trkpt>
        <trkpt lat="28.757011" lon="104.675938"><ele>312.04398</ele><time>2026-01-10T01:33:55.000Z</time></trkpt>
        <trkpt lat="28.757043" lon="104.675976"><ele>311.7866</ele><time>2026-01-10T01:33:58.000Z</time></trkpt>
        <trkpt lat="28.757093" lon="104.676"><ele>311.0368</ele><time>2026-01-10T01:34:02.000Z</time></trkpt>
        <trkpt lat="28.757138" lon="104.676019"><ele>310.65024</ele><time>2026-01-10T01:34:07.000Z</time></trkpt>
        <trkpt lat="28.757186" lon="104.676038"><ele>310.44742</ele><time>2026-01-10T01:34:12.000Z</time></trkpt>
        <trkpt lat="28.757238" lon="104.676048"><ele>308.82248</ele><time>2026-01-10T01:34:18.000Z</time></trkpt>
        <trkpt lat="28.757282" lon="104.67606"><ele>307.4938</ele><time>2026-01-10T01:34:22.000Z</time></trkpt>
        <trkpt lat="28.757333" lon="104.676081"><ele>307.30887</ele><time>2026-01-10T01:34:28.000Z</time></trkpt>
        <trkpt lat="28.757376" lon="104.676099"><ele>306.33936</ele><time>2026-01-10T01:34:33.000Z</time></trkpt>
        <trkpt lat="28.757422" lon="104.676118"><ele>304.5212</ele><time>2026-01-10T01:34:38.000Z</time></trkpt>
        <trkpt lat="28.75747" lon="104.676128"><ele>303.4416</ele><time>2026-01-10T01:34:45.000Z</time></trkpt>
        <trkpt lat="28.757525" lon="104.676122"><ele>303.184</ele><time>2026-01-10T01:34:54.000Z</time></trkpt>
        <trkpt lat="28.757582" lon="104.676113"><ele>305.11328</ele><time>2026-01-10T01:35:04.000Z</time></trkpt>
        <trkpt lat="28.757624" lon="104.676133"><ele>304.29526</ele><time>2026-01-10T01:35:08.000Z</time></trkpt>
        <trkpt lat="28.757684" lon="104.676136"><ele>303.95758</ele><time>2026-01-10T01:35:14.000Z</time></trkpt>
        <trkpt lat="28.757735" lon="104.676155"><ele>303.89523</ele><time>2026-01-10T01:35:19.000Z</time></trkpt>
        <trkpt lat="28.757789" lon="104.676168"><ele>302.36258</ele><time>2026-01-10T01:35:24.000Z</time></trkpt>
        <trkpt lat="28.757835" lon="104.676172"><ele>301.76108</ele><time>2026-01-10T01:35:33.000Z</time></trkpt>
        <trkpt lat="28.757884" lon="104.676187"><ele>301.37814</ele><time>2026-01-10T01:35:38.000Z</time></trkpt>
        <trkpt lat="28.757937" lon="104.676201"><ele>300.4987</ele><time>2026-01-10T01:35:44.000Z</time></trkpt>
        <trkpt lat="28.757983" lon="104.676203"><ele>300.55908</ele><time>2026-01-10T01:35:49.000Z</time></trkpt>
        <trkpt lat="28.758035" lon="104.676216"><ele>300.23807</ele><time>2026-01-10T01:35:54.000Z</time></trkpt>
        <trkpt lat="28.758082" lon="104.676224"><ele>299.91348</ele><time>2026-01-10T01:36:01.000Z</time></trkpt>
        <trkpt lat="28.75813" lon="104.676238"><ele>298.85968</ele><time>2026-01-10T01:36:14.000Z</time></trkpt>
        <trkpt lat="28.75818" lon="104.676243"><ele>297.92123</ele><time>2026-01-10T01:36:20.000Z</time></trkpt>
        <trkpt lat="28.758232" lon="104.676248"><ele>299.44858</ele><time>2026-01-10T01:36:24.000Z</time></trkpt>
        <trkpt lat="28.758279" lon="104.676246"><ele>298.9657</ele><time>2026-01-10T01:36:29.000Z</time></trkpt>
        <trkpt lat="28.758325" lon="104.676243"><ele>299.22345</ele><time>2026-01-10T01:36:34.000Z</time></trkpt>
        <trkpt lat="28.758371" lon="104.676228"><ele>298.6485</ele><time>2026-01-10T01:36:39.000Z</time></trkpt>
        <trkpt lat="28.758415" lon="104.676215"><ele>299.13953</ele><time>2026-01-10T01:36:43.000Z</time></trkpt>
        <trkpt lat="28.758469" lon="104.676215"><ele>299.18588</ele><time>2026-01-10T01:36:48.000Z</time></trkpt>
        <trkpt lat="28.75852" lon="104.676209"><ele>298.9003</ele><time>2026-01-10T01:36:54.000Z</time></trkpt>
        <trkpt lat="28.758573" lon="104.676214"><ele>298.88464</ele><time>2026-01-10T01:36:59.000Z</time></trkpt>
        <trkpt lat="28.75862" lon="104.676215"><ele>298.51025</ele><time>2026-01-10T01:37:09.000Z</time></trkpt>
        <trkpt lat="28.758673" lon="104.676214"><ele>298.76874</ele><time>2026-01-10T01:37:13.000Z</time></trkpt>
        <trkpt lat="28.758718" lon="104.676212"><ele>299.47006</ele><time>2026-01-10T01:37:17.000Z</time></trkpt>
        <trkpt lat="28.758774" lon="104.676208"><ele>299.36554</ele><time>2026-01-10T01:37:22.000Z</time></trkpt>
        <trkpt lat="28.758821" lon="104.676211"><ele>299.03192</ele><time>2026-01-10T01:37:26.000Z</time></trkpt>
        <trkpt lat="28.758872" lon="104.676205"><ele>298.17624</ele><time>2026-01-10T01:37:32.000Z</time></trkpt>
        <trkpt lat="28.758919" lon="104.676206"><ele>298.88245</ele><time>2026-01-10T01:37:35.000Z</time></trkpt>
        <trkpt lat="28.758976" lon="104.676209"><ele>299.29675</ele><time>2026-01-10T01:37:40.000Z</time></trkpt>
        <trkpt lat="28.759025" lon="104.676223"><ele>298.26236</ele><time>2026-01-10T01:37:45.000Z</time></trkpt>
        <trkpt lat="28.759076" lon="104.676242"><ele>296.36237</ele><time>2026-01-10T01:37:50.000Z</time></trkpt>
        <trkpt lat="28.759129" lon="104.676255"><ele>294.67184</ele><time>2026-01-10T01:37:56.000Z</time></trkpt>
        <trkpt lat="28.759175" lon="104.676264"><ele>294.76117</ele><time>2026-01-10T01:38:00.000Z</time></trkpt>
        <trkpt lat="28.759233" lon="104.676274"><ele>294.7128</ele><time>2026-01-10T01:38:05.000Z</time></trkpt>
        <trkpt lat="28.759278" lon="104.676254"><ele>293.17703</ele><time>2026-01-10T01:38:16.000Z</time></trkpt>
        <trkpt lat="28.75933" lon="104.676251"><ele>292.4304</ele><time>2026-01-10T01:38:24.000Z</time></trkpt>
        <trkpt lat="28.759379" lon="104.676242"><ele>293.39484</ele><time>2026-01-10T01:38:27.000Z</time></trkpt>
        <trkpt lat="28.75943" lon="104.676235"><ele>294.17496</ele><time>2026-01-10T01:38:31.000Z</time></trkpt>
        <trkpt lat="28.75948" lon="104.676241"><ele>294.45605</ele><time>2026-01-10T01:38:36.000Z</time></trkpt>
        <trkpt lat="28.759526" lon="104.676228"><ele>295.8419</ele><time>2026-01-10T01:38:41.000Z</time></trkpt>
        <trkpt lat="28.759576" lon="104.676244"><ele>296.01624</ele><time>2026-01-10T01:38:47.000Z</time></trkpt>
        <trkpt lat="28.759627" lon="104.676254"><ele>296.33243</ele><time>2026-01-10T01:38:52.000Z</time></trkpt>
        <trkpt lat="28.759682" lon="104.676245"><ele>296.71445</ele><time>2026-01-10T01:38:59.000Z</time></trkpt>
        <trkpt lat="28.75973" lon="104.676242"><ele>297.09473</ele><time>2026-01-10T01:39:03.000Z</time></trkpt>
        <trkpt lat="28.759784" lon="104.676254"><ele>297.75485</ele><time>2026-01-10T01:39:06.000Z</time></trkpt>
        <trkpt lat="28.759827" lon="104.676226"><ele>297.25</ele><time>2026-01-10T01:39:10.000Z</time></trkpt>
        <trkpt lat="28.759876" lon="104.676224"><ele>297.3483</ele><time>2026-01-10T01:39:16.000Z</time></trkpt>
        <trkpt lat="28.759929" lon="104.676238"><ele>299.00598</ele><time>2026-01-10T01:39:26.000Z</time></trkpt>
        <trkpt lat="28.759977" lon="104.676235"><ele>299.63297</ele><time>2026-01-10T01:39:31.000Z</time></trkpt>
        <trkpt lat="28.760025" lon="104.676211"><ele>299.75934</ele><time>2026-01-10T01:39:37.000Z</time></trkpt>
        <trkpt lat="28.760071" lon="104.676208"><ele>299.74335</ele><time>2026-01-10T01:39:41.000Z</time></trkpt>
        <trkpt lat="28.760125" lon="104.676206"><ele>299.92133</ele><time>2026-01-10T01:39:46.000Z</time></trkpt>
        <trkpt lat="28.760174" lon="104.67619"><ele>299.33463</ele><time>2026-01-10T01:39:51.000Z</time></trkpt>
        <trkpt lat="28.760213" lon="104.676163"><ele>299.71982</ele><time>2026-01-10T01:39:55.000Z</time></trkpt>
        <trkpt lat="28.760252" lon="104.676128"><ele>300.91714</ele><time>2026-01-10T01:39:59.000Z</time></trkpt>
        <trkpt lat="28.760305" lon="104.676107"><ele>301.72574</ele><time>2026-01-10T01:40:03.000Z</time></trkpt>
        <trkpt lat="28.760348" lon="104.676074"><ele>301.888</ele><time>2026-01-10T01:40:08.000Z</time></trkpt>
        <trkpt lat="28.760387" lon="104.676036"><ele>302.97345</ele><time>2026-01-10T01:40:30.000Z</time></trkpt>
        <trkpt lat="28.760421" lon="104.675997"><ele>303.73138</ele><time>2026-01-10T01:40:38.000Z</time></trkpt>
        <trkpt lat="28.760458" lon="104.675954"><ele>304.91254</ele><time>2026-01-10T01:40:44.000Z</time></trkpt>
        <trkpt lat="28.760496" lon="104.675919"><ele>305.95657</ele><time>2026-01-10T01:40:54.000Z</time></trkpt>
        <trkpt lat="28.760526" lon="104.675873"><ele>305.7104</ele><time>2026-01-10T01:41:08.000Z</time></trkpt>
        <trkpt lat="28.760555" lon="104.675825"><ele>306.5728</ele><time>2026-01-10T01:41:17.000Z</time></trkpt>
        <trkpt lat="28.760588" lon="104.675778"><ele>307.5882</ele><time>2026-01-10T01:41:27.000Z</time></trkpt>
        <trkpt lat="28.760626" lon="104.675739"><ele>308.37845</ele><time>2026-01-10T01:41:33.000Z</time></trkpt>
        <trkpt lat="28.760661" lon="104.675704"><ele>308.06012</ele><time>2026-01-10T01:41:39.000Z</time></trkpt>
        <trkpt lat="28.760707" lon="104.675671"><ele>308.70306</ele><time>2026-01-10T01:41:43.000Z</time></trkpt>
        <trkpt lat="28.760752" lon="104.675664"><ele>308.08655</ele><time>2026-01-10T01:41:53.000Z</time></trkpt>
        <trkpt lat="28.760786" lon="104.675623"><ele>307.79932</ele><time>2026-01-10T01:42:03.000Z</time></trkpt>
        <trkpt lat="28.760821" lon="104.675585"><ele>307.33664</ele><time>2026-01-10T01:42:10.000Z</time></trkpt>
        <trkpt lat="28.760865" lon="104.67556"><ele>306.68292</ele><time>2026-01-10T01:42:16.000Z</time></trkpt>
        <trkpt lat="28.760907" lon="104.675532"><ele>306.2705</ele><time>2026-01-10T01:42:21.000Z</time></trkpt>
        <trkpt lat="28.760952" lon="104.675507"><ele>305.56805</ele><time>2026-01-10T01:42:26.000Z</time></trkpt>
        <trkpt lat="28.760999" lon="104.675491"><ele>305.2003</ele><time>2026-01-10T01:42:33.000Z</time></trkpt>
        <trkpt lat="28.761048" lon="104.675492"><ele>304.0587</ele><time>2026-01-10T01:42:44.000Z</time></trkpt>
        <trkpt lat="28.761089" lon="104.675457"><ele>304.02875</ele><time>2026-01-10T01:42:48.000Z</time></trkpt>
        <trkpt lat="28.761128" lon="104.675426"><ele>304.12265</ele><time>2026-01-10T01:42:56.000Z</time></trkpt>
        <trkpt lat="28.761173" lon="104.675424"><ele>304.05997</ele><time>2026-01-10T01:43:02.000Z</time></trkpt>
        <trkpt lat="28.761221" lon="104.675406"><ele>303.6298</ele><time>2026-01-10T01:43:07.000Z</time></trkpt>
        <trkpt lat="28.761262" lon="104.675379"><ele>303.3161</ele><time>2026-01-10T01:43:12.000Z</time></trkpt>
        <trkpt lat="28.76131" lon="104.675358"><ele>303.50665</ele><time>2026-01-10T01:43:18.000Z</time></trkpt>
        <trkpt lat="28.761357" lon="104.675335"><ele>303.87247</ele><time>2026-01-10T01:43:23.000Z</time></trkpt>
        <trkpt lat="28.761402" lon="104.675312"><ele>304.2051</ele><time>2026-01-10T01:43:28.000Z</time></trkpt>
        <trkpt lat="28.761446" lon="104.675294"><ele>304.55167</ele><time>2026-01-10T01:43:33.000Z</time></trkpt>
        <trkpt lat="28.761498" lon="104.675275"><ele>305.4852</ele><time>2026-01-10T01:43:39.000Z</time></trkpt>
        <trkpt lat="28.761547" lon="104.675258"><ele>305.6429</ele><time>2026-01-10T01:43:44.000Z</time></trkpt>
        <trkpt lat="28.761594" lon="104.675237"><ele>305.9483</ele><time>2026-01-10T01:43:50.000Z</time></trkpt>
        <trkpt lat="28.76164" lon="104.675224"><ele>306.0377</ele><time>2026-01-10T01:43:56.000Z</time></trkpt>
        <trkpt lat="28.761687" lon="104.675211"><ele>305.83673</ele><time>2026-01-10T01:44:01.000Z</time></trkpt>
        <trkpt lat="28.76174" lon="104.675199"><ele>305.66608</ele><time>2026-01-10T01:44:07.000Z</time></trkpt>
        <trkpt lat="28.761796" lon="104.675197"><ele>306.35245</ele><time>2026-01-10T01:44:14.000Z</time></trkpt>
        <trkpt lat="28.761848" lon="104.675192"><ele>305.43512</ele><time>2026-01-10T01:44:19.000Z</time></trkpt>
        <trkpt lat="28.761897" lon="104.675188"><ele>304.9091</ele><time>2026-01-10T01:44:24.000Z</time></trkpt>
        <trkpt lat="28.761943" lon="104.67519"><ele>304.98465</ele><time>2026-01-10T01:44:29.000Z</time></trkpt>
        <trkpt lat="28.761985" lon="104.675169"><ele>305.08545</ele><time>2026-01-10T01:44:33.000Z</time></trkpt>
        <trkpt lat="28.762035" lon="104.675162"><ele>304.5969</ele><time>2026-01-10T01:44:38.000Z</time></trkpt>
        <trkpt lat="28.76208" lon="104.675158"><ele>303.87515</ele><time>2026-01-10T01:44:43.000Z</time></trkpt>
        <trkpt lat="28.762135" lon="104.675147"><ele>302.87143</ele><time>2026-01-10T01:44:49.000Z</time></trkpt>
        <trkpt lat="28.762184" lon="104.675135"><ele>302.60217</ele><time>2026-01-10T01:44:53.000Z</time></trkpt>
        <trkpt lat="28.762228" lon="104.675125"><ele>301.98907</ele><time>2026-01-10T01:44:57.000Z</time></trkpt>
        <trkpt lat="28.762275" lon="104.675114"><ele>301.70358</ele><time>2026-01-10T01:45:01.000Z</time></trkpt>
        <trkpt lat="28.762314" lon="104.675087"><ele>299.02444</ele><time>2026-01-10T01:45:09.000Z</time></trkpt>
        <trkpt lat="28.762356" lon="104.675059"><ele>297.2979</ele><time>2026-01-10T01:45:17.000Z</time></trkpt>
        <trkpt lat="28.762399" lon="104.67503"><ele>297.1482</ele><time>2026-01-10T01:45:23.000Z</time></trkpt>
        <trkpt lat="28.76244" lon="104.675007"><ele>296.3469</ele><time>2026-01-10T01:45:31.000Z</time></trkpt>
        <trkpt lat="28.762486" lon="104.674982"><ele>294.93423</ele><time>2026-01-10T01:45:37.000Z</time></trkpt>
        <trkpt lat="28.762527" lon="104.674958"><ele>294.7437</ele><time>2026-01-10T01:45:42.000Z</time></trkpt>
        <trkpt lat="28.76257" lon="104.674927"><ele>293.89597</ele><time>2026-01-10T01:45:47.000Z</time></trkpt>
        <trkpt lat="28.762606" lon="104.67489"><ele>293.019</ele><time>2026-01-10T01:45:53.000Z</time></trkpt>
        <trkpt lat="28.762634" lon="104.674847"><ele>292.41812</ele><time>2026-01-10T01:45:58.000Z</time></trkpt>
        <trkpt lat="28.762662" lon="104.674803"><ele>292.7884</ele><time>2026-01-10T01:46:02.000Z</time></trkpt>
        <trkpt lat="28.762695" lon="104.674756"><ele>293.59885</ele><time>2026-01-10T01:46:06.000Z</time></trkpt>
        <trkpt lat="28.762723" lon="104.6747"><ele>294.0969</ele><time>2026-01-10T01:46:10.000Z</time></trkpt>
        <trkpt lat="28.762732" lon="104.674643"><ele>293.18854</ele><time>2026-01-10T01:46:15.000Z</time></trkpt>
        <trkpt lat="28.762735" lon="104.674583"><ele>293.8011</ele><time>2026-01-10T01:46:20.000Z</time></trkpt>
        <trkpt lat="28.762731" lon="104.674523"><ele>292.8692</ele><time>2026-01-10T01:46:30.000Z</time></trkpt>
        <trkpt lat="28.762737" lon="104.674466"><ele>292.3968</ele><time>2026-01-10T01:46:36.000Z</time></trkpt>
        <trkpt lat="28.762775" lon="104.674423"><ele>292.96332</ele><time>2026-01-10T01:46:40.000Z</time></trkpt>
        <trkpt lat="28.762813" lon="104.674389"><ele>292.87848</ele><time>2026-01-10T01:46:44.000Z</time></trkpt>
        <trkpt lat="28.762828" lon="104.674319"><ele>292.74832</ele><time>2026-01-10T01:46:54.000Z</time></trkpt>
        <trkpt lat="28.76285" lon="104.674269"><ele>291.18906</ele><time>2026-01-10T01:46:59.000Z</time></trkpt>
        <trkpt lat="28.762883" lon="104.674307"><ele>290.20178</ele><time>2026-01-10T01:47:47.000Z</time></trkpt>
        <trkpt lat="28.762916" lon="104.67426"><ele>289.48865</ele><time>2026-01-10T01:48:05.000Z</time></trkpt>
        <trkpt lat="28.762846" lon="104.674285"><ele>288.84952</ele><time>2026-01-10T01:48:35.000Z</time></trkpt>
        <trkpt lat="28.762888" lon="104.674303"><ele>291.29663</ele><time>2026-01-10T01:49:45.000Z</time></trkpt>
        <trkpt lat="28.762862" lon="104.674248"><ele>290.95328</ele><time>2026-01-10T01:50:27.000Z</time></trkpt>
        <trkpt lat="28.762852" lon="104.674195"><ele>290.96457</ele><time>2026-01-10T01:50:30.000Z</time></trkpt>
      </trkseg>
  </trk>
</gpx>